Darstellungsparameter: Aktuell verwendete Einstellungen:
Skalierung der Graphiken ... ?
xyx+y,   Skalierungsfaktor:      Skalierung: Modus: x, Faktor: 1
Darstellungszeitraum ... ?
Vom - - bis: - -   Zeitraum: 14.02.2009 - 13.08.2009
Min/Max/Avg-Anzeige ... ?
Zeige MMA aktuell
Zeige MMA Monat
Zeige MMA alles
Zeige --A aktuell
Zeige --A Monat
Zeige --A alles
Keine MMA-Anzeige
MMA:
Minimum Maximum Average (ber die Originaldaten)
MMA-Basis: 14.02.2009 - 13.08.2009
Quicknavigation für Darstellung... ?
Tage:      1T, 2T, 3T, 5T -1T -2T -3T -5T +1T +2T +3T +5T
Wochen: 1W, 2W, 3W -1W -2W -3W +1W +2W +3W
Monate: 1M, 3M, 6M -1M -3M -6M +1M +3M +6M
Jahre:    1J, 3J, 5J, 10J -1J -3J -5J -10J +1J +3J +5J +10J
Nutze für die Darstellung ... ?
Originaldaten oder Mittelwerte auf ...
Stundenbasis Tagesbasis Wochenbasis
Monatsbasis Jahresbasis      Datenbasis: Original-Daten
Darstellen als:
Statistik (Auto) Statistik J:M      Darstellung:
Zur Graphik,    zurück zur Übersicht aller Sensoren.
 
Tabellarische Datenbersicht: ?
 
Sensor: Nr:Datum:Temp:Feuchte:Taupunkt:
Aussen-T/F 1 14-02-2009 00:01:10 0.4 C 84 % -1.98 C
2 14-02-2009 00:13:10 0.4 C 84 % -1.98 C
3 14-02-2009 00:25:10 0.5 C 84 % -1.88 C
4 14-02-2009 00:37:10 0.6 C 83 % -1.95 C
5 14-02-2009 00:49:10 0.5 C 83 % -2.04 C
6 14-02-2009 01:01:10 0.5 C 83 % -2.04 C
7 14-02-2009 01:13:10 0.5 C 83 % -2.04 C
8 14-02-2009 01:25:10 0.4 C 83 % -2.14 C
9 14-02-2009 01:37:10 0.5 C 82 % -2.21 C
10 14-02-2009 01:49:10 0.5 C 81 % -2.37 C
11 14-02-2009 02:01:10 0.6 C 80 % -2.44 C
12 14-02-2009 02:13:10 0.5 C 79 % -2.71 C
13 14-02-2009 02:25:10 0.3 C 81 % -2.57 C
14 14-02-2009 02:37:10 0.2 C 83 % -2.34 C
15 14-02-2009 02:49:11 0.2 C 85 % -2.02 C
16 14-02-2009 03:01:11 0.2 C 85 % -2.02 C
17 14-02-2009 03:13:11 0.3 C 85 % -1.92 C
18 14-02-2009 03:25:11 0.2 C 85 % -2.02 C
19 14-02-2009 03:37:11 0.1 C 85 % -2.11 C
20 14-02-2009 03:49:11 0.1 C 86 % -1.96 C
21 14-02-2009 04:01:11 0.2 C 86 % -1.86 C
22 14-02-2009 04:13:11 0.2 C 87 % -1.7 C
23 14-02-2009 04:25:11 0.2 C 87 % -1.7 C
24 14-02-2009 04:37:11 0.2 C 88 % -1.55 C
25 14-02-2009 04:49:11 0.2 C 88 % -1.55 C
Sensor: Nr:Datum:Temp:Feuchte:Taupunkt:
Aussen-T/F 26 14-02-2009 05:01:11 0.2 C 88 % -1.55 C
27 14-02-2009 05:13:11 0.1 C 88 % -1.65 C
28 14-02-2009 05:25:11 0.2 C 88 % -1.55 C
29 14-02-2009 05:37:11 0.2 C 88 % -1.55 C
30 14-02-2009 05:49:11 0.2 C 88 % -1.55 C
31 14-02-2009 06:01:11 0.2 C 88 % -1.55 C
32 14-02-2009 06:13:11 0.2 C 87 % -1.7 C
33 14-02-2009 06:25:11 0.2 C 87 % -1.7 C
34 14-02-2009 06:37:12 0.2 C 86 % -1.86 C
35 14-02-2009 06:49:12 0.2 C 86 % -1.86 C
36 14-02-2009 07:01:12 0.2 C 86 % -1.86 C
37 14-02-2009 07:13:12 0.1 C 86 % -1.96 C
38 14-02-2009 07:25:12 0.1 C 86 % -1.96 C
39 14-02-2009 07:37:12 0.2 C 86 % -1.86 C
40 14-02-2009 07:49:10 0.3 C 86 % -1.76 C
41 14-02-2009 08:01:09 0.4 C 85 % -1.82 C
42 14-02-2009 08:13:09 0.5 C 83 % -2.04 C
43 14-02-2009 08:25:09 0.4 C 82 % -2.3 C
44 14-02-2009 08:37:09 0.3 C 80 % -2.73 C
45 14-02-2009 08:49:09 0.2 C 79 % -3 C
46 14-02-2009 09:01:08 0.2 C 78 % -3.17 C
47 14-02-2009 09:13:08 0.2 C 78 % -3.17 C
48 14-02-2009 09:25:08 0.4 C 78 % -2.98 C
49 14-02-2009 09:37:09 0.3 C 78 % -3.07 C
50 14-02-2009 09:49:08 0.3 C 78 % -3.07 C
Sensor: Nr:Datum:Temp:Feuchte:Taupunkt:
Aussen-T/F 51 14-02-2009 10:01:08 0.4 C 77 % -3.15 C
52 14-02-2009 10:13:08 0.2 C 75 % -3.69 C
53 14-02-2009 10:25:08 0.1 C 74 % -3.97 C
54 14-02-2009 10:37:08 0.3 C 72 % -4.14 C
55 14-02-2009 10:49:07 0.6 C 70 % -4.23 C
56 14-02-2009 11:01:08 0.8 C 66 % -4.81 C
57 14-02-2009 11:13:08 0.6 C 67 % -4.81 C
58 14-02-2009 11:25:07 0.9 C 67 % -4.52 C
59 14-02-2009 11:37:07 0.8 C 64 % -5.22 C
60 14-02-2009 11:49:07 0.8 C 63 % -5.42 C
61 14-02-2009 12:01:07 0.9 C 61 % -5.75 C
62 14-02-2009 12:13:07 0.9 C 62 % -5.54 C
63 14-02-2009 12:25:07 1.4 C 59 % -5.72 C
64 14-02-2009 12:37:06 1.5 C 57 % -6.07 C
65 14-02-2009 12:49:07 2 C 55 % -6.07 C
66 14-02-2009 13:01:06 1.8 C 52 % -6.99 C
67 14-02-2009 13:13:06 2.4 C 51 % -6.68 C
68 14-02-2009 13:25:06 2.6 C 49 % -7.02 C
69 14-02-2009 13:37:06 2.9 C 46 % -7.56 C
70 14-02-2009 13:49:06 3.1 C 44 % -7.95 C
71 14-02-2009 14:01:05 3.4 C 42 % -8.27 C
72 14-02-2009 14:13:05 3.7 C 41 % -8.31 C
73 14-02-2009 14:25:06 3.7 C 42 % -8 C
74 14-02-2009 14:37:06 3.8 C 43 % -7.61 C
75 14-02-2009 14:49:05 3.6 C 44 % -7.49 C
Sensor: Nr:Datum:Temp:Feuchte:Taupunkt:
Aussen-T/F 76 14-02-2009 15:01:06 4.1 C 42 % -7.64 C
77 14-02-2009 15:13:06 4.2 C 40 % -8.17 C
78 14-02-2009 15:25:05 3.6 C 43 % -7.79 C
79 14-02-2009 15:37:05 3.3 C 44 % -7.76 C
80 14-02-2009 15:49:05 2.9 C 45 % -7.84 C
81 14-02-2009 16:01:05 2.9 C 45 % -7.84 C
82 14-02-2009 16:13:05 3.2 C 44 % -7.85 C
83 14-02-2009 16:25:04 3.3 C 41 % -8.67 C
84 14-02-2009 16:37:04 3.9 C 42 % -7.82 C
85 14-02-2009 16:49:04 3.9 C 39 % -8.77 C
86 14-02-2009 17:01:04 3.3 C 40 % -8.98 C
87 14-02-2009 17:13:04 2.6 C 44 % -8.4 C
88 14-02-2009 17:25:04 2.2 C 46 % -8.2 C
89 14-02-2009 17:37:04 1.5 C 47 % -8.56 C
90 14-02-2009 17:49:04 0.8 C 49 % -8.68 C
91 14-02-2009 18:01:03 0.4 C 52 % -8.29 C
92 14-02-2009 18:13:03 0.2 C 52 % -8.47 C
93 14-02-2009 18:25:04 0.2 C 50 % -8.97 C
94 14-02-2009 18:37:03 -0.1 C 50 % -9.26 C
95 14-02-2009 18:49:03 -0.3 C 51 % -9.2 C
96 14-02-2009 19:01:03 -0.3 C 51 % -9.2 C
97 14-02-2009 19:13:03 -0.8 C 54 % -8.93 C
98 14-02-2009 19:25:03 -0.9 C 56 % -8.56 C
99 14-02-2009 19:37:03 -1 C 59 % -7.99 C
100 14-02-2009 19:49:03 -1.2 C 60 % -7.96 C
Sensor: Nr:Datum:Temp:Feuchte:Taupunkt:
Aussen-T/F 101 14-02-2009 20:01:03 -1.3 C 62 % -7.63 C
102 14-02-2009 20:13:03 -1.4 C 63 % -7.52 C
103 14-02-2009 20:25:02 -1.6 C 64 % -7.51 C
104 14-02-2009 20:37:02 -1.8 C 65 % -7.5 C
105 14-02-2009 20:49:02 -2 C 66 % -7.49 C
106 14-02-2009 21:01:01 -2.1 C 66 % -7.59 C
107 14-02-2009 21:13:01 -2.3 C 66 % -7.78 C
108 14-02-2009 21:25:02 -2.4 C 67 % -7.68 C
109 14-02-2009 21:37:02 -2.6 C 68 % -7.68 C
110 14-02-2009 21:49:01 -2.3 C 70 % -7.02 C
111 14-02-2009 22:01:02 -2.2 C 70 % -6.92 C
112 14-02-2009 22:13:02 -2.3 C 70 % -7.02 C
113 14-02-2009 22:25:01 -2.4 C 70 % -7.11 C
114 14-02-2009 22:37:01 -2.3 C 71 % -6.83 C
115 14-02-2009 22:49:01 -2.3 C 70 % -7.02 C
116 14-02-2009 23:01:01 -2.2 C 70 % -6.92 C
117 14-02-2009 23:13:02 -2.5 C 70 % -7.21 C
118 14-02-2009 23:25:00 -2.6 C 70 % -7.31 C
119 14-02-2009 23:37:00 -2.8 C 71 % -7.31 C
120 14-02-2009 23:49:00 -2.9 C 71 % -7.41 C
121 15-02-2009 00:01:00 -2.9 C 72 % -7.23 C
122 15-02-2009 00:13:00 -3.1 C 72 % -7.42 C
123 15-02-2009 00:25:00 -3.3 C 72 % -7.62 C
124 15-02-2009 00:37:00 -3.5 C 72 % -7.81 C
125 15-02-2009 00:49:59 -3.5 C 73 % -7.63 C
Sensor: Nr:Datum:Temp:Feuchte:Taupunkt:
Aussen-T/F 126 15-02-2009 01:12:59 -3.6 C 74 % -7.55 C
127 15-02-2009 01:13:00 -3.7 C 74 % -7.65 C
128 15-02-2009 01:25:00 -3.8 C 74 % -7.75 C
129 15-02-2009 01:37:59 -3.9 C 75 % -7.67 C
130 15-02-2009 01:49:59 -4 C 75 % -7.77 C
131 15-02-2009 02:01:59 -4 C 76 % -7.59 C
132 15-02-2009 02:13:59 -4.1 C 76 % -7.69 C
133 15-02-2009 02:26:00 -4.2 C 77 % -7.62 C
134 15-02-2009 02:37:58 -4.2 C 77 % -7.62 C
135 15-02-2009 02:51:01 -4.4 C 77 % -7.81 C
136 15-02-2009 03:03:01 -4.5 C 77 % -7.91 C
137 15-02-2009 03:15:01 -4.6 C 78 % -7.84 C
138 15-02-2009 03:27:01 -4.7 C 78 % -7.94 C
139 15-02-2009 03:39:01 -4.7 C 78 % -7.94 C
140 15-02-2009 03:51:01 -4.8 C 78 % -8.04 C
141 15-02-2009 04:03:02 -4.9 C 78 % -8.13 C
142 15-02-2009 04:15:01 -5 C 78 % -8.23 C
143 15-02-2009 04:27:01 -5.2 C 78 % -8.43 C
144 15-02-2009 04:39:02 -5.2 C 78 % -8.43 C
145 15-02-2009 04:51:02 -5.5 C 78 % -8.72 C
146 15-02-2009 05:02:59 -5.6 C 78 % -8.82 C
147 15-02-2009 05:14:59 -5.4 C 78 % -8.62 C
148 15-02-2009 05:26:59 -5.5 C 79 % -8.56 C
149 15-02-2009 05:38:58 -5.6 C 78 % -8.82 C
150 15-02-2009 05:50:58 -5.7 C 78 % -8.91 C
Sensor: Nr:Datum:Temp:Feuchte:Taupunkt:
Aussen-T/F 151 15-02-2009 06:02:59 -5.7 C 79 % -8.75 C
152 15-02-2009 06:14:59 -5.8 C 79 % -8.85 C
153 15-02-2009 06:26:59 -5.8 C 79 % -8.85 C
154 15-02-2009 06:38:58 -6 C 79 % -9.04 C
155 15-02-2009 06:50:59 -6 C 79 % -9.04 C
156 15-02-2009 07:02:58 -6.1 C 79 % -9.14 C
157 15-02-2009 07:14:58 -6.1 C 79 % -9.14 C
158 15-02-2009 07:26:59 -6.2 C 79 % -9.24 C
159 15-02-2009 07:38:57 -6.3 C 79 % -9.33 C
160 15-02-2009 07:50:58 -6.3 C 79 % -9.33 C
161 15-02-2009 08:02:57 -6.3 C 79 % -9.33 C
162 15-02-2009 08:14:57 -6.2 C 79 % -9.24 C
163 15-02-2009 08:26:57 -6 C 79 % -9.04 C
164 15-02-2009 08:38:58 -5.9 C 79 % -8.95 C
165 15-02-2009 08:50:57 -5.6 C 79 % -8.65 C
166 15-02-2009 09:02:57 -5.3 C 79 % -8.36 C
167 15-02-2009 09:14:57 -5 C 79 % -8.07 C
168 15-02-2009 09:26:57 -4.8 C 78 % -8.04 C
169 15-02-2009 09:38:57 -4.6 C 77 % -8.01 C
170 15-02-2009 09:50:56 -4.4 C 76 % -7.98 C
171 15-02-2009 10:02:57 -4.2 C 75 % -7.96 C
172 15-02-2009 10:14:56 -3.9 C 75 % -7.67 C
173 15-02-2009 10:26:56 -3.5 C 73 % -7.63 C
174 15-02-2009 10:38:56 -3.1 C 71 % -7.6 C
175 15-02-2009 10:50:55 -2.9 C 70 % -7.59 C
Sensor: Nr:Datum:Temp:Feuchte:Taupunkt:
Aussen-T/F 176 15-02-2009 11:02:56 -2.5 C 69 % -7.4 C
177 15-02-2009 11:14:56 -2 C 67 % -7.3 C
178 15-02-2009 11:26:56 -1.6 C 65 % -7.31 C
179 15-02-2009 11:38:55 -1.2 C 64 % -7.13 C
180 15-02-2009 11:50:56 -0.9 C 63 % -7.05 C
181 15-02-2009 12:02:55 -0.4 C 62 % -6.78 C
182 15-02-2009 12:14:55 -0.1 C 60 % -6.92 C
183 15-02-2009 12:26:55 0.3 C 59 % -6.75 C
184 15-02-2009 12:38:55 0.8 C 59 % -6.28 C
185 15-02-2009 12:50:55 1 C 55 % -7.01 C
186 15-02-2009 13:02:55 1.5 C 52 % -7.27 C
187 15-02-2009 13:14:54 1.8 C 49 % -7.75 C
188 15-02-2009 13:26:54 1.8 C 47 % -8.29 C
189 15-02-2009 13:38:55 2 C 46 % -8.38 C
190 15-02-2009 13:50:54 1.8 C 46 % -8.56 C
191 15-02-2009 14:02:54 2 C 45 % -8.66 C
192 15-02-2009 14:14:54 2.1 C 45 % -8.57 C
193 15-02-2009 14:26:54 2.1 C 45 % -8.57 C
194 15-02-2009 14:38:54 2.2 C 45 % -8.48 C
195 15-02-2009 14:50:53 2.2 C 45 % -8.48 C
196 15-02-2009 15:02:54 2.3 C 44 % -8.67 C
197 15-02-2009 15:14:53 2.4 C 44 % -8.58 C
198 15-02-2009 15:26:53 2.4 C 45 % -8.3 C
199 15-02-2009 15:38:54 2.5 C 45 % -8.2 C
200 15-02-2009 15:50:53 2.4 C 45 % -8.3 C
Sensor: Nr:Datum:Temp:Feuchte:Taupunkt:
Aussen-T/F 201 15-02-2009 16:02:53 2.4 C 45 % -8.3 C
202 15-02-2009 16:14:53 2.3 C 45 % -8.39 C
203 15-02-2009 16:26:54 2.2 C 46 % -8.2 C
204 15-02-2009 16:38:52 2.1 C 47 % -8.01 C
205 15-02-2009 16:50:53 2 C 48 % -7.83 C
206 15-02-2009 17:02:52 1.8 C 50 % -7.49 C
207 15-02-2009 17:14:52 1.6 C 50 % -7.68 C
208 15-02-2009 17:26:52 1.6 C 50 % -7.68 C
209 15-02-2009 17:38:52 1.4 C 50 % -7.86 C
210 15-02-2009 17:50:52 1.2 C 51 % -7.79 C
211 15-02-2009 18:02:52 1.2 C 51 % -7.79 C
212 15-02-2009 18:14:51 1.1 C 51 % -7.89 C
213 15-02-2009 18:26:51 0.9 C 53 % -7.58 C
214 15-02-2009 18:38:52 0.7 C 54 % -7.52 C
215 15-02-2009 18:50:51 0.7 C 54 % -7.52 C
216 15-02-2009 19:02:51 0.7 C 53 % -7.76 C
217 15-02-2009 19:14:51 0.8 C 54 % -7.43 C
218 15-02-2009 19:26:51 1 C 52 % -7.73 C
219 15-02-2009 19:38:51 1.1 C 51 % -7.89 C
220 15-02-2009 19:50:50 1.2 C 51 % -7.79 C
221 15-02-2009 20:02:51 1.3 C 50 % -7.96 C
222 15-02-2009 20:14:51 1.4 C 50 % -7.86 C
223 15-02-2009 20:26:51 1.4 C 50 % -7.86 C
224 15-02-2009 20:38:50 1.4 C 50 % -7.86 C
225 15-02-2009 20:50:51 1.4 C 51 % -7.61 C
Sensor: Nr:Datum:Temp:Feuchte:Taupunkt:
Aussen-T/F 226 15-02-2009 21:02:50 1.3 C 54 % -6.96 C
227 15-02-2009 21:14:50 1.2 C 57 % -6.36 C
228 15-02-2009 21:26:50 1 C 60 % -5.87 C
229 15-02-2009 21:38:49 0.8 C 64 % -5.22 C
230 15-02-2009 21:50:00 0.8 C 65 % -5.01 C
231 15-02-2009 22:03:51 0.6 C 68 % -4.61 C
232 15-02-2009 22:15:51 0.5 C 70 % -4.32 C
233 15-02-2009 22:27:51 0.5 C 72 % -3.95 C
234 15-02-2009 22:39:51 0.5 C 72 % -3.95 C
235 15-02-2009 22:51:51 0.4 C 73 % -3.86 C
236 15-02-2009 23:03:51 0.4 C 75 % -3.5 C
237 15-02-2009 23:15:51 0.3 C 76 % -3.42 C
238 15-02-2009 23:27:51 0.3 C 77 % -3.25 C
239 15-02-2009 23:39:51 0.2 C 78 % -3.17 C
240 15-02-2009 23:51:51 0.2 C 78 % -3.17 C
241 16-02-2009 00:03:51 0.2 C 78 % -3.17 C
242 16-02-2009 00:15:51 0.2 C 79 % -3 C
243 16-02-2009 00:27:51 0.1 C 80 % -2.93 C
244 16-02-2009 00:39:51 0.1 C 82 % -2.6 C
245 16-02-2009 00:51:51 0 C 83 % -2.53 C
246 16-02-2009 01:03:51 0 C 83 % -2.53 C
247 16-02-2009 01:15:51 0 C 83 % -2.53 C
248 16-02-2009 01:27:51 0 C 83 % -2.53 C
249 16-02-2009 01:39:52 0 C 83 % -2.53 C
250 16-02-2009 01:51:52 0 C 83 % -2.53 C
Sensor: Nr:Datum:Temp:Feuchte:Taupunkt:
Aussen-T/F 251 16-02-2009 02:03:52 0 C 83 % -2.53 C
252 16-02-2009 02:15:52 0.1 C 82 % -2.6 C
253 16-02-2009 02:27:52 0.1 C 81 % -2.76 C
254 16-02-2009 02:39:52 0.2 C 81 % -2.67 C
255 16-02-2009 02:51:52 0.2 C 80 % -2.83 C
256 16-02-2009 03:03:52 0.2 C 80 % -2.83 C
257 16-02-2009 03:15:52 0.2 C 80 % -2.83 C
258 16-02-2009 03:27:52 0.2 C 80 % -2.83 C
259 16-02-2009 03:39:52 0.3 C 80 % -2.73 C
260 16-02-2009 03:51:52 0.3 C 79 % -2.9 C
261 16-02-2009 04:03:52 0.3 C 78 % -3.07 C
262 16-02-2009 04:15:52 0.4 C 78 % -2.98 C
263 16-02-2009 04:27:52 0.4 C 78 % -2.98 C
264 16-02-2009 04:39:52 0.4 C 78 % -2.98 C
265 16-02-2009 04:51:52 0.4 C 78 % -2.98 C
266 16-02-2009 05:03:52 0.5 C 78 % -2.88 C
267 16-02-2009 05:15:52 0.5 C 78 % -2.88 C
268 16-02-2009 05:27:52 0.5 C 78 % -2.88 C
269 16-02-2009 05:39:53 0.5 C 78 % -2.88 C
270 16-02-2009 05:51:53 0.4 C 78 % -2.98 C
271 16-02-2009 06:03:53 0.4 C 79 % -2.81 C
272 16-02-2009 06:15:53 0.4 C 81 % -2.47 C
273 16-02-2009 06:27:53 0.3 C 82 % -2.4 C
274 16-02-2009 06:39:53 0.4 C 83 % -2.14 C
275 16-02-2009 06:51:53 0.4 C 83 % -2.14 C
Sensor: Nr:Datum:Temp:Feuchte:Taupunkt:
Aussen-T/F 276 16-02-2009 07:03:51 0.4 C 84 % -1.98 C
277 16-02-2009 07:15:50 0.4 C 85 % -1.82 C
278 16-02-2009 07:27:50 0.4 C 85 % -1.82 C
279 16-02-2009 07:39:51 0.4 C 85 % -1.82 C
280 16-02-2009 07:51:50 0.5 C 85 % -1.72 C
281 16-02-2009 08:03:50 0.5 C 85 % -1.72 C
282 16-02-2009 08:15:50 0.5 C 85 % -1.72 C
283 16-02-2009 08:27:50 0.5 C 85 % -1.72 C
284 16-02-2009 08:39:50 0.6 C 85 % -1.62 C
285 16-02-2009 08:51:49 0.7 C 85 % -1.53 C
286 16-02-2009 09:03:50 0.8 C 85 % -1.43 C
287 16-02-2009 09:15:50 1 C 83 % -1.55 C
288 16-02-2009 09:27:50 1.1 C 83 % -1.46 C
289 16-02-2009 09:39:49 1.2 C 82 % -1.52 C
290 16-02-2009 09:51:50 1.3 C 81 % -1.59 C
291 16-02-2009 10:03:49 1.3 C 80 % -1.76 C
292 16-02-2009 10:15:49 1.3 C 80 % -1.76 C
293 16-02-2009 10:27:49 1.5 C 82 % -1.23 C
294 16-02-2009 10:39:48 1.5 C 83 % -1.06 C
295 16-02-2009 10:51:49 1.4 C 84 % -1 C
296 16-02-2009 11:03:48 1.2 C 85 % -1.03 C
297 16-02-2009 11:15:48 1.5 C 86 % -0.58 C
298 16-02-2009 11:27:48 1.6 C 87 % -0.32 C
299 16-02-2009 11:39:48 1.7 C 86 % -0.38 C
300 16-02-2009 11:51:48 1.8 C 86 % -0.29 C
Sensor: Nr:Datum:Temp:Feuchte:Taupunkt:
Aussen-T/F 301 16-02-2009 12:03:48 1.9 C 87 % -0.03 C
302 16-02-2009 12:15:47 2.1 C 86 % 0.01 C
303 16-02-2009 12:27:47 2.3 C 86 % 0.21 C
304 16-02-2009 12:39:48 2.6 C 84 % 0.18 C
305 16-02-2009 12:51:47 2.7 C 83 % 0.11 C
306 16-02-2009 13:03:47 2.8 C 82 % 0.04 C
307 16-02-2009 13:15:47 3 C 81 % 0.07 C
308 16-02-2009 13:27:47 3.4 C 80 % 0.29 C
309 16-02-2009 13:39:47 3.8 C 78 % 0.33 C
310 16-02-2009 13:51:46 3.8 C 78 % 0.33 C
311 16-02-2009 14:03:47 3.9 C 77 % 0.25 C
312 16-02-2009 14:15:47 4 C 76 % 0.16 C
313 16-02-2009 14:27:47 3.8 C 77 % 0.15 C
314 16-02-2009 14:39:46 3.8 C 78 % 0.33 C
315 16-02-2009 14:51:47 3.6 C 78 % 0.13 C
316 16-02-2009 15:03:46 3.5 C 79 % 0.21 C
317 16-02-2009 15:15:46 3.4 C 81 % 0.46 C
318 16-02-2009 15:27:46 3.4 C 82 % 0.63 C
319 16-02-2009 15:39:45 3.4 C 83 % 0.79 C
320 16-02-2009 15:51:46 3.4 C 84 % 0.96 C
321 16-02-2009 16:03:45 3.4 C 85 % 1.12 C
322 16-02-2009 16:15:45 3.4 C 85 % 1.12 C
323 16-02-2009 16:27:45 3.4 C 86 % 1.29 C
324 16-02-2009 16:39:46 3.3 C 86 % 1.19 C
325 16-02-2009 16:51:45 3.3 C 87 % 1.35 C
Sensor: Nr:Datum:Temp:Feuchte:Taupunkt:
Aussen-T/F 326 16-02-2009 17:03:45 3.3 C 87 % 1.35 C
327 16-02-2009 17:15:45 3.3 C 88 % 1.51 C
328 16-02-2009 17:27:45 3.2 C 88 % 1.41 C
329 16-02-2009 17:39:45 3.2 C 88 % 1.41 C
330 16-02-2009 17:51:44 3.2 C 89 % 1.57 C
331 16-02-2009 18:03:45 3.2 C 89 % 1.57 C
332 16-02-2009 18:15:44 3.3 C 90 % 1.82 C
333 16-02-2009 18:27:44 3.3 C 90 % 1.82 C
334 16-02-2009 18:39:44 3.3 C 90 % 1.82 C
335 16-02-2009 18:51:44 3.3 C 90 % 1.82 C
336 16-02-2009 19:03:44 3.4 C 91 % 2.07 C
337 16-02-2009 19:15:44 3.4 C 91 % 2.07 C
338 16-02-2009 19:27:44 3.5 C 91 % 2.17 C
339 16-02-2009 19:39:43 3.4 C 91 % 2.07 C
340 16-02-2009 19:51:44 3.4 C 91 % 2.07 C
341 16-02-2009 20:03:43 3.4 C 91 % 2.07 C
342 16-02-2009 20:15:43 3.6 C 91 % 2.27 C
343 16-02-2009 20:27:43 3.6 C 91 % 2.27 C
344 16-02-2009 20:39:43 3.5 C 91 % 2.17 C
345 16-02-2009 20:51:43 3.5 C 91 % 2.17 C
346 16-02-2009 21:03:43 3.5 C 91 % 2.17 C
347 16-02-2009 21:15:43 3.5 C 91 % 2.17 C
348 16-02-2009 21:27:43 3.6 C 91 % 2.27 C
349 16-02-2009 21:39:42 3.4 C 91 % 2.07 C
350 16-02-2009 21:52:59 3.5 C 91 % 2.17 C
Sensor: Nr:Datum:Temp:Feuchte:Taupunkt:
Aussen-T/F 351 16-02-2009 22:04:59 3.3 C 91 % 1.98 C
352 16-02-2009 22:16:59 3.3 C 92 % 2.13 C
353 16-02-2009 22:28:59 3.3 C 92 % 2.13 C
354 16-02-2009 22:40:59 3.4 C 92 % 2.23 C
355 16-02-2009 22:52:59 3.4 C 93 % 2.38 C
356 16-02-2009 23:04:59 3.5 C 93 % 2.48 C
357 16-02-2009 23:16:59 3.8 C 93 % 2.77 C
358 16-02-2009 23:28:59 3.9 C 93 % 2.87 C
359 16-02-2009 23:40:59 3.9 C 92 % 2.72 C
360 16-02-2009 23:52:59 4 C 91 % 2.67 C
361 17-02-2009 00:04:59 4 C 91 % 2.67 C
362 17-02-2009 00:16:59 4 C 91 % 2.67 C
363 17-02-2009 00:28:59 3.9 C 91 % 2.57 C
364 17-02-2009 00:40:59 3.9 C 92 % 2.72 C
365 17-02-2009 00:51:59 3.9 C 92 % 2.72 C
366 17-02-2009 01:04:00 3.9 C 92 % 2.72 C
367 17-02-2009 01:16:00 3.9 C 92 % 2.72 C
368 17-02-2009 01:28:00 3.9 C 92 % 2.72 C
369 17-02-2009 01:40:00 4 C 92 % 2.82 C
370 17-02-2009 01:52:00 3.9 C 93 % 2.87 C
371 17-02-2009 02:04:00 3.9 C 93 % 2.87 C
372 17-02-2009 02:16:00 3.9 C 93 % 2.87 C
373 17-02-2009 02:28:00 3.9 C 93 % 2.87 C
374 17-02-2009 02:40:00 3.9 C 93 % 2.87 C
375 17-02-2009 02:52:00 3.9 C 93 % 2.87 C
Sensor: Nr:Datum:Temp:Feuchte:Taupunkt:
Aussen-T/F 376 17-02-2009 03:04:00 4 C 93 % 2.97 C
377 17-02-2009 03:16:00 4 C 93 % 2.97 C
378 17-02-2009 03:28:00 4 C 93 % 2.97 C
379 17-02-2009 03:40:00 4 C 93 % 2.97 C
380 17-02-2009 03:52:00 4 C 93 % 2.97 C
381 17-02-2009 04:04:00 4 C 93 % 2.97 C
382 17-02-2009 04:16:00 4.1 C 94 % 3.22 C
383 17-02-2009 04:28:00 4.2 C 94 % 3.32 C
384 17-02-2009 04:40:00 4.2 C 94 % 3.32 C
385 17-02-2009 04:52:00 4.3 C 94 % 3.42 C
386 17-02-2009 05:04:00 4.3 C 94 % 3.42 C
387 17-02-2009 05:16:01 4.3 C 94 % 3.42 C
388 17-02-2009 05:28:01 4.4 C 94 % 3.52 C
389 17-02-2009 05:40:01 4.4 C 94 % 3.52 C
390 17-02-2009 05:52:01 4.4 C 94 % 3.52 C
391 17-02-2009 06:04:01 4.5 C 94 % 3.62 C
392 17-02-2009 06:16:01 4.4 C 94 % 3.52 C
393 17-02-2009 06:28:01 4.4 C 94 % 3.52 C
394 17-02-2009 06:40:01 4.4 C 94 % 3.52 C
395 17-02-2009 06:52:01 4.5 C 94 % 3.62 C
396 17-02-2009 07:04:43 4.5 C 94 % 3.62 C
397 17-02-2009 07:16:43 4.7 C 95 % 3.97 C
398 17-02-2009 07:28:43 4.7 C 95 % 3.97 C
399 17-02-2009 07:40:43 4.6 C 95 % 3.87 C
400 17-02-2009 07:52:43 4.7 C 95 % 3.97 C
Sensor: Nr:Datum:Temp:Feuchte:Taupunkt:
Aussen-T/F 401 17-02-2009 08:04:42 4.6 C 95 % 3.87 C
402 17-02-2009 08:16:43 4.6 C 95 % 3.87 C
403 17-02-2009 08:28:44 4.8 C 95 % 4.07 C
404 17-02-2009 08:40:42 5 C 95 % 4.27 C
405 17-02-2009 08:52:42 5.1 C 95 % 4.37 C
406 17-02-2009 09:04:42 5.3 C 95 % 4.57 C
407 17-02-2009 09:16:42 5.5 C 95 % 4.76 C
408 17-02-2009 09:28:42 5.5 C 95 % 4.76 C
409 17-02-2009 09:40:42 5.6 C 95 % 4.86 C
410 17-02-2009 09:52:42 5.6 C 94 % 4.71 C
411 17-02-2009 10:04:42 5.7 C 94 % 4.81 C
412 17-02-2009 10:16:41 5.7 C 94 % 4.81 C
413 17-02-2009 10:28:41 5.7 C 93 % 4.66 C
414 17-02-2009 10:40:41 6 C 92 % 4.8 C
415 17-02-2009 10:52:41 6 C 92 % 4.8 C
416 17-02-2009 11:04:41 5.9 C 93 % 4.86 C
417 17-02-2009 11:16:40 5.9 C 93 % 4.86 C
418 17-02-2009 11:28:40 6 C 92 % 4.8 C
419 17-02-2009 11:40:41 6 C 92 % 4.8 C
420 17-02-2009 11:52:41 6 C 92 % 4.8 C
421 17-02-2009 12:04:40 6.1 C 92 % 4.9 C
422 17-02-2009 12:16:41 6.3 C 93 % 5.25 C
423 17-02-2009 12:28:41 6.3 C 93 % 5.25 C
424 17-02-2009 12:40:40 6.3 C 93 % 5.25 C
425 17-02-2009 12:52:40 6.6 C 93 % 5.55 C
Sensor: Nr:Datum:Temp:Feuchte:Taupunkt:
Aussen-T/F 426 17-02-2009 13:04:39 6.7 C 93 % 5.65 C
427 17-02-2009 13:16:40 6.7 C 92 % 5.49 C
428 17-02-2009 13:28:40 6.5 C 92 % 5.3 C
429 17-02-2009 13:40:39 6.5 C 92 % 5.3 C
430 17-02-2009 13:52:39 6.4 C 90 % 4.88 C
431 17-02-2009 14:04:40 6.4 C 90 % 4.88 C
432 17-02-2009 14:16:39 6.5 C 88 % 4.66 C
433 17-02-2009 14:28:39 6.7 C 86 % 4.53 C
434 17-02-2009 14:40:39 6.8 C 83 % 4.12 C
435 17-02-2009 14:52:39 7 C 80 % 3.79 C
436 17-02-2009 15:04:39 6.9 C 80 % 3.7 C
437 17-02-2009 15:16:38 6.9 C 79 % 3.52 C
438 17-02-2009 15:28:38 7 C 75 % 2.88 C
439 17-02-2009 15:40:38 6.9 C 77 % 3.16 C
440 17-02-2009 15:52:38 6.8 C 73 % 2.31 C
441 17-02-2009 16:04:38 5.9 C 72 % 1.25 C
442 17-02-2009 16:16:38 5.5 C 72 % 0.86 C
443 17-02-2009 16:28:38 5.1 C 73 % 0.67 C
444 17-02-2009 16:40:38 4.9 C 74 % 0.67 C
445 17-02-2009 16:52:38 4.6 C 72 % 0 C
446 17-02-2009 17:04:37 4.4 C 72 % -0.19 C
447 17-02-2009 17:16:38 4 C 71 % -0.77 C
448 17-02-2009 17:28:38 3.7 C 71 % -1.06 C
449 17-02-2009 17:40:37 3.6 C 70 % -1.35 C
450 17-02-2009 17:52:37 3.4 C 68 % -1.93 C
Sensor: Nr:Datum:Temp:Feuchte:Taupunkt:
Aussen-T/F 451 17-02-2009 18:04:37 3.1 C 68 % -2.22 C
452 17-02-2009 18:16:37 2.9 C 68 % -2.41 C
453 17-02-2009 18:28:37 2.8 C 69 % -2.31 C
454 17-02-2009 18:40:37 2.5 C 69 % -2.6 C
455 17-02-2009 18:52:37 2.3 C 66 % -3.38 C
456 17-02-2009 19:04:37 2.1 C 61 % -4.62 C
457 17-02-2009 19:16:36 2.1 C 59 % -5.06 C
458 17-02-2009 19:28:36 1.9 C 56 % -5.93 C
459 17-02-2009 19:40:36 1.6 C 55 % -6.45 C
460 17-02-2009 19:52:36 1.1 C 57 % -6.45 C
461 17-02-2009 20:04:36 0.7 C 56 % -7.05 C
462 17-02-2009 20:16:35 0.3 C 54 % -7.9 C
463 17-02-2009 20:28:35 0 C 55 % -7.94 C
464 17-02-2009 20:40:36 -0.3 C 56 % -8 C
465 17-02-2009 20:52:35 -0.4 C 54 % -8.56 C
466 17-02-2009 21:04:36 -0.5 C 55 % -8.42 C
467 17-02-2009 21:16:35 -0.7 C 53 % -9.08 C
468 17-02-2009 21:28:35 -0.9 C 54 % -9.03 C
469 17-02-2009 21:41:36 -1 C 54 % -9.12 C
470 17-02-2009 21:53:36 -1.2 C 54 % -9.31 C
471 17-02-2009 22:05:36 -1.3 C 54 % -9.4 C
472 17-02-2009 22:17:36 -1.5 C 57 % -8.9 C
473 17-02-2009 22:29:36 -1.7 C 58 % -8.87 C
474 17-02-2009 22:41:36 -1.9 C 60 % -8.62 C
475 17-02-2009 22:53:36 -2 C 59 % -8.93 C
Sensor: Nr:Datum:Temp:Feuchte:Taupunkt:
Aussen-T/F 476 17-02-2009 23:05:36 -2.2 C 60 % -8.9 C
477 17-02-2009 23:17:36 -2.3 C 60 % -9 C
478 17-02-2009 23:29:36 -2.4 C 61 % -8.88 C
479 17-02-2009 23:41:36 -2.6 C 62 % -8.86 C
480 17-02-2009 23:53:36 -2.6 C 62 % -8.86 C
481 18-02-2009 00:05:36 -2.8 C 63 % -8.85 C
482 18-02-2009 00:17:36 -2.9 C 64 % -8.74 C
483 18-02-2009 00:29:37 -2.9 C 65 % -8.55 C
484 18-02-2009 00:41:37 -3 C 66 % -8.45 C
485 18-02-2009 00:53:37 -3.2 C 65 % -8.83 C
486 18-02-2009 01:05:37 -3.3 C 65 % -8.93 C
487 18-02-2009 01:17:37 -3.4 C 65 % -9.02 C
488 18-02-2009 01:29:37 -3.5 C 66 % -8.92 C
489 18-02-2009 01:41:37 -3.5 C 66 % -8.92 C
490 18-02-2009 01:53:37 -3.6 C 66 % -9.02 C
491 18-02-2009 02:05:37 -3.7 C 66 % -9.11 C
492 18-02-2009 02:17:37 -3.7 C 67 % -8.92 C
493 18-02-2009 02:29:37 -3.7 C 68 % -8.73 C
494 18-02-2009 02:41:37 -3.8 C 68 % -8.83 C
495 18-02-2009 02:53:37 -4 C 68 % -9.02 C
496 18-02-2009 03:05:37 -4 C 69 % -8.83 C
497 18-02-2009 03:17:37 -4.1 C 69 % -8.93 C
498 18-02-2009 03:29:37 -4.3 C 69 % -9.12 C
499 18-02-2009 03:41:37 -4.3 C 70 % -8.94 C
500 18-02-2009 03:53:37 -4.5 C 70 % -9.13 C
Sensor: Nr:Datum:Temp:Feuchte:Taupunkt:
Aussen-T/F 501 18-02-2009 04:05:37 -4.5 C 70 % -9.13 C
502 18-02-2009 04:17:37 -4.7 C 70 % -9.32 C
503 18-02-2009 04:29:37 -4.8 C 70 % -9.42 C
504 18-02-2009 04:41:38 -4.8 C 70 % -9.42 C
505 18-02-2009 04:53:38 -4.9 C 70 % -9.52 C
506 18-02-2009 05:05:38 -4.9 C 70 % -9.52 C
507 18-02-2009 05:17:38 -5.1 C 71 % -9.53 C
508 18-02-2009 05:29:38 -5 C 72 % -9.25 C
509 18-02-2009 05:41:38 -5.1 C 72 % -9.35 C
510 18-02-2009 05:53:38 -5.4 C 72 % -9.64 C
511 18-02-2009 06:05:38 -5.5 C 72 % -9.74 C
512 18-02-2009 06:17:38 -5.6 C 72 % -9.83 C
513 18-02-2009 06:29:38 -5.7 C 73 % -9.75 C
514 18-02-2009 06:41:38 -5.5 C 73 % -9.56 C
515 18-02-2009 06:53:38 -5.5 C 74 % -9.39 C
516 18-02-2009 07:05:36 -5.7 C 74 % -9.58 C
517 18-02-2009 07:17:35 -6.1 C 73 % -10.14 C
518 18-02-2009 07:29:36 -6.2 C 73 % -10.24 C
519 18-02-2009 07:41:36 -5.9 C 74 % -9.78 C
520 18-02-2009 07:53:35 -5.8 C 75 % -9.51 C
521 18-02-2009 08:05:35 -5.7 C 75 % -9.41 C
522 18-02-2009 08:17:35 -5.6 C 76 % -9.15 C
523 18-02-2009 08:29:35 -5.8 C 76 % -9.34 C
524 18-02-2009 08:41:35 -5.9 C 76 % -9.44 C
525 18-02-2009 08:53:34 -5.7 C 76 % -9.24 C
Sensor: Nr:Datum:Temp:Feuchte:Taupunkt:
Aussen-T/F 526 18-02-2009 09:05:35 -5.7 C 76 % -9.24 C
527 18-02-2009 09:17:35 -5.5 C 77 % -8.88 C
528 18-02-2009 09:29:34 -5.4 C 77 % -8.79 C
529 18-02-2009 09:41:34 -4.9 C 77 % -8.3 C
530 18-02-2009 09:53:35 -4.7 C 77 % -8.11 C
531 18-02-2009 10:05:34 -4.2 C 77 % -7.62 C
532 18-02-2009 10:17:34 -3.5 C 75 % -7.28 C
533 18-02-2009 10:29:34 -2.4 C 70 % -7.11 C
534 18-02-2009 10:41:34 -1.7 C 62 % -8.01 C
535 18-02-2009 10:53:34 -1.3 C 57 % -8.71 C
536 18-02-2009 11:05:34 -1.5 C 54 % -9.59 C
537 18-02-2009 11:17:33 -1.3 C 54 % -9.4 C
538 18-02-2009 11:29:33 -1 C 52 % -9.6 C
539 18-02-2009 11:41:33 -0.7 C 46 % -10.87 C
540 18-02-2009 11:53:33 -0.3 C 48 % -9.97 C
541 18-02-2009 12:05:33 0 C 48 % -9.67 C
542 18-02-2009 12:17:32 0.2 C 48 % -9.49 C
543 18-02-2009 12:29:33 0.5 C 46 % -9.75 C
544 18-02-2009 12:41:33 0.7 C 45 % -9.85 C
545 18-02-2009 12:53:32 1.1 C 40 % -10.96 C
546 18-02-2009 13:05:32 1.9 C 38 % -10.89 C
547 18-02-2009 13:17:33 2.3 C 36 % -11.21 C
548 18-02-2009 13:29:32 2.7 C 35 % -11.2 C
549 18-02-2009 13:41:32 2.8 C 31 % -12.62 C
550 18-02-2009 13:53:32 3.6 C 25 % -14.55 C
Sensor: Nr:Datum:Temp:Feuchte:Taupunkt:
Aussen-T/F 551 18-02-2009 14:05:32 3.6 C 25 % -14.55 C
552 18-02-2009 14:17:32 4.4 C 20 % -16.55 C
553 18-02-2009 14:29:31 4.8 C 20 % -16.22 C
554 18-02-2009 14:41:31 5.5 C 20 % -15.64 C
555 18-02-2009 14:53:32 5.7 C 20 % -15.47 C
556 18-02-2009 15:05:31 5.9 C 20 % -15.3 C
557 18-02-2009 15:17:31 5.5 C 20 % -15.64 C
558 18-02-2009 15:29:31 5.7 C 20 % -15.47 C
559 18-02-2009 15:41:31 6 C 20 % -15.22 C
560 18-02-2009 15:53:31 6 C 20 % -15.22 C
561 18-02-2009 16:05:31 6.7 C 20 % -14.64 C
562 18-02-2009 16:17:30 6.9 C 20 % -14.47 C
563 18-02-2009 16:29:31 5.1 C 20 % -15.97 C
564 18-02-2009 16:41:31 5.5 C 20 % -15.64 C
565 18-02-2009 16:53:30 5.7 C 20 % -15.47 C
566 18-02-2009 17:05:30 5.4 C 20 % -15.72 C
567 18-02-2009 17:17:30 4.7 C 25 % -13.61 C
568 18-02-2009 17:29:30 3.2 C 30 % -12.67 C
569 18-02-2009 17:41:30 1.9 C 37 % -11.22 C
570 18-02-2009 17:53:30 1 C 41 % -10.75 C
571 18-02-2009 18:05:29 0.4 C 43 % -10.69 C
572 18-02-2009 18:17:29 -0.1 C 46 % -10.32 C
573 18-02-2009 18:29:30 -0.4 C 48 % -10.06 C
574 18-02-2009 18:41:30 -0.6 C 49 % -9.98 C
575 18-02-2009 18:53:29 -0.9 C 52 % -9.51 C
Sensor: Nr:Datum:Temp:Feuchte:Taupunkt:
Aussen-T/F 576 18-02-2009 19:05:29 -1 C 50 % -10.1 C
577 18-02-2009 19:17:29 -1.2 C 51 % -10.03 C
578 18-02-2009 19:29:29 -1.3 C 51 % -10.12 C
579 18-02-2009 19:41:29 -1.4 C 53 % -9.73 C
580 18-02-2009 19:53:28 -1.6 C 53 % -9.92 C
581 18-02-2009 20:05:29 -1.7 C 54 % -9.77 C
582 18-02-2009 20:17:28 -1.8 C 55 % -9.63 C
583 18-02-2009 20:29:28 -1.9 C 55 % -9.73 C
584 18-02-2009 20:41:28 -2 C 55 % -9.82 C
585 18-02-2009 20:53:28 -2.1 C 53 % -10.38 C
586 18-02-2009 21:05:28 -2.2 C 55 % -10.01 C
587 18-02-2009 21:17:28 -2.3 C 55 % -10.1 C
588 18-02-2009 21:29:27 -2.3 C 54 % -10.33 C
589 18-02-2009 21:41:27 -2.4 C 53 % -10.66 C
590 18-02-2009 21:53:28 -2.6 C 57 % -9.93 C
591 18-02-2009 22:06:27 -2.7 C 58 % -9.81 C
592 18-02-2009 22:18:27 -2.9 C 59 % -9.78 C
593 18-02-2009 22:30:27 -2.9 C 60 % -9.57 C
594 18-02-2009 22:42:27 -2.9 C 61 % -9.36 C
595 18-02-2009 22:54:27 -3.1 C 61 % -9.55 C
596 18-02-2009 23:06:27 -3.3 C 61 % -9.73 C
597 18-02-2009 23:18:27 -3.2 C 62 % -9.43 C
598 18-02-2009 23:30:27 -2.9 C 62 % -9.15 C
599 18-02-2009 23:42:28 -2.7 C 61 % -9.17 C
600 18-02-2009 23:54:28 -2.5 C 61 % -8.98 C
Sensor: Nr:Datum:Temp:Feuchte:Taupunkt:
Aussen-T/F 601 19-02-2009 00:06:28 -2.5 C 63 % -8.57 C
602 19-02-2009 00:18:28 -2.4 C 63 % -8.47 C
603 19-02-2009 00:30:28 -2.3 C 63 % -8.38 C
604 19-02-2009 00:42:28 -2.3 C 62 % -8.58 C
605 19-02-2009 00:54:28 -2.2 C 62 % -8.49 C
606 19-02-2009 01:06:28 -2.1 C 62 % -8.39 C
607 19-02-2009 01:18:28 -2.1 C 62 % -8.39 C
608 19-02-2009 01:30:28 -2.1 C 61 % -8.6 C
609 19-02-2009 01:42:28 -2.1 C 61 % -8.6 C
610 19-02-2009 01:54:28 -2.3 C 61 % -8.79 C
611 19-02-2009 02:06:28 -2.1 C 62 % -8.39 C
612 19-02-2009 02:18:28 -2 C 61 % -8.5 C
613 19-02-2009 02:30:28 -2 C 61 % -8.5 C
614 19-02-2009 02:42:28 -2 C 61 % -8.5 C
615 19-02-2009 02:54:28 -2.1 C 61 % -8.6 C
616 19-02-2009 03:06:28 -2.2 C 62 % -8.49 C
617 19-02-2009 03:18:28 -2.3 C 62 % -8.58 C
618 19-02-2009 03:30:29 -2.3 C 63 % -8.38 C
619 19-02-2009 03:42:29 -2.1 C 63 % -8.19 C
620 19-02-2009 03:54:29 -2.1 C 63 % -8.19 C
621 19-02-2009 04:06:29 -2.1 C 63 % -8.19 C
622 19-02-2009 04:18:29 -2.2 C 62 % -8.49 C
623 19-02-2009 04:30:29 -2.1 C 63 % -8.19 C
624 19-02-2009 04:42:29 -2.1 C 63 % -8.19 C
625 19-02-2009 04:54:29 -2.1 C 63 % -8.19 C
Sensor: Nr:Datum:Temp:Feuchte:Taupunkt:
Aussen-T/F 626 19-02-2009 05:06:29 -2.1 C 63 % -8.19 C
627 19-02-2009 05:18:29 -2.1 C 63 % -8.19 C
628 19-02-2009 05:30:27 -2.2 C 63 % -8.28 C
629 19-02-2009 05:42:27 -2.3 C 63 % -8.38 C
630 19-02-2009 05:54:27 -2.3 C 64 % -8.17 C
631 19-02-2009 06:06:27 -2.3 C 64 % -8.17 C
632 19-02-2009 06:18:27 -2.3 C 64 % -8.17 C
633 19-02-2009 06:30:27 -2.2 C 64 % -8.08 C
634 19-02-2009 06:42:27 -2.2 C 64 % -8.08 C
635 19-02-2009 06:54:27 -2.1 C 63 % -8.19 C
636 19-02-2009 07:06:27 -2.1 C 61 % -8.6 C
637 19-02-2009 07:18:02 -2 C 61 % -8.5 C
638 19-02-2009 07:30:02 -2 C 60 % -8.72 C
639 19-02-2009 07:42:02 -2 C 61 % -8.5 C
640 19-02-2009 07:54:01 -2 C 62 % -8.3 C
641 19-02-2009 08:06:01 -1.9 C 62 % -8.2 C
642 19-02-2009 08:18:02 -1.9 C 62 % -8.2 C
643 19-02-2009 08:30:02 -1.6 C 62 % -7.92 C
644 19-02-2009 08:42:01 -1.3 C 61 % -7.84 C
645 19-02-2009 08:54:01 -1 C 60 % -7.77 C
646 19-02-2009 09:06:01 -0.8 C 57 % -8.24 C
647 19-02-2009 09:18:01 -0.9 C 56 % -8.56 C
648 19-02-2009 09:30:01 -0.7 C 56 % -8.38 C
649 19-02-2009 09:42:00 -0.7 C 55 % -8.61 C
650 19-02-2009 09:54:01 -0.6 C 55 % -8.51 C
Sensor: Nr:Datum:Temp:Feuchte:Taupunkt:
Aussen-T/F 651 19-02-2009 10:06:01 -0.4 C 55 % -8.33 C
652 19-02-2009 10:18:00 -0.1 C 53 % -8.52 C
653 19-02-2009 10:30:00 0.1 C 52 % -8.56 C
654 19-02-2009 10:42:00 0.5 C 51 % -8.44 C
655 19-02-2009 10:54:00 0.5 C 49 % -8.95 C
656 19-02-2009 11:06:00 0.8 C 49 % -8.68 C
657 19-02-2009 11:18:59 1 C 47 % -9.02 C
658 19-02-2009 11:29:59 0.9 C 48 % -8.85 C
659 19-02-2009 11:41:59 1 C 47 % -9.02 C
660 19-02-2009 11:54:59 1.1 C 46 % -9.2 C
661 19-02-2009 12:06:59 1.2 C 46 % -9.11 C
662 19-02-2009 12:29:59 1.6 C 44 % -9.31 C
663 19-02-2009 12:30:59 2 C 40 % -10.15 C
664 19-02-2009 12:42:59 2.4 C 37 % -10.77 C
665 19-02-2009 12:54:59 3 C 33 % -11.67 C
666 19-02-2009 13:06:58 3.5 C 31 % -12 C
667 19-02-2009 13:18:59 3.9 C 31 % -11.65 C
668 19-02-2009 13:30:58 4.5 C 28 % -12.39 C
669 19-02-2009 13:42:58 4.2 C 28 % -12.65 C
670 19-02-2009 13:54:58 4.3 C 28 % -12.57 C
671 19-02-2009 14:06:59 4.9 C 27 % -12.5 C
672 19-02-2009 14:18:58 5.7 C 25 % -12.76 C
673 19-02-2009 14:30:58 5.8 C 20 % -15.39 C
674 19-02-2009 14:42:58 6.5 C 20 % -14.8 C
675 19-02-2009 14:54:58 6.8 C 20 % -14.55 C
Sensor: Nr:Datum:Temp:Feuchte:Taupunkt:
Aussen-T/F 676 19-02-2009 15:06:58 7.1 C 20 % -14.3 C
677 19-02-2009 15:18:57 6.6 C 20 % -14.72 C
678 19-02-2009 15:30:57 6.3 C 20 % -14.97 C
679 19-02-2009 15:42:57 6.7 C 20 % -14.64 C
680 19-02-2009 15:54:57 7.1 C 20 % -14.3 C
681 19-02-2009 16:06:57 7.1 C 20 % -14.3 C
682 19-02-2009 16:18:57 7.4 C 20 % -14.05 C
683 19-02-2009 16:30:54 7 C 20 % -14.39 C
684 19-02-2009 16:42:54 6.5 C 23 % -13.1 C
685 19-02-2009 16:54:57 5.8 C 25 % -12.67 C
686 19-02-2009 17:06:02 5.4 C 30 % -10.75 C
687 19-02-2009 17:18:02 4.8 C 31 % -10.87 C
688 19-02-2009 17:30:02 4.4 C 33 % -10.43 C
689 19-02-2009 17:42:02 4 C 36 % -9.69 C
690 19-02-2009 17:54:02 3.7 C 39 % -8.95 C
691 19-02-2009 18:06:02 3.5 C 40 % -8.8 C
692 19-02-2009 18:18:02 3.4 C 41 % -8.58 C
693 19-02-2009 18:30:02 3.3 C 40 % -8.98 C
694 19-02-2009 18:42:01 3.2 C 41 % -8.76 C
695 19-02-2009 18:54:01 3.1 C 41 % -8.85 C
696 19-02-2009 19:06:01 2.9 C 42 % -8.72 C
697 19-02-2009 19:18:01 2.9 C 44 % -8.13 C
698 19-02-2009 19:30:01 3 C 42 % -8.63 C
699 19-02-2009 19:42:01 2.9 C 44 % -8.13 C
700 19-02-2009 19:54:00 2.8 C 45 % -7.93 C
Sensor: Nr:Datum:Temp:Feuchte:Taupunkt:
Aussen-T/F 701 19-02-2009 20:06:01 2.7 C 46 % -7.74 C
702 19-02-2009 20:18:01 2.9 C 45 % -7.84 C
703 19-02-2009 20:30:01 2.5 C 52 % -6.34 C
704 19-02-2009 20:42:00 2 C 61 % -4.71 C
705 19-02-2009 20:54:01 1.9 C 65 % -3.97 C
706 19-02-2009 21:06:00 1.8 C 68 % -3.46 C
707 19-02-2009 21:18:00 1.7 C 70 % -3.17 C
708 19-02-2009 21:30:00 1.6 C 72 % -2.89 C
709 19-02-2009 21:42:00 1.5 C 74 % -2.62 C
710 19-02-2009 21:54:00 1.3 C 75 % -2.63 C
711 19-02-2009 22:06:59 1.3 C 76 % -2.45 C
712 19-02-2009 22:29:59 1.3 C 77 % -2.28 C
713 19-02-2009 22:30:59 1.3 C 78 % -2.1 C
714 19-02-2009 22:42:59 1.3 C 78 % -2.1 C
715 19-02-2009 22:54:59 1.3 C 78 % -2.1 C
716 19-02-2009 23:06:58 1.2 C 78 % -2.2 C
717 19-02-2009 23:18:59 1.3 C 78 % -2.1 C
718 19-02-2009 23:30:59 1.3 C 78 % -2.1 C
719 19-02-2009 23:42:59 1.3 C 77 % -2.28 C
720 19-02-2009 23:54:58 1.4 C 76 % -2.36 C
721 20-02-2009 00:06:59 1.6 C 76 % -2.16 C
722 20-02-2009 00:18:59 1.6 C 74 % -2.52 C
723 20-02-2009 00:30:58 1.6 C 74 % -2.52 C
724 20-02-2009 00:42:58 1.6 C 74 % -2.52 C
725 20-02-2009 00:54:58 1.7 C 74 % -2.42 C
Sensor: Nr:Datum:Temp:Feuchte:Taupunkt:
Aussen-T/F 726 20-02-2009 01:06:58 1.7 C 74 % -2.42 C
727 20-02-2009 01:18:58 1.7 C 74 % -2.42 C
728 20-02-2009 01:30:57 1.7 C 74 % -2.42 C
729 20-02-2009 01:42:57 1.6 C 76 % -2.16 C
730 20-02-2009 01:54:57 1.5 C 77 % -2.08 C
731 20-02-2009 02:06:57 1.5 C 78 % -1.91 C
732 20-02-2009 02:18:57 1.5 C 79 % -1.74 C
733 20-02-2009 02:30:57 1.5 C 81 % -1.4 C
734 20-02-2009 02:42:57 1.5 C 80 % -1.57 C
735 20-02-2009 02:55:01 1.6 C 79 % -1.64 C
736 20-02-2009 03:07:01 1.7 C 78 % -1.71 C
737 20-02-2009 03:19:01 1.8 C 78 % -1.62 C
738 20-02-2009 03:31:01 1.7 C 77 % -1.89 C
739 20-02-2009 03:43:01 1.7 C 77 % -1.89 C
740 20-02-2009 03:55:02 1.8 C 78 % -1.62 C
741 20-02-2009 04:07:01 1.7 C 78 % -1.71 C
742 20-02-2009 04:19:01 1.7 C 78 % -1.71 C
743 20-02-2009 04:31:02 1.8 C 78 % -1.62 C
744 20-02-2009 04:43:02 1.9 C 78 % -1.52 C
745 20-02-2009 04:55:02 1.9 C 77 % -1.69 C
746 20-02-2009 05:07:01 1.9 C 77 % -1.69 C
747 20-02-2009 05:19:01 1.9 C 76 % -1.87 C
748 20-02-2009 05:31:02 2 C 75 % -1.95 C
749 20-02-2009 05:43:02 2 C 75 % -1.95 C
750 20-02-2009 05:55:01 2.1 C 75 % -1.86 C
Sensor: Nr:Datum:Temp:Feuchte:Taupunkt:
Aussen-T/F 751 20-02-2009 06:07:01 2.1 C 75 % -1.86 C
752 20-02-2009 06:19:02 2.1 C 76 % -1.68 C
753 20-02-2009 06:31:01 2.1 C 76 % -1.68 C
754 20-02-2009 06:43:01 2 C 77 % -1.6 C
755 20-02-2009 06:55:02 1.8 C 82 % -0.94 C
756 20-02-2009 07:07:01 1.8 C 84 % -0.61 C
757 20-02-2009 07:19:02 1.8 C 85 % -0.45 C
758 20-02-2009 07:31:01 1.8 C 86 % -0.29 C
759 20-02-2009 07:43:01 1.8 C 86 % -0.29 C
760 20-02-2009 07:55:02 1.9 C 86 % -0.19 C
761 20-02-2009 08:07:01 1.9 C 86 % -0.19 C
762 20-02-2009 08:19:01 2 C 84 % -0.41 C
763 20-02-2009 08:31:02 2.3 C 83 % -0.28 C
764 20-02-2009 08:43:02 2.4 C 82 % -0.35 C
765 20-02-2009 08:55:01 2.4 C 82 % -0.35 C
766 20-02-2009 09:07:02 2.3 C 83 % -0.28 C
767 20-02-2009 09:19:01 2.3 C 84 % -0.12 C
768 20-02-2009 09:31:02 2.4 C 85 % 0.14 C
769 20-02-2009 09:43:02 2.5 C 86 % 0.4 C
770 20-02-2009 09:55:01 2.8 C 85 % 0.54 C
771 20-02-2009 10:07:02 2.8 C 84 % 0.37 C
772 20-02-2009 10:19:01 3 C 83 % 0.4 C
773 20-02-2009 10:31:01 3.2 C 82 % 0.43 C
774 20-02-2009 10:43:01 3.2 C 81 % 0.26 C
775 20-02-2009 10:55:01 3.3 C 81 % 0.36 C
Sensor: Nr:Datum:Temp:Feuchte:Taupunkt:
Aussen-T/F 776 20-02-2009 11:07:01 3.4 C 80 % 0.29 C
777 20-02-2009 11:19:02 3.5 C 80 % 0.38 C
778 20-02-2009 11:31:01 3.5 C 81 % 0.55 C
779 20-02-2009 11:43:01 3.4 C 82 % 0.63 C
780 20-02-2009 11:55:02 3.4 C 83 % 0.79 C
781 20-02-2009 12:07:01 3.3 C 83 % 0.7 C
782 20-02-2009 12:19:02 3.3 C 84 % 0.86 C
783 20-02-2009 12:31:01 3.5 C 86 % 1.38 C
784 20-02-2009 12:43:01 3.7 C 86 % 1.58 C
785 20-02-2009 12:55:02 3.8 C 86 % 1.68 C
786 20-02-2009 13:07:01 4.1 C 85 % 1.81 C
787 20-02-2009 13:19:01 4.4 C 84 % 1.94 C
788 20-02-2009 13:31:02 4.5 C 83 % 1.87 C
789 20-02-2009 13:43:02 4.7 C 83 % 2.07 C
790 20-02-2009 13:55:01 4.9 C 82 % 2.09 C
791 20-02-2009 14:07:02 5.2 C 80 % 2.04 C
792 20-02-2009 14:19:01 5.4 C 77 % 1.7 C
793 20-02-2009 14:31:02 5.5 C 76 % 1.62 C
794 20-02-2009 14:43:02 5.7 C 74 % 1.44 C
795 20-02-2009 14:55:01 5.7 C 73 % 1.25 C
796 20-02-2009 15:07:02 5.8 C 73 % 1.34 C
797 20-02-2009 15:19:01 5.7 C 72 % 1.06 C
798 20-02-2009 15:31:01 5.5 C 71 % 0.67 C
799 20-02-2009 15:43:01 5.4 C 73 % 0.96 C
800 20-02-2009 15:55:01 5.5 C 73 % 1.06 C
Sensor: Nr:Datum:Temp:Feuchte:Taupunkt:
Aussen-T/F 801 20-02-2009 16:07:01 5.6 C 75 % 1.53 C
802 20-02-2009 16:19:01 5.6 C 75 % 1.53 C
803 20-02-2009 16:31:01 5.4 C 75 % 1.33 C
804 20-02-2009 16:43:01 5.3 C 77 % 1.6 C
805 20-02-2009 16:55:01 5.1 C 79 % 1.77 C
806 20-02-2009 17:07:01 5 C 81 % 2.02 C
807 20-02-2009 17:19:01 4.9 C 84 % 2.43 C
808 20-02-2009 17:31:01 4.8 C 86 % 2.66 C
809 20-02-2009 17:43:01 4.7 C 87 % 2.73 C
810 20-02-2009 17:55:01 4.7 C 88 % 2.89 C
811 20-02-2009 18:07:01 4.6 C 87 % 2.63 C
812 20-02-2009 18:19:02 4.6 C 87 % 2.63 C
813 20-02-2009 18:31:01 4.6 C 87 % 2.63 C
814 20-02-2009 18:43:01 4.7 C 87 % 2.73 C
815 20-02-2009 18:55:02 4.6 C 88 % 2.79 C
816 20-02-2009 19:07:01 4.6 C 88 % 2.79 C
817 20-02-2009 19:19:02 4.5 C 89 % 2.85 C
818 20-02-2009 19:31:01 4.5 C 89 % 2.85 C
819 20-02-2009 19:43:01 4.6 C 90 % 3.1 C
820 20-02-2009 19:54:01 4.5 C 90 % 3.01 C
821 20-02-2009 20:06:02 4.5 C 90 % 3.01 C
822 20-02-2009 20:18:01 4.6 C 91 % 3.26 C
823 20-02-2009 20:30:01 4.6 C 91 % 3.26 C
824 20-02-2009 20:42:02 4.6 C 91 % 3.26 C
825 20-02-2009 20:54:01 4.6 C 91 % 3.26 C
Sensor: Nr:Datum:Temp:Feuchte:Taupunkt:
Aussen-T/F 826 20-02-2009 21:06:01 4.7 C 91 % 3.36 C
827 20-02-2009 21:18:01 4.8 C 90 % 3.3 C
828 20-02-2009 21:30:01 4.8 C 90 % 3.3 C
829 20-02-2009 21:42:01 4.8 C 89 % 3.14 C
830 20-02-2009 21:54:01 4.7 C 88 % 2.89 C
831 20-02-2009 22:06:01 4.6 C 88 % 2.79 C
832 20-02-2009 22:19:03 4.6 C 88 % 2.79 C
833 20-02-2009 22:31:03 4.5 C 88 % 2.69 C
834 20-02-2009 22:43:03 4.5 C 88 % 2.69 C
835 20-02-2009 22:55:03 4.5 C 88 % 2.69 C
836 20-02-2009 23:07:03 4.4 C 88 % 2.59 C
837 20-02-2009 23:19:03 4.4 C 88 % 2.59 C
838 20-02-2009 23:31:03 4.3 C 88 % 2.49 C
839 20-02-2009 23:43:03 4.3 C 88 % 2.49 C
840 20-02-2009 23:55:03 4.3 C 88 % 2.49 C
841 21-02-2009 00:07:03 4.2 C 88 % 2.39 C
842 21-02-2009 00:19:03 4.2 C 87 % 2.23 C
843 21-02-2009 00:31:03 4.1 C 87 % 2.14 C
844 21-02-2009 00:43:03 4.1 C 86 % 1.97 C
845 21-02-2009 00:55:03 4.1 C 85 % 1.81 C
846 21-02-2009 01:07:03 4 C 85 % 1.71 C
847 21-02-2009 01:19:03 4 C 85 % 1.71 C
848 21-02-2009 01:31:03 4 C 84 % 1.55 C
849 21-02-2009 01:43:04 4 C 84 % 1.55 C
850 21-02-2009 01:55:04 4 C 84 % 1.55 C
Sensor: Nr:Datum:Temp:Feuchte:Taupunkt:
Aussen-T/F 851 21-02-2009 02:07:04 4 C 83 % 1.38 C
852 21-02-2009 02:19:04 4 C 83 % 1.38 C
853 21-02-2009 02:31:04 4 C 83 % 1.38 C
854 21-02-2009 02:43:04 3.9 C 84 % 1.45 C
855 21-02-2009 02:55:04 3.9 C 84 % 1.45 C
856 21-02-2009 03:07:04 3.9 C 84 % 1.45 C
857 21-02-2009 03:19:04 3.8 C 84 % 1.35 C
858 21-02-2009 03:31:04 3.8 C 84 % 1.35 C
859 21-02-2009 03:43:04 3.8 C 84 % 1.35 C
860 21-02-2009 03:55:04 3.8 C 84 % 1.35 C
861 21-02-2009 04:07:04 3.8 C 84 % 1.35 C
862 21-02-2009 04:19:04 3.8 C 84 % 1.35 C
863 21-02-2009 04:31:04 3.7 C 84 % 1.25 C
864 21-02-2009 04:43:04 3.7 C 84 % 1.25 C
865 21-02-2009 04:55:04 3.7 C 85 % 1.42 C
866 21-02-2009 05:07:04 3.6 C 85 % 1.32 C
867 21-02-2009 05:19:04 3.6 C 85 % 1.32 C
868 21-02-2009 05:31:04 3.7 C 86 % 1.58 C
869 21-02-2009 05:43:05 3.8 C 86 % 1.68 C
870 21-02-2009 05:55:05 3.7 C 86 % 1.58 C
871 21-02-2009 06:07:05 3.7 C 86 % 1.58 C
872 21-02-2009 06:19:05 3.7 C 87 % 1.74 C
873 21-02-2009 06:31:05 3.8 C 87 % 1.84 C
874 21-02-2009 06:43:05 3.8 C 87 % 1.84 C
875 21-02-2009 06:55:05 3.8 C 87 % 1.84 C
Sensor: Nr:Datum:Temp:Feuchte:Taupunkt:
Aussen-T/F 876 21-02-2009 07:07:05 3.8 C 88 % 2 C
877 21-02-2009 07:19:05 3.7 C 88 % 1.9 C
878 21-02-2009 07:31:05 3.7 C 88 % 1.9 C
879 21-02-2009 07:43:05 3.7 C 88 % 1.9 C
880 21-02-2009 07:55:05 3.6 C 88 % 1.8 C
881 21-02-2009 08:07:03 3.6 C 88 % 1.8 C
882 21-02-2009 08:19:03 3.6 C 88 % 1.8 C
883 21-02-2009 08:31:02 3.6 C 88 % 1.8 C
884 21-02-2009 08:43:02 3.8 C 88 % 2 C
885 21-02-2009 08:55:03 3.9 C 88 % 2.1 C
886 21-02-2009 09:07:02 4 C 88 % 2.2 C
887 21-02-2009 09:19:02 4 C 87 % 2.04 C
888 21-02-2009 09:31:02 4.1 C 87 % 2.14 C
889 21-02-2009 09:43:02 4.4 C 87 % 2.43 C
890 21-02-2009 09:55:02 4.4 C 86 % 2.27 C
891 21-02-2009 10:07:01 4.5 C 84 % 2.04 C
892 21-02-2009 10:19:02 4.7 C 82 % 1.9 C
893 21-02-2009 10:31:02 5.1 C 80 % 1.94 C
894 21-02-2009 10:43:02 5.3 C 78 % 1.78 C
895 21-02-2009 10:55:01 5.5 C 74 % 1.24 C
896 21-02-2009 11:07:02 5.5 C 73 % 1.06 C
897 21-02-2009 11:19:01 5.7 C 72 % 1.06 C
898 21-02-2009 11:31:01 6 C 69 % 0.76 C
899 21-02-2009 11:43:01 6 C 68 % 0.55 C
900 21-02-2009 11:55:01 6.4 C 66 % 0.52 C
Sensor: Nr:Datum:Temp:Feuchte:Taupunkt:
Aussen-T/F 901 21-02-2009 12:07:01 6.7 C 64 % 0.38 C
902 21-02-2009 12:19:00 6.2 C 61 % -0.75 C
903 21-02-2009 12:31:00 6.4 C 62 % -0.34 C
904 21-02-2009 12:43:00 6.4 C 62 % -0.34 C
905 21-02-2009 12:55:00 6.4 C 61 % -0.56 C
906 21-02-2009 13:07:00 6.5 C 59 % -0.92 C
907 21-02-2009 13:19:00 6.6 C 56 % -1.54 C
908 21-02-2009 13:31:00 6.8 C 56 % -1.35 C
909 21-02-2009 13:43:00 6.7 C 54 % -1.94 C
910 21-02-2009 13:55:59 6.5 C 54 % -2.12 C
911 21-02-2009 14:07:00 6.5 C 54 % -2.12 C
912 21-02-2009 14:19:00 6.5 C 54 % -2.12 C
913 21-02-2009 14:31:59 6.8 C 53 % -2.09 C
914 21-02-2009 14:43:59 6.7 C 53 % -2.19 C
915 21-02-2009 14:54:59 6.5 C 53 % -2.37 C
916 21-02-2009 15:07:59 6.5 C 53 % -2.37 C
917 21-02-2009 15:19:59 6.4 C 52 % -2.72 C
918 21-02-2009 15:31:59 6.3 C 51 % -3.08 C
919 21-02-2009 15:43:59 6.2 C 51 % -3.17 C
920 21-02-2009 15:55:59 6.2 C 53 % -2.65 C
921 21-02-2009 16:07:59 6.1 C 55 % -2.25 C
922 21-02-2009 16:19:58 6 C 56 % -2.1 C
923 21-02-2009 16:31:58 5.8 C 58 % -1.81 C
924 21-02-2009 16:43:58 5.8 C 58 % -1.81 C
925 21-02-2009 16:55:58 5.7 C 59 % -1.67 C
Sensor: Nr:Datum:Temp:Feuchte:Taupunkt:
Aussen-T/F 926 21-02-2009 17:07:58 5.7 C 59 % -1.67 C
927 21-02-2009 17:19:57 5.7 C 58 % -1.9 C
928 21-02-2009 17:31:58 5.6 C 60 % -1.54 C
929 21-02-2009 17:43:58 5.4 C 61 % -1.5 C
930 21-02-2009 17:55:57 5.3 C 61 % -1.6 C
931 21-02-2009 18:07:57 5.1 C 62 % -1.57 C
932 21-02-2009 18:19:58 4.9 C 65 % -1.11 C
933 21-02-2009 18:31:57 4.7 C 67 % -0.89 C
934 21-02-2009 18:43:57 4.6 C 67 % -0.99 C
935 21-02-2009 18:55:57 4.5 C 67 % -1.08 C
936 21-02-2009 19:07:57 4.4 C 68 % -0.98 C
937 21-02-2009 19:19:57 4.2 C 67 % -1.37 C
938 21-02-2009 19:31:56 4.1 C 67 % -1.46 C
939 21-02-2009 19:43:56 4.2 C 67 % -1.37 C
940 21-02-2009 19:55:57 4.3 C 67 % -1.27 C
941 21-02-2009 20:07:56 4.3 C 68 % -1.07 C
942 21-02-2009 20:19:56 4.3 C 68 % -1.07 C
943 21-02-2009 20:31:56 4.3 C 68 % -1.07 C
944 21-02-2009 20:43:56 4.3 C 68 % -1.07 C
945 21-02-2009 20:55:56 4.2 C 68 % -1.17 C
946 21-02-2009 21:07:55 4.2 C 69 % -0.97 C
947 21-02-2009 21:19:56 4.2 C 69 % -0.97 C
948 21-02-2009 21:31:56 4.3 C 69 % -0.87 C
949 21-02-2009 21:43:56 4.3 C 69 % -0.87 C
950 21-02-2009 21:55:55 4.3 C 69 % -0.87 C
Sensor: Nr:Datum:Temp:Feuchte:Taupunkt:
Aussen-T/F 951 21-02-2009 22:07:56 4.3 C 69 % -0.87 C
952 21-02-2009 22:19:55 4.2 C 69 % -0.97 C
953 21-02-2009 22:31:55 4.2 C 69 % -0.97 C
954 21-02-2009 22:43:56 4.2 C 69 % -0.97 C
955 21-02-2009 22:56:57 4.2 C 69 % -0.97 C
956 21-02-2009 23:08:57 4.4 C 67 % -1.18 C
957 21-02-2009 23:20:57 4.5 C 67 % -1.08 C
958 21-02-2009 23:32:57 4.6 C 66 % -1.19 C
959 21-02-2009 23:44:57 4.6 C 66 % -1.19 C
960 21-02-2009 23:56:57 4.6 C 66 % -1.19 C
961 22-02-2009 00:08:57 4.4 C 68 % -0.98 C
962 22-02-2009 00:20:57 4.2 C 69 % -0.97 C
963 22-02-2009 00:32:57 4 C 72 % -0.58 C
964 22-02-2009 00:44:57 3.7 C 76 % -0.13 C
965 22-02-2009 00:56:57 3.7 C 78 % 0.23 C
966 22-02-2009 01:08:57 3.7 C 78 % 0.23 C
967 22-02-2009 01:20:57 3.7 C 78 % 0.23 C
968 22-02-2009 01:32:57 3.8 C 79 % 0.5 C
969 22-02-2009 01:44:58 3.6 C 80 % 0.48 C
970 22-02-2009 01:56:58 3.6 C 80 % 0.48 C
971 22-02-2009 02:08:58 3.5 C 82 % 0.72 C
972 22-02-2009 02:20:58 3.4 C 82 % 0.63 C
973 22-02-2009 02:32:58 3.4 C 83 % 0.79 C
974 22-02-2009 02:44:58 3.5 C 84 % 1.06 C
975 22-02-2009 02:56:58 3.5 C 84 % 1.06 C
Sensor: Nr:Datum:Temp:Feuchte:Taupunkt:
Aussen-T/F 976 22-02-2009 03:08:58 3.5 C 84 % 1.06 C
977 22-02-2009 03:20:58 3.4 C 84 % 0.96 C
978 22-02-2009 03:32:58 3.3 C 85 % 1.03 C
979 22-02-2009 03:44:58 3.3 C 86 % 1.19 C
980 22-02-2009 03:56:58 3.3 C 87 % 1.35 C
981 22-02-2009 04:08:58 3.2 C 87 % 1.25 C
982 22-02-2009 04:20:58 3.2 C 88 % 1.41 C
983 22-02-2009 04:32:58 3.3 C 89 % 1.67 C
984 22-02-2009 04:44:58 3.3 C 89 % 1.67 C
985 22-02-2009 04:56:58 3.3 C 89 % 1.67 C
986 22-02-2009 05:08:58 3.3 C 89 % 1.67 C
987 22-02-2009 05:20:58 3.4 C 89 % 1.76 C
988 22-02-2009 05:32:59 3.5 C 90 % 2.02 C
989 22-02-2009 05:44:59 3.5 C 89 % 1.86 C
990 22-02-2009 05:56:59 3.6 C 89 % 1.96 C
991 22-02-2009 06:08:59 3.7 C 89 % 2.06 C
992 22-02-2009 06:20:59 3.7 C 89 % 2.06 C
993 22-02-2009 06:32:59 3.8 C 89 % 2.16 C
994 22-02-2009 06:44:59 3.8 C 89 % 2.16 C
995 22-02-2009 06:56:59 3.8 C 89 % 2.16 C
996 22-02-2009 07:08:56 3.9 C 88 % 2.1 C
997 22-02-2009 07:20:56 4 C 88 % 2.2 C
998 22-02-2009 07:32:56 4 C 88 % 2.2 C
999 22-02-2009 07:44:56 4 C 88 % 2.2 C
1000 22-02-2009 07:56:56 4.1 C 88 % 2.3 C
Sensor: Nr:Datum:Temp:Feuchte:Taupunkt:
Aussen-T/F 1001 22-02-2009 08:08:56 4.1 C 88 % 2.3 C
1002 22-02-2009 08:20:55 4.2 C 88 % 2.39 C
1003 22-02-2009 08:32:55 4.3 C 88 % 2.49 C
1004 22-02-2009 08:44:55 4.3 C 87 % 2.33 C
1005 22-02-2009 08:56:55 4.3 C 87 % 2.33 C
1006 22-02-2009 09:08:55 4.5 C 87 % 2.53 C
1007 22-02-2009 09:20:55 4.5 C 87 % 2.53 C
1008 22-02-2009 09:32:55 4.6 C 87 % 2.63 C
1009 22-02-2009 09:44:55 4.6 C 86 % 2.47 C
1010 22-02-2009 09:56:55 4.6 C 87 % 2.63 C
1011 22-02-2009 10:08:54 4.7 C 87 % 2.73 C
1012 22-02-2009 10:20:55 4.8 C 87 % 2.82 C
1013 22-02-2009 10:32:54 4.9 C 87 % 2.92 C
1014 22-02-2009 10:44:55 5 C 86 % 2.86 C
1015 22-02-2009 10:56:55 5.1 C 85 % 2.79 C
1016 22-02-2009 11:08:54 5.2 C 85 % 2.89 C
1017 22-02-2009 11:20:55 5.4 C 86 % 3.25 C
1018 22-02-2009 11:32:54 5.4 C 86 % 3.25 C
1019 22-02-2009 11:44:54 5.8 C 85 % 3.48 C
1020 22-02-2009 11:56:54 6.1 C 84 % 3.61 C
1021 22-02-2009 12:08:54 6.2 C 84 % 3.7 C
1022 22-02-2009 12:20:54 6.2 C 84 % 3.7 C
1023 22-02-2009 12:32:54 6.3 C 84 % 3.8 C
1024 22-02-2009 12:44:54 6.5 C 83 % 3.83 C
1025 22-02-2009 12:56:54 6.9 C 80 % 3.7 C
Sensor: Nr:Datum:Temp:Feuchte:Taupunkt:
Aussen-T/F 1026 22-02-2009 13:08:54 7.1 C 76 % 3.16 C
1027 22-02-2009 13:20:53 7.1 C 75 % 2.98 C
1028 22-02-2009 13:32:53 7.2 C 73 % 2.69 C
1029 22-02-2009 13:44:53 7.2 C 73 % 2.69 C
1030 22-02-2009 13:56:53 7.3 C 72 % 2.6 C
1031 22-02-2009 14:08:53 7.5 C 71 % 2.59 C
1032 22-02-2009 14:20:52 7.6 C 70 % 2.49 C
1033 22-02-2009 14:32:53 7.5 C 69 % 2.19 C
1034 22-02-2009 14:44:52 7.5 C 70 % 2.39 C
1035 22-02-2009 14:56:52 7.4 C 71 % 2.5 C
1036 22-02-2009 15:08:52 7.3 C 73 % 2.79 C
1037 22-02-2009 15:20:53 7.1 C 77 % 3.35 C
1038 22-02-2009 15:32:52 7 C 81 % 3.97 C
1039 22-02-2009 15:44:52 7 C 83 % 4.32 C
1040 22-02-2009 15:56:52 6.9 C 85 % 4.56 C
1041 22-02-2009 16:08:52 6.9 C 87 % 4.89 C
1042 22-02-2009 16:20:52 6.8 C 87 % 4.79 C
1043 22-02-2009 16:32:52 6.8 C 88 % 4.96 C
1044 22-02-2009 16:44:51 6.8 C 88 % 4.96 C
1045 22-02-2009 16:56:51 6.7 C 88 % 4.86 C
1046 22-02-2009 17:08:51 6.7 C 89 % 5.02 C
1047 22-02-2009 17:20:51 6.7 C 89 % 5.02 C
1048 22-02-2009 17:32:51 6.6 C 88 % 4.76 C
1049 22-02-2009 17:44:51 6.6 C 87 % 4.6 C
1050 22-02-2009 17:56:51 6.6 C 86 % 4.43 C
Sensor: Nr:Datum:Temp:Feuchte:Taupunkt:
Aussen-T/F 1051 22-02-2009 18:08:51 6.6 C 86 % 4.43 C
1052 22-02-2009 18:20:50 6.6 C 85 % 4.26 C
1053 22-02-2009 18:32:51 6.5 C 84 % 4 C
1054 22-02-2009 18:44:50 6.6 C 83 % 3.92 C
1055 22-02-2009 18:56:50 6.4 C 83 % 3.73 C
1056 22-02-2009 19:08:50 6.3 C 84 % 3.8 C
1057 22-02-2009 19:20:50 6.2 C 86 % 4.04 C
1058 22-02-2009 19:32:50 6.1 C 86 % 3.94 C
1059 22-02-2009 19:44:49 6 C 86 % 3.84 C
1060 22-02-2009 19:56:49 5.9 C 86 % 3.74 C
1061 22-02-2009 20:08:50 5.9 C 85 % 3.58 C
1062 22-02-2009 20:20:50 5.9 C 84 % 3.41 C
1063 22-02-2009 20:32:49 5.9 C 84 % 3.41 C
1064 22-02-2009 20:44:50 6 C 82 % 3.17 C
1065 22-02-2009 20:56:50 6.2 C 80 % 3.01 C
1066 22-02-2009 21:08:49 6.1 C 79 % 2.74 C
1067 22-02-2009 21:20:49 6 C 80 % 2.82 C
1068 22-02-2009 21:32:49 5.9 C 81 % 2.9 C
1069 22-02-2009 21:44:49 5.9 C 82 % 3.07 C
1070 22-02-2009 21:56:49 5.9 C 82 % 3.07 C
1071 22-02-2009 22:08:48 5.9 C 83 % 3.24 C
1072 22-02-2009 22:20:49 5.9 C 83 % 3.24 C
1073 22-02-2009 22:33:49 5.8 C 84 % 3.31 C
1074 22-02-2009 22:45:49 5.7 C 85 % 3.38 C
1075 22-02-2009 22:57:49 5.7 C 85 % 3.38 C
Sensor: Nr:Datum:Temp:Feuchte:Taupunkt:
Aussen-T/F 1076 22-02-2009 23:09:49 5.6 C 85 % 3.28 C
1077 22-02-2009 23:21:49 5.6 C 84 % 3.12 C
1078 22-02-2009 23:33:50 5.7 C 82 % 2.87 C
1079 22-02-2009 23:45:50 5.7 C 81 % 2.7 C
1080 22-02-2009 23:57:50 5.8 C 80 % 2.62 C
1081 23-02-2009 00:09:50 5.8 C 78 % 2.27 C
1082 23-02-2009 00:21:50 5.9 C 76 % 2 C
1083 23-02-2009 00:33:50 5.8 C 75 % 1.72 C
1084 23-02-2009 00:45:50 5.8 C 74 % 1.53 C
1085 23-02-2009 00:57:50 5.6 C 72 % 0.96 C
1086 23-02-2009 01:09:50 5.2 C 72 % 0.58 C
1087 23-02-2009 01:21:50 5 C 72 % 0.38 C
1088 23-02-2009 01:33:50 5.1 C 70 % 0.09 C
1089 23-02-2009 01:45:50 5.2 C 68 % -0.21 C
1090 23-02-2009 01:57:50 5.2 C 67 % -0.41 C
1091 23-02-2009 02:09:50 5.2 C 66 % -0.62 C
1092 23-02-2009 02:21:50 5.2 C 65 % -0.83 C
1093 23-02-2009 02:33:50 5.3 C 64 % -0.94 C
1094 23-02-2009 02:45:50 5.3 C 63 % -1.16 C
1095 23-02-2009 02:57:50 5.3 C 62 % -1.38 C
1096 23-02-2009 03:09:50 5.4 C 61 % -1.5 C
1097 23-02-2009 03:21:51 5.6 C 57 % -2.23 C
1098 23-02-2009 03:33:51 5.4 C 57 % -2.42 C
1099 23-02-2009 03:45:51 5.3 C 58 % -2.28 C
1100 23-02-2009 03:57:51 5.3 C 58 % -2.28 C
Sensor: Nr:Datum:Temp:Feuchte:Taupunkt:
Aussen-T/F 1101 23-02-2009 04:09:51 5.3 C 57 % -2.51 C
1102 23-02-2009 04:21:51 5.2 C 56 % -2.84 C
1103 23-02-2009 04:33:51 5.2 C 56 % -2.84 C
1104 23-02-2009 04:45:51 5.2 C 57 % -2.61 C
1105 23-02-2009 04:57:51 5.3 C 56 % -2.75 C
1106 23-02-2009 05:09:51 5.4 C 58 % -2.18 C
1107 23-02-2009 05:21:51 5.4 C 59 % -1.95 C
1108 23-02-2009 05:33:51 5.4 C 59 % -1.95 C
1109 23-02-2009 05:45:51 5.3 C 59 % -2.05 C
1110 23-02-2009 05:57:51 5 C 62 % -1.66 C
1111 23-02-2009 06:09:51 4.2 C 72 % -0.39 C
1112 23-02-2009 06:21:51 4.2 C 76 % 0.36 C
1113 23-02-2009 06:33:51 4 C 79 % 0.7 C
1114 23-02-2009 06:45:51 3.9 C 82 % 1.12 C
1115 23-02-2009 06:57:51 3.8 C 83 % 1.19 C
1116 23-02-2009 07:09:52 3.9 C 84 % 1.45 C
1117 23-02-2009 07:21:52 4 C 83 % 1.38 C
1118 23-02-2009 07:33:52 4 C 83 % 1.38 C
1119 23-02-2009 07:45:52 4.3 C 81 % 1.34 C
1120 23-02-2009 07:57:52 4.7 C 77 % 1.02 C
1121 23-02-2009 08:09:52 4.8 C 74 % 0.57 C
1122 23-02-2009 08:21:52 4.9 C 73 % 0.48 C
1123 23-02-2009 08:33:52 5 C 71 % 0.19 C
1124 23-02-2009 08:45:52 5.1 C 70 % 0.09 C
1125 23-02-2009 08:57:52 5.2 C 69 % -0.01 C
Sensor: Nr:Datum:Temp:Feuchte:Taupunkt:
Aussen-T/F 1126 23-02-2009 09:09:52 5 C 72 % 0.38 C
1127 23-02-2009 09:21:52 4.9 C 75 % 0.85 C
1128 23-02-2009 09:33:49 5 C 74 % 0.76 C
1129 23-02-2009 09:45:48 5.2 C 71 % 0.38 C
1130 23-02-2009 09:57:48 5.2 C 71 % 0.38 C
1131 23-02-2009 10:09:49 5.3 C 70 % 0.28 C
1132 23-02-2009 10:21:49 5.6 C 68 % 0.17 C
1133 23-02-2009 10:33:48 5.8 C 68 % 0.36 C
1134 23-02-2009 10:45:48 6 C 66 % 0.14 C
1135 23-02-2009 10:57:48 6.3 C 65 % 0.22 C
1136 23-02-2009 11:09:48 6.7 C 63 % 0.17 C
1137 23-02-2009 11:21:48 6.6 C 62 % -0.15 C
1138 23-02-2009 11:33:48 6.6 C 62 % -0.15 C
1139 23-02-2009 11:45:47 6.6 C 62 % -0.15 C
1140 23-02-2009 11:57:47 6.7 C 61 % -0.28 C
1141 23-02-2009 12:09:48 6.7 C 62 % -0.05 C
1142 23-02-2009 12:21:47 6.8 C 61 % -0.18 C
1143 23-02-2009 12:33:47 6.9 C 60 % -0.31 C
1144 23-02-2009 12:45:47 7 C 59 % -0.45 C
1145 23-02-2009 12:57:47 7.3 C 58 % -0.4 C
1146 23-02-2009 13:09:47 7.3 C 59 % -0.17 C
1147 23-02-2009 13:21:47 6.4 C 66 % 0.52 C
1148 23-02-2009 13:33:47 5.9 C 74 % 1.63 C
1149 23-02-2009 13:45:47 5.9 C 75 % 1.82 C
1150 23-02-2009 13:57:47 6.1 C 75 % 2.01 C
Sensor: Nr:Datum:Temp:Feuchte:Taupunkt:
Aussen-T/F 1151 23-02-2009 14:09:46 6.2 C 73 % 1.73 C
1152 23-02-2009 14:21:47 6.4 C 73 % 1.92 C
1153 23-02-2009 14:33:46 6.3 C 70 % 1.24 C
1154 23-02-2009 14:45:46 5.9 C 73 % 1.44 C
1155 23-02-2009 14:57:46 5.7 C 77 % 1.99 C
1156 23-02-2009 15:09:46 5.8 C 78 % 2.27 C
1157 23-02-2009 15:21:46 6 C 77 % 2.28 C
1158 23-02-2009 15:33:46 6.5 C 73 % 2.02 C
1159 23-02-2009 15:45:45 6.9 C 71 % 2.02 C
1160 23-02-2009 15:57:45 6.8 C 64 % 0.48 C
1161 23-02-2009 16:09:46 6.3 C 67 % 0.64 C
1162 23-02-2009 16:21:45 6 C 70 % 0.95 C
1163 23-02-2009 16:33:45 5.8 C 72 % 1.15 C
1164 23-02-2009 16:45:45 5.9 C 72 % 1.25 C
1165 23-02-2009 16:57:45 5.9 C 70 % 0.86 C
1166 23-02-2009 17:09:45 5.9 C 70 % 0.86 C
1167 23-02-2009 17:21:44 5.7 C 71 % 0.86 C
1168 23-02-2009 17:33:45 5.7 C 70 % 0.67 C
1169 23-02-2009 17:45:44 5.7 C 69 % 0.47 C
1170 23-02-2009 17:57:44 5.7 C 69 % 0.47 C
1171 23-02-2009 18:09:03 5.7 C 68 % 0.27 C
1172 23-02-2009 18:21:02 5.6 C 69 % 0.37 C
1173 23-02-2009 18:33:02 5.4 C 69 % 0.18 C
1174 23-02-2009 18:45:02 5.3 C 70 % 0.28 C
1175 23-02-2009 18:57:02 5.3 C 70 % 0.28 C
Sensor: Nr:Datum:Temp:Feuchte:Taupunkt:
Aussen-T/F 1176 23-02-2009 19:09:02 5.4 C 70 % 0.38 C
1177 23-02-2009 19:21:01 5.4 C 70 % 0.38 C
1178 23-02-2009 19:33:02 5.4 C 66 % -0.43 C
1179 23-02-2009 19:45:01 5.6 C 63 % -0.87 C
1180 23-02-2009 19:57:01 5.6 C 61 % -1.31 C
1181 23-02-2009 20:09:01 5.6 C 61 % -1.31 C
1182 23-02-2009 20:21:01 5.6 C 59 % -1.77 C
1183 23-02-2009 20:33:01 5.6 C 58 % -2 C
1184 23-02-2009 20:45:00 5.6 C 58 % -2 C
1185 23-02-2009 20:57:00 5.6 C 57 % -2.23 C
1186 23-02-2009 21:09:01 5.6 C 57 % -2.23 C
1187 23-02-2009 21:21:00 5.7 C 56 % -2.38 C
1188 23-02-2009 21:34:01 5.5 C 57 % -2.33 C
1189 23-02-2009 21:46:01 5.6 C 57 % -2.23 C
1190 23-02-2009 21:58:01 5.5 C 57 % -2.33 C
1191 23-02-2009 22:10:01 5.3 C 59 % -2.05 C
1192 23-02-2009 22:22:01 5.1 C 61 % -1.79 C
1193 23-02-2009 22:34:01 5 C 63 % -1.44 C
1194 23-02-2009 22:46:01 4.9 C 65 % -1.11 C
1195 23-02-2009 22:58:01 4.6 C 68 % -0.78 C
1196 23-02-2009 23:10:01 4.6 C 69 % -0.58 C
1197 23-02-2009 23:22:01 4.6 C 69 % -0.58 C
1198 23-02-2009 23:34:01 4.6 C 69 % -0.58 C
1199 23-02-2009 23:46:01 4.6 C 68 % -0.78 C
1200 23-02-2009 23:58:01 4.7 C 68 % -0.69 C
Sensor: Nr:Datum:Temp:Feuchte:Taupunkt:
Aussen-T/F 1201 24-02-2009 00:10:01 4.7 C 68 % -0.69 C
1202 24-02-2009 00:22:01 4.7 C 67 % -0.89 C
1203 24-02-2009 00:34:01 4.7 C 68 % -0.69 C
1204 24-02-2009 00:46:01 4.7 C 67 % -0.89 C
1205 24-02-2009 00:58:01 4.7 C 67 % -0.89 C
1206 24-02-2009 01:10:02 4.6 C 67 % -0.99 C
1207 24-02-2009 01:22:02 4.6 C 67 % -0.99 C
1208 24-02-2009 01:34:02 4.5 C 68 % -0.88 C
1209 24-02-2009 01:46:02 4.5 C 68 % -0.88 C
1210 24-02-2009 01:58:02 4.5 C 68 % -0.88 C
1211 24-02-2009 02:10:02 4.4 C 69 % -0.78 C
1212 24-02-2009 02:22:02 4.3 C 71 % -0.48 C
1213 24-02-2009 02:34:02 4.2 C 72 % -0.39 C
1214 24-02-2009 02:46:02 4.3 C 72 % -0.29 C
1215 24-02-2009 02:58:02 4.3 C 71 % -0.48 C
1216 24-02-2009 03:10:02 4.2 C 71 % -0.58 C
1217 24-02-2009 03:22:02 4.2 C 71 % -0.58 C
1218 24-02-2009 03:34:02 4.2 C 71 % -0.58 C
1219 24-02-2009 03:46:02 4.1 C 71 % -0.67 C
1220 24-02-2009 03:58:02 4.1 C 71 % -0.67 C
1221 24-02-2009 04:10:02 4.2 C 70 % -0.77 C
1222 24-02-2009 04:22:02 4.1 C 70 % -0.87 C
1223 24-02-2009 04:34:02 4.1 C 69 % -1.06 C
1224 24-02-2009 04:46:02 4.1 C 69 % -1.06 C
1225 24-02-2009 04:58:02 4.1 C 68 % -1.26 C
Sensor: Nr:Datum:Temp:Feuchte:Taupunkt:
Aussen-T/F 1226 24-02-2009 05:10:03 4.1 C 68 % -1.26 C
1227 24-02-2009 05:22:03 4.1 C 68 % -1.26 C
1228 24-02-2009 05:34:03 4 C 68 % -1.36 C
1229 24-02-2009 05:46:03 4 C 68 % -1.36 C
1230 24-02-2009 05:58:03 4.1 C 68 % -1.26 C
1231 24-02-2009 06:10:03 4.1 C 68 % -1.26 C
1232 24-02-2009 06:22:03 4.1 C 68 % -1.26 C
1233 24-02-2009 06:34:03 4 C 68 % -1.36 C
1234 24-02-2009 06:46:03 4.1 C 67 % -1.46 C
1235 24-02-2009 06:58:03 4 C 68 % -1.36 C
1236 24-02-2009 07:10:01 4 C 68 % -1.36 C
1237 24-02-2009 07:22:01 4 C 68 % -1.36 C
1238 24-02-2009 07:34:01 4 C 68 % -1.36 C
1239 24-02-2009 07:46:01 4 C 68 % -1.36 C
1240 24-02-2009 07:58:01 4 C 67 % -1.56 C
1241 24-02-2009 08:10:00 4.1 C 67 % -1.46 C
1242 24-02-2009 08:22:01 4.1 C 67 % -1.46 C
1243 24-02-2009 08:34:00 4.1 C 67 % -1.46 C
1244 24-02-2009 08:46:00 4.2 C 67 % -1.37 C
1245 24-02-2009 08:58:01 4.2 C 67 % -1.37 C
1246 24-02-2009 09:09:59 4.3 C 67 % -1.27 C
1247 24-02-2009 09:22:00 4.4 C 66 % -1.38 C
1248 24-02-2009 09:34:59 4.6 C 65 % -1.4 C
1249 24-02-2009 09:46:00 4.8 C 65 % -1.21 C
1250 24-02-2009 09:58:00 4.7 C 64 % -1.51 C
Sensor: Nr:Datum:Temp:Feuchte:Taupunkt:
Aussen-T/F 1251 24-02-2009 10:10:59 4.9 C 63 % -1.54 C
1252 24-02-2009 10:22:59 5 C 62 % -1.66 C
1253 24-02-2009 10:34:59 5.1 C 62 % -1.57 C
1254 24-02-2009 10:46:59 5.3 C 62 % -1.38 C
1255 24-02-2009 10:59:00 5.1 C 62 % -1.57 C
1256 24-02-2009 11:10:58 5.1 C 62 % -1.57 C
1257 24-02-2009 11:22:59 5.4 C 63 % -1.06 C
1258 24-02-2009 11:34:59 5.4 C 61 % -1.5 C
1259 24-02-2009 11:46:58 5.7 C 61 % -1.22 C
1260 24-02-2009 11:58:58 5.9 C 55 % -2.43 C
1261 24-02-2009 12:10:59 6.1 C 52 % -3 C
1262 24-02-2009 12:22:58 6 C 51 % -3.35 C
1263 24-02-2009 12:34:58 6.1 C 52 % -3 C
1264 24-02-2009 12:46:58 6.3 C 54 % -2.31 C
1265 24-02-2009 12:58:58 6 C 53 % -2.84 C
1266 24-02-2009 13:10:58 6.2 C 52 % -2.91 C
1267 24-02-2009 13:22:57 6.3 C 51 % -3.08 C
1268 24-02-2009 13:34:57 6.4 C 51 % -2.98 C
1269 24-02-2009 13:46:57 6.7 C 50 % -2.97 C
1270 24-02-2009 13:58:57 6.8 C 48 % -3.42 C
1271 24-02-2009 14:10:57 6.9 C 46 % -3.9 C
1272 24-02-2009 14:22:57 6.4 C 49 % -3.52 C
1273 24-02-2009 14:34:57 6.7 C 49 % -3.24 C
1274 24-02-2009 14:46:56 6.9 C 49 % -3.06 C
1275 24-02-2009 14:58:56 7.1 C 46 % -3.72 C
Sensor: Nr:Datum:Temp:Feuchte:Taupunkt:
Aussen-T/F 1276 24-02-2009 15:10:56 7 C 44 % -4.4 C
1277 24-02-2009 15:22:57 6.9 C 44 % -4.49 C
1278 24-02-2009 15:34:56 6.9 C 43 % -4.79 C
1279 24-02-2009 15:46:56 7.5 C 43 % -4.25 C
1280 24-02-2009 15:58:56 7.6 C 41 % -4.79 C
1281 24-02-2009 16:10:56 8.1 C 39 % -5 C
1282 24-02-2009 16:22:56 8.1 C 36 % -6.05 C
1283 24-02-2009 16:34:55 7.9 C 37 % -5.87 C
1284 24-02-2009 16:46:56 8.4 C 36 % -5.78 C
1285 24-02-2009 16:58:57 7.8 C 38 % -5.61 C
1286 24-02-2009 17:10:55 7.2 C 40 % -5.47 C
1287 24-02-2009 17:22:55 6.6 C 42 % -5.37 C
1288 24-02-2009 17:34:55 6.5 C 42 % -5.46 C
1289 24-02-2009 17:46:55 6.5 C 45 % -4.56 C
1290 24-02-2009 17:58:55 6.3 C 46 % -4.45 C
1291 24-02-2009 18:10:55 6.2 C 44 % -5.13 C
1292 24-02-2009 18:22:54 6.1 C 45 % -4.92 C
1293 24-02-2009 18:34:55 5.9 C 49 % -3.98 C
1294 24-02-2009 18:46:54 5.8 C 50 % -3.8 C
1295 24-02-2009 18:58:54 5.6 C 52 % -3.46 C
1296 24-02-2009 19:10:54 5.4 C 54 % -3.14 C
1297 24-02-2009 19:22:54 5 C 54 % -3.52 C
1298 24-02-2009 19:34:54 4.4 C 57 % -3.36 C
1299 24-02-2009 19:46:53 3.9 C 57 % -3.82 C
1300 24-02-2009 19:58:53 3.5 C 59 % -3.74 C
Sensor: Nr:Datum:Temp:Feuchte:Taupunkt:
Aussen-T/F 1301 24-02-2009 20:10:54 3.4 C 59 % -3.84 C
1302 24-02-2009 20:22:54 3.4 C 61 % -3.39 C
1303 24-02-2009 20:34:53 3.5 C 64 % -2.65 C
1304 24-02-2009 20:46:54 3.4 C 67 % -2.13 C
1305 24-02-2009 20:58:54 3.3 C 68 % -2.03 C
1306 24-02-2009 21:10:53 3.1 C 69 % -2.02 C
1307 24-02-2009 21:22:53 2.8 C 71 % -1.92 C
1308 24-02-2009 21:34:52 2.7 C 72 % -1.83 C
1309 24-02-2009 21:46:53 2.8 C 73 % -1.55 C
1310 24-02-2009 21:58:53 2.7 C 72 % -1.83 C
1311 24-02-2009 22:10:52 3 C 73 % -1.35 C
1312 24-02-2009 22:22:52 2.8 C 72 % -1.73 C
1313 24-02-2009 22:34:53 2.6 C 73 % -1.74 C
1314 24-02-2009 22:46:53 2.6 C 73 % -1.74 C
1315 24-02-2009 22:58:53 2.6 C 74 % -1.56 C
1316 24-02-2009 23:10:53 2.6 C 73 % -1.74 C
1317 24-02-2009 23:22:53 2.4 C 74 % -1.75 C
1318 24-02-2009 23:34:53 2.3 C 74 % -1.85 C
1319 24-02-2009 23:46:53 2 C 75 % -1.95 C
1320 24-02-2009 23:58:53 1.8 C 76 % -1.97 C
1321 25-02-2009 00:10:53 1.7 C 77 % -1.89 C
1322 25-02-2009 00:22:52 1.7 C 77 % -1.89 C
1323 25-02-2009 00:34:52 1.5 C 78 % -1.91 C
1324 25-02-2009 00:46:51 1.3 C 79 % -1.93 C
1325 25-02-2009 00:58:51 1.1 C 79 % -2.12 C
Sensor: Nr:Datum:Temp:Feuchte:Taupunkt:
Aussen-T/F 1326 25-02-2009 01:10:52 1.1 C 80 % -1.96 C
1327 25-02-2009 01:22:52 0.9 C 81 % -1.98 C
1328 25-02-2009 01:34:51 0.7 C 82 % -2.01 C
1329 25-02-2009 01:46:51 0.7 C 82 % -2.01 C
1330 25-02-2009 01:58:51 0.6 C 83 % -1.95 C
1331 25-02-2009 02:10:51 0.5 C 83 % -2.04 C
1332 25-02-2009 02:22:51 0.2 C 83 % -2.34 C
1333 25-02-2009 02:34:50 0 C 83 % -2.53 C
1334 25-02-2009 02:47:53 -0.3 C 83 % -2.83 C
1335 25-02-2009 02:59:53 -0.3 C 83 % -2.83 C
1336 25-02-2009 03:11:52 -0.4 C 84 % -2.77 C
1337 25-02-2009 03:23:52 -0.5 C 84 % -2.86 C
1338 25-02-2009 03:35:52 -0.4 C 84 % -2.77 C
1339 25-02-2009 03:47:52 -0.7 C 84 % -3.06 C
1340 25-02-2009 03:59:52 -0.7 C 84 % -3.06 C
1341 25-02-2009 04:11:52 -0.8 C 84 % -3.16 C
1342 25-02-2009 04:23:52 -0.8 C 84 % -3.16 C
1343 25-02-2009 04:35:51 -0.8 C 85 % -3 C
1344 25-02-2009 04:47:51 -0.9 C 86 % -2.94 C
1345 25-02-2009 04:59:51 -0.7 C 87 % -2.59 C
1346 25-02-2009 05:11:51 -0.7 C 87 % -2.59 C
1347 25-02-2009 05:23:52 -0.6 C 88 % -2.34 C
1348 25-02-2009 05:35:51 -0.7 C 89 % -2.28 C
1349 25-02-2009 05:47:51 -0.6 C 89 % -2.18 C
1350 25-02-2009 05:59:51 -0.6 C 89 % -2.18 C
Sensor: Nr:Datum:Temp:Feuchte:Taupunkt:
Aussen-T/F 1351 25-02-2009 06:11:51 -0.7 C 89 % -2.28 C
1352 25-02-2009 06:23:50 -0.9 C 89 % -2.48 C
1353 25-02-2009 06:35:51 -0.8 C 90 % -2.23 C
1354 25-02-2009 06:47:50 -0.9 C 90 % -2.33 C
1355 25-02-2009 06:59:50 -0.8 C 90 % -2.23 C
1356 25-02-2009 07:11:50 -0.7 C 90 % -2.13 C
1357 25-02-2009 07:23:50 -0.7 C 90 % -2.13 C
1358 25-02-2009 07:35:50 -0.6 C 90 % -2.03 C
1359 25-02-2009 07:47:49 -0.7 C 90 % -2.13 C
1360 25-02-2009 07:59:49 -0.8 C 90 % -2.23 C
1361 25-02-2009 08:11:50 -0.8 C 90 % -2.23 C
1362 25-02-2009 08:23:50 -0.9 C 89 % -2.48 C
1363 25-02-2009 08:35:49 -0.9 C 89 % -2.48 C
1364 25-02-2009 08:47:49 -0.8 C 89 % -2.38 C
1365 25-02-2009 08:59:49 -0.3 C 89 % -1.89 C
1366 25-02-2009 09:11:49 -0.1 C 89 % -1.69 C
1367 25-02-2009 09:23:49 -0.2 C 88 % -1.94 C
1368 25-02-2009 09:35:48 -0.2 C 87 % -2.1 C
1369 25-02-2009 09:47:49 -0.2 C 87 % -2.1 C
1370 25-02-2009 09:59:49 -0.1 C 87 % -2 C
1371 25-02-2009 10:11:48 0.1 C 87 % -1.8 C
1372 25-02-2009 10:23:48 0.3 C 87 % -1.6 C
1373 25-02-2009 10:35:49 1 C 86 % -1.07 C
1374 25-02-2009 10:47:48 1.1 C 83 % -1.46 C
1375 25-02-2009 10:59:48 1.4 C 82 % -1.33 C
Sensor: Nr:Datum:Temp:Feuchte:Taupunkt:
Aussen-T/F 1376 25-02-2009 11:11:48 2 C 80 % -1.08 C
1377 25-02-2009 11:23:48 1.7 C 78 % -1.71 C
1378 25-02-2009 11:35:48 2.3 C 77 % -1.31 C
1379 25-02-2009 11:47:47 3.2 C 74 % -0.98 C
1380 25-02-2009 11:59:47 3.5 C 73 % -0.87 C
1381 25-02-2009 12:11:48 3.9 C 72 % -0.68 C
1382 25-02-2009 12:23:47 4.8 C 70 % -0.2 C
1383 25-02-2009 12:35:47 5.8 C 63 % -0.69 C
1384 25-02-2009 12:47:47 6.4 C 53 % -2.47 C
1385 25-02-2009 12:59:47 6.9 C 45 % -4.19 C
1386 25-02-2009 13:11:47 7.4 C 40 % -5.29 C
1387 25-02-2009 13:23:46 7.5 C 40 % -5.2 C
1388 25-02-2009 13:35:46 7.6 C 40 % -5.11 C
1389 25-02-2009 13:47:47 7.8 C 38 % -5.61 C
1390 25-02-2009 13:59:47 7.9 C 38 % -5.52 C
1391 25-02-2009 14:11:46 8 C 38 % -5.43 C
1392 25-02-2009 14:23:46 8.1 C 38 % -5.34 C
1393 25-02-2009 14:35:46 8.4 C 37 % -5.42 C
1394 25-02-2009 14:47:46 8.7 C 36 % -5.52 C
1395 25-02-2009 14:59:46 8.6 C 35 % -5.97 C
1396 25-02-2009 15:11:45 8.6 C 36 % -5.6 C
1397 25-02-2009 15:23:46 8.7 C 36 % -5.52 C
1398 25-02-2009 15:35:46 8.9 C 35 % -5.71 C
1399 25-02-2009 15:47:45 8.6 C 36 % -5.6 C
1400 25-02-2009 15:59:45 8.4 C 37 % -5.42 C
Sensor: Nr:Datum:Temp:Feuchte:Taupunkt:
Aussen-T/F 1401 25-02-2009 16:11:46 8.5 C 38 % -4.98 C
1402 25-02-2009 16:23:45 8.6 C 39 % -4.55 C
1403 25-02-2009 16:35:45 8.6 C 38 % -4.89 C
1404 25-02-2009 16:47:44 8.4 C 40 % -4.4 C
1405 25-02-2009 16:59:44 8.1 C 40 % -4.66 C
1406 25-02-2009 17:11:45 7.8 C 42 % -4.29 C
1407 25-02-2009 17:23:44 7.5 C 45 % -3.65 C
1408 25-02-2009 17:35:44 7.2 C 45 % -3.92 C
1409 25-02-2009 17:47:44 6.9 C 47 % -3.61 C
1410 25-02-2009 17:59:44 6.6 C 47 % -3.89 C
1411 25-02-2009 18:11:44 6.4 C 47 % -4.07 C
1412 25-02-2009 18:23:44 6.2 C 49 % -3.7 C
1413 25-02-2009 18:35:43 6.2 C 50 % -3.43 C
1414 25-02-2009 18:47:44 6 C 50 % -3.62 C
1415 25-02-2009 18:59:44 5.8 C 51 % -3.54 C
1416 25-02-2009 19:11:43 5.6 C 51 % -3.72 C
1417 25-02-2009 19:23:43 5.4 C 51 % -3.91 C
1418 25-02-2009 19:35:43 5.4 C 51 % -3.91 C
1419 25-02-2009 19:47:43 5.4 C 51 % -3.91 C
1420 25-02-2009 19:59:43 5.3 C 51 % -4 C
1421 25-02-2009 20:11:42 5.1 C 52 % -3.93 C
1422 25-02-2009 20:23:43 5 C 52 % -4.02 C
1423 25-02-2009 20:35:43 5.2 C 52 % -3.83 C
1424 25-02-2009 20:47:42 5.3 C 51 % -4 C
1425 25-02-2009 20:59:42 5.3 C 52 % -3.74 C
Sensor: Nr:Datum:Temp:Feuchte:Taupunkt:
Aussen-T/F 1426 25-02-2009 21:11:42 5.5 C 50 % -4.08 C
1427 25-02-2009 21:23:42 5.6 C 50 % -3.99 C
1428 25-02-2009 21:35:42 5.5 C 50 % -4.08 C
1429 25-02-2009 21:47:42 5.5 C 50 % -4.08 C
1430 25-02-2009 21:59:42 5.6 C 50 % -3.99 C
1431 25-02-2009 22:11:41 5.7 C 49 % -4.16 C
1432 25-02-2009 22:23:42 5.7 C 49 % -4.16 C
1433 25-02-2009 22:36:43 5.7 C 49 % -4.16 C
1434 25-02-2009 22:48:43 5.7 C 49 % -4.16 C
1435 25-02-2009 23:00:43 5.7 C 49 % -4.16 C
1436 25-02-2009 23:12:43 5.7 C 49 % -4.16 C
1437 25-02-2009 23:24:43 5.8 C 49 % -4.07 C
1438 25-02-2009 23:36:43 5.7 C 49 % -4.16 C
1439 25-02-2009 23:48:43 5.6 C 50 % -3.99 C
1440 26-02-2009 00:00:43 5.6 C 50 % -3.99 C
1441 26-02-2009 00:12:43 5.5 C 51 % -3.81 C
1442 26-02-2009 00:24:43 5.6 C 51 % -3.72 C
1443 26-02-2009 00:36:43 5.6 C 52 % -3.46 C
1444 26-02-2009 00:48:43 5.6 C 52 % -3.46 C
1445 26-02-2009 01:00:43 5.6 C 52 % -3.46 C
1446 26-02-2009 01:12:43 5.4 C 53 % -3.39 C
1447 26-02-2009 01:24:43 5.3 C 53 % -3.49 C
1448 26-02-2009 01:36:43 5.3 C 53 % -3.49 C
1449 26-02-2009 01:48:44 5.2 C 54 % -3.33 C
1450 26-02-2009 02:00:44 5.2 C 55 % -3.09 C
Sensor: Nr:Datum:Temp:Feuchte:Taupunkt:
Aussen-T/F 1451 26-02-2009 02:12:44 5.2 C 55 % -3.09 C
1452 26-02-2009 02:24:44 5.2 C 56 % -2.84 C
1453 26-02-2009 02:36:44 5.2 C 56 % -2.84 C
1454 26-02-2009 02:48:44 5.1 C 56 % -2.94 C
1455 26-02-2009 03:00:44 5.1 C 57 % -2.7 C
1456 26-02-2009 03:12:44 5 C 57 % -2.79 C
1457 26-02-2009 03:24:44 5 C 58 % -2.56 C
1458 26-02-2009 03:36:44 5.1 C 58 % -2.47 C
1459 26-02-2009 03:48:44 5 C 58 % -2.56 C
1460 26-02-2009 04:00:44 5 C 58 % -2.56 C
1461 26-02-2009 04:12:44 5 C 58 % -2.56 C
1462 26-02-2009 04:24:44 5.2 C 60 % -1.92 C
1463 26-02-2009 04:36:44 5.3 C 62 % -1.38 C
1464 26-02-2009 04:48:44 5.4 C 62 % -1.28 C
1465 26-02-2009 05:00:44 5.5 C 62 % -1.19 C
1466 26-02-2009 05:12:44 5.5 C 62 % -1.19 C
1467 26-02-2009 05:24:44 5.4 C 62 % -1.28 C
1468 26-02-2009 05:36:44 5.4 C 62 % -1.28 C
1469 26-02-2009 05:48:45 5.4 C 62 % -1.28 C
1470 26-02-2009 06:00:45 5.4 C 62 % -1.28 C
1471 26-02-2009 06:12:45 5.4 C 62 % -1.28 C
1472 26-02-2009 06:24:45 5.3 C 62 % -1.38 C
1473 26-02-2009 06:36:45 5.2 C 63 % -1.25 C
1474 26-02-2009 06:48:45 5.2 C 64 % -1.04 C
1475 26-02-2009 07:00:42 5.2 C 64 % -1.04 C
Sensor: Nr:Datum:Temp:Feuchte:Taupunkt:
Aussen-T/F 1476 26-02-2009 07:12:42 5.2 C 65 % -0.83 C
1477 26-02-2009 07:24:42 5.2 C 65 % -0.83 C
1478 26-02-2009 07:36:42 5.3 C 65 % -0.73 C
1479 26-02-2009 07:48:41 5.3 C 65 % -0.73 C
1480 26-02-2009 08:00:42 5.3 C 66 % -0.52 C
1481 26-02-2009 08:12:42 5.3 C 66 % -0.52 C
1482 26-02-2009 08:24:41 5.3 C 67 % -0.32 C
1483 26-02-2009 08:36:41 5.4 C 67 % -0.22 C
1484 26-02-2009 08:48:41 5.4 C 67 % -0.22 C
1485 26-02-2009 09:00:41 5.5 C 67 % -0.13 C
1486 26-02-2009 09:12:41 5.6 C 68 % 0.17 C
1487 26-02-2009 09:24:41 5.6 C 69 % 0.37 C
1488 26-02-2009 09:36:41 5.5 C 72 % 0.86 C
1489 26-02-2009 09:48:41 5.4 C 74 % 1.15 C
1490 26-02-2009 10:00:40 5.3 C 76 % 1.42 C
1491 26-02-2009 10:12:40 5.4 C 77 % 1.7 C
1492 26-02-2009 10:24:40 5.4 C 76 % 1.52 C
1493 26-02-2009 10:36:40 5.5 C 76 % 1.62 C
1494 26-02-2009 10:48:40 5.6 C 75 % 1.53 C
1495 26-02-2009 11:00:39 5.7 C 75 % 1.62 C
1496 26-02-2009 11:12:39 5.9 C 74 % 1.63 C
1497 26-02-2009 11:24:40 6.3 C 72 % 1.63 C
1498 26-02-2009 11:36:40 6.8 C 68 % 1.32 C
1499 26-02-2009 11:48:39 7.1 C 65 % 0.98 C
1500 26-02-2009 12:00:40 7.3 C 64 % 0.95 C
Sensor: Nr:Datum:Temp:Feuchte:Taupunkt:
Aussen-T/F 1501 26-02-2009 12:12:40 7.8 C 62 % 0.99 C
1502 26-02-2009 12:24:39 7.8 C 60 % 0.53 C
1503 26-02-2009 12:36:39 8 C 58 % 0.25 C
1504 26-02-2009 12:48:39 8 C 58 % 0.25 C
1505 26-02-2009 13:00:39 7.9 C 59 % 0.4 C
1506 26-02-2009 13:12:40 7.9 C 60 % 0.63 C
1507 26-02-2009 13:24:38 8 C 59 % 0.49 C
1508 26-02-2009 13:36:38 8.2 C 58 % 0.44 C
1509 26-02-2009 13:48:38 8.3 C 58 % 0.54 C
1510 26-02-2009 14:00:38 8.6 C 57 % 0.58 C
1511 26-02-2009 14:12:38 8.9 C 54 % 0.11 C
1512 26-02-2009 14:24:38 8.8 C 52 % -0.5 C
1513 26-02-2009 14:36:38 9.2 C 44 % -2.4 C
1514 26-02-2009 14:48:38 9.6 C 40 % -3.32 C
1515 26-02-2009 15:00:37 9.5 C 40 % -3.41 C
1516 26-02-2009 15:12:37 9.5 C 40 % -3.41 C
1517 26-02-2009 15:24:38 9.6 C 39 % -3.65 C
1518 26-02-2009 15:36:37 9.4 C 38 % -4.18 C
1519 26-02-2009 15:48:37 9.4 C 40 % -3.5 C
1520 26-02-2009 16:00:37 9.3 C 39 % -3.92 C
1521 26-02-2009 16:12:37 9.4 C 41 % -3.17 C
1522 26-02-2009 16:24:37 9.2 C 41 % -3.35 C
1523 26-02-2009 16:36:37 9 C 41 % -3.53 C
1524 26-02-2009 16:48:37 9 C 41 % -3.53 C
1525 26-02-2009 17:00:37 8.8 C 41 % -3.71 C
Sensor: Nr:Datum:Temp:Feuchte:Taupunkt:
Aussen-T/F 1526 26-02-2009 17:12:37 8.6 C 42 % -3.57 C
1527 26-02-2009 17:24:36 8.6 C 43 % -3.25 C
1528 26-02-2009 17:36:36 8.3 C 44 % -3.22 C
1529 26-02-2009 17:48:36 8.2 C 45 % -3.01 C
1530 26-02-2009 18:00:36 8.1 C 45 % -3.1 C
1531 26-02-2009 18:12:36 8 C 46 % -2.9 C
1532 26-02-2009 18:24:35 7.9 C 46 % -2.99 C
1533 26-02-2009 18:36:02 7.8 C 47 % -2.79 C
1534 26-02-2009 18:48:01 7.8 C 47 % -2.79 C
1535 26-02-2009 19:00:01 7.7 C 48 % -2.6 C
1536 26-02-2009 19:12:01 7.6 C 48 % -2.69 C
1537 26-02-2009 19:24:01 7.6 C 49 % -2.41 C
1538 26-02-2009 19:36:01 7.5 C 51 % -1.97 C
1539 26-02-2009 19:48:00 7.5 C 53 % -1.44 C
1540 26-02-2009 20:00:00 7.4 C 54 % -1.28 C
1541 26-02-2009 20:12:01 7.4 C 55 % -1.03 C
1542 26-02-2009 20:24:00 7.5 C 53 % -1.44 C
1543 26-02-2009 20:36:00 7.5 C 53 % -1.44 C
1544 26-02-2009 20:48:00 7.4 C 54 % -1.28 C
1545 26-02-2009 21:00:00 7.3 C 55 % -1.13 C
1546 26-02-2009 21:12:00 7.2 C 55 % -1.22 C
1547 26-02-2009 21:24:00 7.2 C 55 % -1.22 C
1548 26-02-2009 21:36:00 7.2 C 55 % -1.22 C
1549 26-02-2009 22:00:00 7.2 C 54 % -1.47 C
1550 26-02-2009 22:00:00 7.2 C 55 % -1.22 C
Sensor: Nr:Datum:Temp:Feuchte:Taupunkt:
Aussen-T/F 1551 26-02-2009 22:12:00 7.2 C 55 % -1.22 C
1552 26-02-2009 22:25:00 7.2 C 55 % -1.22 C
1553 26-02-2009 22:37:00 7.1 C 54 % -1.56 C
1554 26-02-2009 22:49:00 7.1 C 54 % -1.56 C
1555 26-02-2009 23:01:00 7.2 C 54 % -1.47 C
1556 26-02-2009 23:13:00 7.2 C 53 % -1.72 C
1557 26-02-2009 23:25:00 7.2 C 54 % -1.47 C
1558 26-02-2009 23:37:01 7.1 C 54 % -1.56 C
1559 26-02-2009 23:49:01 7.3 C 52 % -1.89 C
1560 27-02-2009 00:01:01 7.2 C 52 % -1.98 C
1561 27-02-2009 00:13:01 7.2 C 53 % -1.72 C
1562 27-02-2009 00:25:01 7.2 C 52 % -1.98 C
1563 27-02-2009 00:37:01 7.2 C 53 % -1.72 C
1564 27-02-2009 00:49:01 7.2 C 53 % -1.72 C
1565 27-02-2009 01:01:01 7.2 C 54 % -1.47 C
1566 27-02-2009 01:13:01 7.2 C 54 % -1.47 C
1567 27-02-2009 01:25:01 7.3 C 54 % -1.38 C
1568 27-02-2009 01:37:01 7.2 C 55 % -1.22 C
1569 27-02-2009 01:49:01 7.2 C 55 % -1.22 C
1570 27-02-2009 02:01:01 7.2 C 55 % -1.22 C
1571 27-02-2009 02:13:01 7.1 C 58 % -0.59 C
1572 27-02-2009 02:25:01 7 C 59 % -0.45 C
1573 27-02-2009 02:37:01 7 C 60 % -0.22 C
1574 27-02-2009 02:49:01 7 C 60 % -0.22 C
1575 27-02-2009 03:01:01 7 C 60 % -0.22 C
Sensor: Nr:Datum:Temp:Feuchte:Taupunkt:
Aussen-T/F 1576 27-02-2009 03:13:02 7 C 60 % -0.22 C
1577 27-02-2009 03:25:02 6.9 C 63 % 0.36 C
1578 27-02-2009 03:37:02 6.4 C 70 % 1.34 C
1579 27-02-2009 03:49:02 6 C 74 % 1.73 C
1580 27-02-2009 04:01:02 5.9 C 78 % 2.37 C
1581 27-02-2009 04:13:02 6.1 C 77 % 2.38 C
1582 27-02-2009 04:25:02 5.9 C 79 % 2.54 C
1583 27-02-2009 04:37:02 5.9 C 80 % 2.72 C
1584 27-02-2009 04:49:02 5.9 C 81 % 2.9 C
1585 27-02-2009 05:01:02 5.7 C 82 % 2.87 C
1586 27-02-2009 05:13:02 5.6 C 84 % 3.12 C
1587 27-02-2009 05:25:02 5.6 C 85 % 3.28 C
1588 27-02-2009 05:37:02 5.6 C 86 % 3.45 C
1589 27-02-2009 05:49:02 5.6 C 86 % 3.45 C
1590 27-02-2009 06:01:02 5.6 C 86 % 3.45 C
1591 27-02-2009 06:13:02 5.6 C 85 % 3.28 C
1592 27-02-2009 06:25:02 5.6 C 85 % 3.28 C
1593 27-02-2009 06:37:02 5.6 C 84 % 3.12 C
1594 27-02-2009 06:49:02 5.6 C 84 % 3.12 C
1595 27-02-2009 07:01:00 5.6 C 83 % 2.95 C
1596 27-02-2009 07:13:00 5.7 C 82 % 2.87 C
1597 27-02-2009 07:25:00 5.9 C 80 % 2.72 C
1598 27-02-2009 07:37:00 6.1 C 77 % 2.38 C
1599 27-02-2009 07:49:00 6.1 C 75 % 2.01 C
1600 27-02-2009 08:01:59 6.2 C 73 % 1.73 C
Sensor: Nr:Datum:Temp:Feuchte:Taupunkt:
Aussen-T/F 1601 27-02-2009 08:13:59 6.4 C 71 % 1.54 C
1602 27-02-2009 08:25:00 6.5 C 69 % 1.23 C
1603 27-02-2009 08:37:00 6.6 C 68 % 1.13 C
1604 27-02-2009 08:49:59 6.7 C 67 % 1.02 C
1605 27-02-2009 09:00:59 6.8 C 66 % 0.9 C
1606 27-02-2009 09:12:59 6.9 C 66 % 1 C
1607 27-02-2009 09:25:59 7 C 64 % 0.67 C
1608 27-02-2009 09:37:59 7.2 C 63 % 0.64 C
1609 27-02-2009 09:49:58 7.7 C 61 % 0.67 C
1610 27-02-2009 10:01:59 7.9 C 59 % 0.4 C
1611 27-02-2009 10:13:59 8 C 57 % 0.01 C
1612 27-02-2009 10:25:58 8.1 C 56 % -0.13 C
1613 27-02-2009 10:37:58 8.6 C 56 % 0.33 C
1614 27-02-2009 10:49:58 8.6 C 53 % -0.42 C
1615 27-02-2009 11:01:58 8.7 C 53 % -0.33 C
1616 27-02-2009 11:13:58 8.7 C 52 % -0.59 C
1617 27-02-2009 11:25:57 8.7 C 54 % -0.07 C
1618 27-02-2009 11:37:58 8.5 C 55 % -0.01 C
1619 27-02-2009 11:49:58 8.3 C 59 % 0.77 C
1620 27-02-2009 12:01:57 8 C 62 % 1.18 C
1621 27-02-2009 12:13:57 7.7 C 67 % 1.97 C
1622 27-02-2009 12:25:58 7.4 C 70 % 2.3 C
1623 27-02-2009 12:37:57 7.2 C 73 % 2.69 C
1624 27-02-2009 12:49:57 7 C 77 % 3.25 C
1625 27-02-2009 13:01:56 6.8 C 80 % 3.6 C
Sensor: Nr:Datum:Temp:Feuchte:Taupunkt:
Aussen-T/F 1626 27-02-2009 13:13:56 6.8 C 82 % 3.95 C
1627 27-02-2009 13:25:57 7 C 82 % 4.14 C
1628 27-02-2009 13:37:56 7.1 C 82 % 4.24 C
1629 27-02-2009 13:49:56 7.1 C 80 % 3.89 C
1630 27-02-2009 14:01:57 7.1 C 79 % 3.71 C
1631 27-02-2009 14:13:57 7.3 C 78 % 3.73 C
1632 27-02-2009 14:25:56 7.5 C 78 % 3.92 C
1633 27-02-2009 14:37:56 7.5 C 78 % 3.92 C
1634 27-02-2009 14:49:56 7.7 C 77 % 3.93 C
1635 27-02-2009 15:01:56 7.5 C 74 % 3.17 C
1636 27-02-2009 15:13:56 7.6 C 73 % 3.08 C
1637 27-02-2009 15:25:56 7.5 C 72 % 2.79 C
1638 27-02-2009 15:37:55 7.7 C 71 % 2.78 C
1639 27-02-2009 15:49:56 7.9 C 70 % 2.78 C
1640 27-02-2009 16:01:55 8 C 67 % 2.26 C
1641 27-02-2009 16:13:55 8 C 66 % 2.05 C
1642 27-02-2009 16:25:55 8 C 66 % 2.05 C
1643 27-02-2009 16:37:55 8 C 64 % 1.62 C
1644 27-02-2009 16:49:54 7.9 C 66 % 1.95 C
1645 27-02-2009 17:01:54 7.9 C 66 % 1.95 C
1646 27-02-2009 17:13:54 7.9 C 66 % 1.95 C
1647 27-02-2009 17:25:55 7.8 C 68 % 2.27 C
1648 27-02-2009 17:37:54 7.6 C 70 % 2.49 C
1649 27-02-2009 17:49:54 7.5 C 71 % 2.59 C
1650 27-02-2009 18:01:54 7.5 C 71 % 2.59 C
Sensor: Nr:Datum:Temp:Feuchte:Taupunkt:
Aussen-T/F 1651 27-02-2009 18:13:54 7.6 C 71 % 2.69 C
1652 27-02-2009 18:25:54 7.6 C 70 % 2.49 C
1653 27-02-2009 18:37:53 7.6 C 70 % 2.49 C
1654 27-02-2009 18:49:54 7.6 C 70 % 2.49 C
1655 27-02-2009 19:01:53 7.6 C 69 % 2.29 C
1656 27-02-2009 19:13:53 7.7 C 69 % 2.38 C
1657 27-02-2009 19:25:53 7.8 C 69 % 2.48 C
1658 27-02-2009 19:37:54 7.8 C 68 % 2.27 C
1659 27-02-2009 19:49:53 7.9 C 68 % 2.37 C
1660 27-02-2009 20:01:53 7.8 C 68 % 2.27 C
1661 27-02-2009 20:13:53 7.8 C 68 % 2.27 C
1662 27-02-2009 20:25:53 7.7 C 70 % 2.58 C
1663 27-02-2009 20:37:53 7.7 C 70 % 2.58 C
1664 27-02-2009 20:49:52 7.5 C 72 % 2.79 C
1665 27-02-2009 21:01:53 7.2 C 75 % 3.07 C
1666 27-02-2009 21:13:54 7 C 78 % 3.43 C
1667 27-02-2009 21:25:52 7 C 80 % 3.79 C
1668 27-02-2009 21:37:52 6.9 C 82 % 4.05 C
1669 27-02-2009 21:49:52 6.8 C 84 % 4.29 C
1670 27-02-2009 22:01:52 6.7 C 84 % 4.19 C
1671 27-02-2009 22:13:52 6.7 C 85 % 4.36 C
1672 27-02-2009 22:25:52 6.8 C 84 % 4.29 C
1673 27-02-2009 22:37:51 6.9 C 84 % 4.39 C
1674 27-02-2009 22:49:52 6.9 C 83 % 4.22 C
1675 27-02-2009 23:01:51 6.9 C 82 % 4.05 C
Sensor: Nr:Datum:Temp:Feuchte:Taupunkt:
Aussen-T/F 1676 27-02-2009 23:13:51 6.9 C 81 % 3.87 C
1677 27-02-2009 23:25:51 6.9 C 82 % 4.05 C
1678 27-02-2009 23:37:51 6.8 C 82 % 3.95 C
1679 27-02-2009 23:50:52 6.9 C 82 % 4.05 C
1680 28-02-2009 00:02:52 6.9 C 82 % 4.05 C
1681 28-02-2009 00:14:52 6.9 C 81 % 3.87 C
1682 28-02-2009 00:26:53 6.9 C 81 % 3.87 C
1683 28-02-2009 00:38:53 6.9 C 80 % 3.7 C
1684 28-02-2009 00:50:53 6.9 C 80 % 3.7 C
1685 28-02-2009 01:02:53 6.9 C 79 % 3.52 C
1686 28-02-2009 01:14:53 6.9 C 79 % 3.52 C
1687 28-02-2009 01:26:53 6.9 C 79 % 3.52 C
1688 28-02-2009 01:38:53 7 C 77 % 3.25 C
1689 28-02-2009 01:50:53 7 C 77 % 3.25 C
1690 28-02-2009 02:02:53 7.1 C 76 % 3.16 C
1691 28-02-2009 02:14:53 7.1 C 76 % 3.16 C
1692 28-02-2009 02:26:53 7.3 C 75 % 3.17 C
1693 28-02-2009 02:38:53 7.4 C 74 % 3.08 C
1694 28-02-2009 02:50:53 7.5 C 73 % 2.98 C
1695 28-02-2009 03:02:53 7.5 C 73 % 2.98 C
1696 28-02-2009 03:14:53 7.5 C 73 % 2.98 C
1697 28-02-2009 03:26:53 7.5 C 73 % 2.98 C
1698 28-02-2009 03:38:53 7.5 C 73 % 2.98 C
1699 28-02-2009 03:50:53 7.5 C 73 % 2.98 C
1700 28-02-2009 04:02:54 7.6 C 73 % 3.08 C
Sensor: Nr:Datum:Temp:Feuchte:Taupunkt:
Aussen-T/F 1701 28-02-2009 04:14:54 7.6 C 73 % 3.08 C
1702 28-02-2009 04:26:54 7.6 C 72 % 2.88 C
1703 28-02-2009 04:38:54 7.6 C 72 % 2.88 C
1704 28-02-2009 04:50:54 7.7 C 72 % 2.98 C
1705 28-02-2009 05:02:54 7.7 C 72 % 2.98 C
1706 28-02-2009 05:14:54 7.8 C 71 % 2.88 C
1707 28-02-2009 05:26:54 7.8 C 71 % 2.88 C
1708 28-02-2009 05:38:54 7.8 C 71 % 2.88 C
1709 28-02-2009 05:50:54 7.7 C 71 % 2.78 C
1710 28-02-2009 06:02:54 7.6 C 72 % 2.88 C
1711 28-02-2009 06:14:54 7.6 C 72 % 2.88 C
1712 28-02-2009 06:26:54 7.5 C 72 % 2.79 C
1713 28-02-2009 06:38:54 7.5 C 73 % 2.98 C
1714 28-02-2009 06:50:54 7.4 C 73 % 2.89 C
1715 28-02-2009 07:02:54 7.4 C 73 % 2.89 C
1716 28-02-2009 07:14:54 7.4 C 74 % 3.08 C
1717 28-02-2009 07:26:54 7.3 C 74 % 2.98 C
1718 28-02-2009 07:38:54 7.3 C 75 % 3.17 C
1719 28-02-2009 07:50:55 7.4 C 75 % 3.27 C
1720 28-02-2009 08:02:51 7.5 C 74 % 3.17 C
1721 28-02-2009 08:14:51 7.6 C 74 % 3.27 C
1722 28-02-2009 08:26:51 7.6 C 73 % 3.08 C
1723 28-02-2009 08:38:51 7.9 C 73 % 3.37 C
1724 28-02-2009 08:50:51 8 C 72 % 3.27 C
1725 28-02-2009 09:02:51 8.1 C 71 % 3.17 C
Sensor: Nr:Datum:Temp:Feuchte:Taupunkt:
Aussen-T/F 1726 28-02-2009 09:14:51 8.2 C 71 % 3.26 C
1727 28-02-2009 09:26:51 9 C 67 % 3.21 C
1728 28-02-2009 09:38:51 9.5 C 64 % 3.04 C
1729 28-02-2009 09:50:51 9.3 C 64 % 2.85 C
1730 28-02-2009 10:02:51 9.3 C 64 % 2.85 C
1731 28-02-2009 10:14:50 9.7 C 63 % 3.01 C
1732 28-02-2009 10:26:50 9.8 C 62 % 2.88 C
1733 28-02-2009 10:38:50 9.7 C 63 % 3.01 C
1734 28-02-2009 10:50:50 9.8 C 62 % 2.88 C
1735 28-02-2009 11:02:50 9.9 C 62 % 2.97 C
1736 28-02-2009 11:14:49 10.1 C 61 % 2.93 C
1737 28-02-2009 11:26:49 10.8 C 59 % 3.12 C
1738 28-02-2009 11:38:50 11.2 C 57 % 3.01 C
1739 28-02-2009 11:50:49 10.7 C 59 % 3.03 C
1740 28-02-2009 12:02:49 10.3 C 60 % 2.89 C
1741 28-02-2009 12:14:50 10.3 C 61 % 3.12 C
1742 28-02-2009 12:26:50 11 C 58 % 3.07 C
1743 28-02-2009 12:38:49 11.4 C 56 % 2.95 C
1744 28-02-2009 12:50:49 12 C 54 % 2.99 C
1745 28-02-2009 13:02:49 12.2 C 52 % 2.65 C
1746 28-02-2009 13:14:49 12.4 C 50 % 2.28 C
1747 28-02-2009 13:26:49 12.7 C 50 % 2.56 C
1748 28-02-2009 13:38:49 13.5 C 47 % 2.42 C
1749 28-02-2009 13:50:49 13.9 C 45 % 2.18 C
1750 28-02-2009 14:02:48 14.2 C 42 % 1.49 C
Sensor: Nr:Datum:Temp:Feuchte:Taupunkt:
Aussen-T/F 1751 28-02-2009 14:14:48 14.3 C 42 % 1.58 C
1752 28-02-2009 14:26:49 14 C 43 % 1.63 C
1753 28-02-2009 14:38:47 14.2 C 41 % 1.15 C
1754 28-02-2009 14:50:48 14.9 C 38 % 0.73 C
1755 28-02-2009 15:02:47 15.3 C 36 % 0.34 C
1756 28-02-2009 15:14:47 16.1 C 35 % 0.65 C
1757 28-02-2009 15:26:47 16.8 C 34 % 0.87 C
1758 28-02-2009 15:38:48 18 C 31 % 0.64 C
1759 28-02-2009 15:50:47 18.1 C 31 % 0.73 C
1760 28-02-2009 16:02:47 17.6 C 33 % 1.16 C
1761 28-02-2009 16:14:47 16.8 C 36 % 1.66 C
1762 28-02-2009 16:26:47 16.6 C 37 % 1.87 C
1763 28-02-2009 16:38:47 16.1 C 38 % 1.79 C
1764 28-02-2009 16:50:47 15.6 C 40 % 2.06 C
1765 28-02-2009 17:02:48 15.2 C 41 % 2.05 C
1766 28-02-2009 17:14:46 15 C 42 % 2.21 C
1767 28-02-2009 17:26:46 14.7 C 46 % 3.22 C
1768 28-02-2009 17:38:47 14.3 C 47 % 3.15 C
1769 28-02-2009 17:50:46 13.8 C 49 % 3.28 C
1770 28-02-2009 18:02:46 13.4 C 50 % 3.2 C
1771 28-02-2009 18:14:46 12.9 C 52 % 3.29 C
1772 28-02-2009 18:26:46 12.2 C 54 % 3.18 C
1773 28-02-2009 18:38:46 12 C 55 % 3.25 C
1774 28-02-2009 18:50:45 11.7 C 56 % 3.23 C
1775 28-02-2009 19:02:45 11.6 C 56 % 3.13 C
Sensor: Nr:Datum:Temp:Feuchte:Taupunkt:
Aussen-T/F 1776 28-02-2009 19:14:46 11.4 C 56 % 2.95 C
1777 28-02-2009 19:26:46 11.2 C 57 % 3.01 C
1778 28-02-2009 19:38:45 11.1 C 57 % 2.92 C
1779 28-02-2009 19:50:44 11 C 57 % 2.82 C
1780 28-02-2009 20:02:45 10.7 C 59 % 3.03 C
1781 28-02-2009 20:14:45 10.2 C 60 % 2.79 C
1782 28-02-2009 20:26:45 10 C 61 % 2.84 C
1783 28-02-2009 20:38:44 9.7 C 63 % 3.01 C
1784 28-02-2009 20:50:45 9.6 C 63 % 2.91 C
1785 28-02-2009 21:02:44 9.5 C 64 % 3.04 C
1786 28-02-2009 21:14:45 9.4 C 65 % 3.16 C
1787 28-02-2009 21:26:45 9.2 C 65 % 2.97 C
1788 28-02-2009 21:38:44 9.1 C 66 % 3.09 C
1789 28-02-2009 21:50:44 8.8 C 67 % 3.02 C
1790 28-02-2009 22:02:44 8.7 C 68 % 3.13 C
1791 28-02-2009 22:14:44 8.7 C 69 % 3.34 C
1792 28-02-2009 22:26:44 8.7 C 69 % 3.34 C
1793 28-02-2009 22:38:43 8.4 C 69 % 3.05 C
1794 28-02-2009 22:51:44 8.2 C 70 % 3.06 C
1795 28-02-2009 23:03:44 7.9 C 72 % 3.17 C
1796 28-02-2009 23:15:44 7.7 C 72 % 2.98 C
1797 28-02-2009 23:27:44 7.5 C 73 % 2.98 C
1798 28-02-2009 23:39:44 7.4 C 74 % 3.08 C
1799 28-02-2009 23:51:45 7.2 C 74 % 2.89 C
1800 01-03-2009 00:03:45 7.1 C 75 % 2.98 C
Sensor: Nr:Datum:Temp:Feuchte:Taupunkt:
Aussen-T/F 1801 01-03-2009 00:15:45 7 C 75 % 2.88 C
1802 01-03-2009 00:27:45 7.4 C 77 % 3.64 C
1803 01-03-2009 00:39:45 7.7 C 76 % 3.75 C
1804 01-03-2009 00:51:45 7.7 C 75 % 3.56 C
1805 01-03-2009 01:03:45 7.5 C 74 % 3.17 C
1806 01-03-2009 01:15:45 7.6 C 74 % 3.27 C
1807 01-03-2009 01:27:45 7.7 C 74 % 3.37 C
1808 01-03-2009 01:39:45 7.8 C 74 % 3.46 C
1809 01-03-2009 01:51:45 7.9 C 74 % 3.56 C
1810 01-03-2009 02:03:45 7.8 C 73 % 3.27 C
1811 01-03-2009 02:15:45 7.8 C 73 % 3.27 C
1812 01-03-2009 02:27:45 7.9 C 73 % 3.37 C
1813 01-03-2009 02:39:45 7.7 C 73 % 3.18 C
1814 01-03-2009 02:51:45 7.6 C 73 % 3.08 C
1815 01-03-2009 03:03:45 7.5 C 73 % 2.98 C
1816 01-03-2009 03:15:45 7.2 C 74 % 2.89 C
1817 01-03-2009 03:27:45 6.8 C 75 % 2.69 C
1818 01-03-2009 03:39:46 6.7 C 77 % 2.96 C
1819 01-03-2009 03:51:46 6.5 C 78 % 2.95 C
1820 01-03-2009 04:03:46 6.5 C 78 % 2.95 C
1821 01-03-2009 04:15:46 6.3 C 78 % 2.75 C
1822 01-03-2009 04:27:46 6.2 C 78 % 2.66 C
1823 01-03-2009 04:39:46 6.2 C 79 % 2.84 C
1824 01-03-2009 04:51:46 6 C 78 % 2.46 C
1825 01-03-2009 05:03:46 6 C 79 % 2.64 C
Sensor: Nr:Datum:Temp:Feuchte:Taupunkt:
Aussen-T/F 1826 01-03-2009 05:15:46 6.4 C 80 % 3.21 C
1827 01-03-2009 05:27:46 6.4 C 80 % 3.21 C
1828 01-03-2009 05:39:46 6.4 C 79 % 3.03 C
1829 01-03-2009 05:51:46 6.3 C 78 % 2.75 C
1830 01-03-2009 06:03:46 6.3 C 79 % 2.93 C
1831 01-03-2009 06:15:46 6.5 C 79 % 3.13 C
1832 01-03-2009 06:27:46 6.6 C 79 % 3.23 C
1833 01-03-2009 06:39:46 6.7 C 79 % 3.32 C
1834 01-03-2009 06:51:46 6.8 C 79 % 3.42 C
1835 01-03-2009 07:03:46 6.8 C 79 % 3.42 C
1836 01-03-2009 07:15:46 6.9 C 78 % 3.34 C
1837 01-03-2009 07:27:47 6.8 C 78 % 3.24 C
1838 01-03-2009 07:39:47 6.9 C 78 % 3.34 C
1839 01-03-2009 07:51:47 7 C 77 % 3.25 C
1840 01-03-2009 08:03:47 7.2 C 77 % 3.45 C
1841 01-03-2009 08:15:47 7.4 C 76 % 3.45 C
1842 01-03-2009 08:27:47 7.6 C 75 % 3.46 C
1843 01-03-2009 08:39:47 7.8 C 75 % 3.65 C
1844 01-03-2009 08:51:47 7.9 C 73 % 3.37 C
1845 01-03-2009 09:03:43 8 C 71 % 3.07 C
1846 01-03-2009 09:15:44 8.1 C 69 % 2.77 C
1847 01-03-2009 09:27:44 8.4 C 69 % 3.05 C
1848 01-03-2009 09:39:44 8.6 C 67 % 2.83 C
1849 01-03-2009 09:51:43 8.7 C 65 % 2.5 C
1850 01-03-2009 10:03:43 9.1 C 64 % 2.66 C
Sensor: Nr:Datum:Temp:Feuchte:Taupunkt:
Aussen-T/F 1851 01-03-2009 10:15:43 9.3 C 63 % 2.63 C
1852 01-03-2009 10:27:43 9.6 C 61 % 2.46 C
1853 01-03-2009 10:39:43 10 C 58 % 2.13 C
1854 01-03-2009 10:51:43 10.1 C 58 % 2.22 C
1855 01-03-2009 11:03:43 10.7 C 55 % 2.04 C
1856 01-03-2009 11:15:42 10.5 C 56 % 2.11 C
1857 01-03-2009 11:27:42 10.6 C 55 % 1.95 C
1858 01-03-2009 11:39:42 10.9 C 54 % 1.97 C
1859 01-03-2009 11:51:42 11.5 C 53 % 2.27 C
1860 01-03-2009 12:03:42 11.7 C 51 % 1.91 C
1861 01-03-2009 12:15:42 11.8 C 50 % 1.73 C
1862 01-03-2009 12:27:42 11.6 C 50 % 1.54 C
1863 01-03-2009 12:39:42 12.1 C 48 % 1.44 C
1864 01-03-2009 12:51:42 12.8 C 46 % 1.48 C
1865 01-03-2009 13:03:41 13.3 C 44 % 1.32 C
1866 01-03-2009 13:15:42 13.5 C 43 % 1.18 C
1867 01-03-2009 13:27:42 13.8 C 43 % 1.45 C
1868 01-03-2009 13:39:41 13.3 C 43 % 1 C
1869 01-03-2009 13:51:41 13.6 C 43 % 1.27 C
1870 01-03-2009 14:03:41 13.9 C 43 % 1.54 C
1871 01-03-2009 14:15:41 13.9 C 42 % 1.22 C
1872 01-03-2009 14:27:41 13.9 C 42 % 1.22 C
1873 01-03-2009 14:39:41 13.9 C 42 % 1.22 C
1874 01-03-2009 14:51:41 14.2 C 41 % 1.15 C
1875 01-03-2009 15:03:41 14.5 C 41 % 1.42 C
Sensor: Nr:Datum:Temp:Feuchte:Taupunkt:
Aussen-T/F 1876 01-03-2009 15:15:40 14.4 C 41 % 1.33 C
1877 01-03-2009 15:27:40 15.1 C 39 % 1.26 C
1878 01-03-2009 15:39:40 15.2 C 39 % 1.35 C
1879 01-03-2009 15:51:40 14.8 C 40 % 1.35 C
1880 01-03-2009 16:03:40 14.5 C 40 % 1.08 C
1881 01-03-2009 16:15:39 14.1 C 40 % 0.72 C
1882 01-03-2009 16:27:39 13.7 C 41 % 0.7 C
1883 01-03-2009 16:39:40 13.5 C 42 % 0.86 C
1884 01-03-2009 16:51:39 13.3 C 43 % 1 C
1885 01-03-2009 17:03:39 13.2 C 44 % 1.23 C
1886 01-03-2009 17:15:40 13 C 44 % 1.05 C
1887 01-03-2009 17:27:40 12.8 C 46 % 1.48 C
1888 01-03-2009 17:39:39 12.5 C 46 % 1.21 C
1889 01-03-2009 17:51:39 12.4 C 48 % 1.71 C
1890 01-03-2009 18:03:38 11.8 C 53 % 2.54 C
1891 01-03-2009 18:15:39 11.4 C 55 % 2.69 C
1892 01-03-2009 18:27:39 11.2 C 56 % 2.76 C
1893 01-03-2009 18:39:38 11.1 C 55 % 2.41 C
1894 01-03-2009 18:51:38 10.9 C 57 % 2.73 C
1895 01-03-2009 19:03:38 10.9 C 58 % 2.97 C
1896 01-03-2009 19:15:38 11 C 56 % 2.57 C
1897 01-03-2009 19:27:38 11 C 56 % 2.57 C
1898 01-03-2009 19:39:38 11.2 C 55 % 2.51 C
1899 01-03-2009 19:51:38 11.5 C 52 % 2 C
1900 01-03-2009 20:03:38 11.9 C 50 % 1.82 C
Sensor: Nr:Datum:Temp:Feuchte:Taupunkt:
Aussen-T/F 1901 01-03-2009 20:15:37 12 C 48 % 1.34 C
1902 01-03-2009 20:27:37 12 C 48 % 1.34 C
1903 01-03-2009 20:39:37 11.8 C 49 % 1.45 C
1904 01-03-2009 20:51:37 11.8 C 49 % 1.45 C
1905 01-03-2009 21:03:37 11.7 C 49 % 1.36 C
1906 01-03-2009 21:15:37 11.8 C 49 % 1.45 C
1907 01-03-2009 21:27:37 11.6 C 50 % 1.54 C
1908 01-03-2009 21:39:37 11.4 C 51 % 1.64 C
1909 01-03-2009 21:51:36 11.4 C 51 % 1.64 C
1910 01-03-2009 22:03:36 11.1 C 55 % 2.41 C
1911 01-03-2009 22:15:37 10.5 C 62 % 3.54 C
1912 01-03-2009 22:27:37 10.1 C 67 % 4.26 C
1913 01-03-2009 22:40:37 9.8 C 70 % 4.6 C
1914 01-03-2009 22:52:37 9.7 C 70 % 4.5 C
1915 01-03-2009 23:04:37 9.5 C 72 % 4.71 C
1916 01-03-2009 23:16:37 9.5 C 73 % 4.91 C
1917 01-03-2009 23:28:37 9.6 C 71 % 4.61 C
1918 01-03-2009 23:40:37 9.8 C 68 % 4.18 C
1919 01-03-2009 23:52:37 9.8 C 68 % 4.18 C
1920 02-03-2009 00:04:37 9.8 C 67 % 3.97 C
1921 02-03-2009 00:16:38 9.8 C 68 % 4.18 C
1922 02-03-2009 00:28:38 9.5 C 71 % 4.51 C
1923 02-03-2009 00:40:38 9.2 C 73 % 4.62 C
1924 02-03-2009 00:52:38 9.1 C 74 % 4.72 C
1925 02-03-2009 01:04:38 9.1 C 74 % 4.72 C
Sensor: Nr:Datum:Temp:Feuchte:Taupunkt:
Aussen-T/F 1926 02-03-2009 01:16:38 9.1 C 74 % 4.72 C
1927 02-03-2009 01:28:38 9.1 C 74 % 4.72 C
1928 02-03-2009 01:40:38 9.1 C 73 % 4.52 C
1929 02-03-2009 01:52:38 9 C 75 % 4.81 C
1930 02-03-2009 02:04:38 8.9 C 76 % 4.91 C
1931 02-03-2009 02:16:38 8.8 C 77 % 5 C
1932 02-03-2009 02:28:38 8.7 C 78 % 5.08 C
1933 02-03-2009 02:40:38 8.6 C 78 % 4.99 C
1934 02-03-2009 02:52:38 8.6 C 79 % 5.17 C
1935 02-03-2009 03:04:38 8.7 C 80 % 5.45 C
1936 02-03-2009 03:16:38 8.5 C 82 % 5.61 C
1937 02-03-2009 03:28:38 8.5 C 82 % 5.61 C
1938 02-03-2009 03:40:38 8.5 C 83 % 5.78 C
1939 02-03-2009 03:52:38 8.4 C 83 % 5.69 C
1940 02-03-2009 04:04:39 8.4 C 84 % 5.86 C
1941 02-03-2009 04:16:39 8.4 C 85 % 6.03 C
1942 02-03-2009 04:28:39 8.3 C 86 % 6.1 C
1943 02-03-2009 04:40:39 8.3 C 86 % 6.1 C
1944 02-03-2009 04:52:39 8.3 C 87 % 6.27 C
1945 02-03-2009 05:04:39 8.2 C 87 % 6.17 C
1946 02-03-2009 05:16:39 8.2 C 87 % 6.17 C
1947 02-03-2009 05:28:39 8.2 C 87 % 6.17 C
1948 02-03-2009 05:40:39 8.1 C 87 % 6.07 C
1949 02-03-2009 05:52:39 8.1 C 86 % 5.9 C
1950 02-03-2009 06:04:39 8.2 C 86 % 6 C
Sensor: Nr:Datum:Temp:Feuchte:Taupunkt:
Aussen-T/F 1951 02-03-2009 06:16:39 8.2 C 85 % 5.83 C
1952 02-03-2009 06:28:39 8.2 C 85 % 5.83 C
1953 02-03-2009 06:40:39 8.1 C 85 % 5.73 C
1954 02-03-2009 06:52:39 8.2 C 85 % 5.83 C
1955 02-03-2009 07:04:37 8.2 C 86 % 6 C
1956 02-03-2009 07:16:37 8.4 C 85 % 6.03 C
1957 02-03-2009 07:28:37 8.4 C 84 % 5.86 C
1958 02-03-2009 07:40:37 8.4 C 83 % 5.69 C
1959 02-03-2009 07:52:38 8.3 C 82 % 5.41 C
1960 02-03-2009 08:04:37 8.3 C 83 % 5.59 C
1961 02-03-2009 08:16:36 8.3 C 83 % 5.59 C
1962 02-03-2009 08:28:37 8.2 C 84 % 5.66 C
1963 02-03-2009 08:40:36 8.2 C 84 % 5.66 C
1964 02-03-2009 08:52:36 8.1 C 84 % 5.56 C
1965 02-03-2009 09:04:36 8.1 C 85 % 5.73 C
1966 02-03-2009 09:16:35 8.1 C 85 % 5.73 C
1967 02-03-2009 09:28:35 8.1 C 85 % 5.73 C
1968 02-03-2009 09:40:36 8.1 C 86 % 5.9 C
1969 02-03-2009 09:52:35 8.1 C 86 % 5.9 C
1970 02-03-2009 10:04:35 8.1 C 87 % 6.07 C
1971 02-03-2009 10:16:36 8.2 C 87 % 6.17 C
1972 02-03-2009 10:28:36 8 C 87 % 5.97 C
1973 02-03-2009 10:40:35 8.1 C 85 % 5.73 C
1974 02-03-2009 10:52:35 8.2 C 84 % 5.66 C
1975 02-03-2009 11:04:35 8.2 C 83 % 5.49 C
Sensor: Nr:Datum:Temp:Feuchte:Taupunkt:
Aussen-T/F 1976 02-03-2009 11:16:35 8.1 C 82 % 5.22 C
1977 02-03-2009 11:28:35 8 C 81 % 4.94 C
1978 02-03-2009 11:40:34 8 C 81 % 4.94 C
1979 02-03-2009 11:52:35 8.2 C 82 % 5.32 C
1980 02-03-2009 12:04:34 8.6 C 81 % 5.53 C
1981 02-03-2009 12:16:34 8.8 C 77 % 5 C
1982 02-03-2009 12:28:34 8.9 C 72 % 4.14 C
1983 02-03-2009 12:40:34 8.7 C 70 % 3.54 C
1984 02-03-2009 12:52:34 9.5 C 67 % 3.69 C
1985 02-03-2009 13:04:34 9.2 C 61 % 2.08 C
1986 02-03-2009 13:16:33 9 C 59 % 1.43 C
1987 02-03-2009 13:28:33 9.3 C 59 % 1.71 C
1988 02-03-2009 13:40:34 9.8 C 58 % 1.94 C
1989 02-03-2009 13:52:33 10.6 C 52 % 1.17 C
1990 02-03-2009 14:04:33 10.1 C 48 % -0.4 C
1991 02-03-2009 14:16:33 10.2 C 48 % -0.31 C
1992 02-03-2009 14:28:33 10.7 C 47 % -0.14 C
1993 02-03-2009 14:40:33 10.4 C 46 % -0.7 C
1994 02-03-2009 14:52:32 10.4 C 47 % -0.41 C
1995 02-03-2009 15:04:33 10.3 C 45 % -1.1 C
1996 02-03-2009 15:16:33 10.3 C 45 % -1.1 C
1997 02-03-2009 15:28:33 10.2 C 45 % -1.19 C
1998 02-03-2009 15:40:32 10.8 C 45 % -0.64 C
1999 02-03-2009 15:52:32 10.7 C 45 % -0.73 C
2000 02-03-2009 16:04:32 10.5 C 44 % -1.22 C
Sensor: Nr:Datum:Temp:Feuchte:Taupunkt:
Aussen-T/F 2001 02-03-2009 16:16:32 10.3 C 45 % -1.1 C
2002 02-03-2009 16:28:33 10 C 46 % -1.07 C
2003 02-03-2009 16:40:31 10 C 46 % -1.07 C
2004 02-03-2009 16:52:32 9.8 C 47 % -0.96 C
2005 02-03-2009 17:04:31 9.7 C 50 % -0.21 C
2006 02-03-2009 17:16:31 9.5 C 50 % -0.39 C
2007 02-03-2009 17:28:31 9.2 C 50 % -0.67 C
2008 02-03-2009 17:40:32 8.9 C 52 % -0.41 C
2009 02-03-2009 17:52:31 8.5 C 53 % -0.52 C
2010 02-03-2009 18:04:31 8.3 C 54 % -0.45 C
2011 02-03-2009 18:16:31 8.1 C 56 % -0.13 C
2012 02-03-2009 18:28:31 7.8 C 57 % -0.17 C
2013 02-03-2009 18:40:30 7.8 C 57 % -0.17 C
2014 02-03-2009 18:52:31 7.5 C 58 % -0.21 C
2015 02-03-2009 19:04:30 7.6 C 57 % -0.36 C
2016 02-03-2009 19:16:30 7.5 C 56 % -0.7 C
2017 02-03-2009 19:28:30 7.3 C 57 % -0.64 C
2018 02-03-2009 19:40:30 7.1 C 58 % -0.59 C
2019 02-03-2009 19:52:30 6.8 C 59 % -0.64 C
2020 02-03-2009 20:04:29 6.4 C 60 % -0.78 C
2021 02-03-2009 20:16:30 6 C 61 % -0.94 C
2022 02-03-2009 20:28:30 5.8 C 63 % -0.69 C
2023 02-03-2009 20:40:30 5.4 C 63 % -1.06 C
2024 02-03-2009 20:52:29 5.1 C 65 % -0.92 C
2025 02-03-2009 21:04:29 4.8 C 67 % -0.8 C
Sensor: Nr:Datum:Temp:Feuchte:Taupunkt:
Aussen-T/F 2026 02-03-2009 21:16:29 4.6 C 68 % -0.78 C
2027 02-03-2009 21:28:29 4.4 C 69 % -0.78 C
2028 02-03-2009 21:40:29 4.1 C 70 % -0.87 C
2029 02-03-2009 21:52:29 3.9 C 72 % -0.68 C
2030 02-03-2009 22:04:29 3.7 C 73 % -0.68 C
2031 02-03-2009 22:16:28 3.7 C 73 % -0.68 C
2032 02-03-2009 22:28:28 3.5 C 74 % -0.69 C
2033 02-03-2009 22:40:29 3.4 C 74 % -0.78 C
2034 02-03-2009 22:53:29 3 C 76 % -0.81 C
2035 02-03-2009 23:05:29 2.8 C 78 % -0.65 C
2036 02-03-2009 23:17:29 2.7 C 78 % -0.74 C
2037 02-03-2009 23:29:29 2.9 C 80 % -0.2 C
2038 02-03-2009 23:41:29 3.1 C 79 % -0.18 C
2039 02-03-2009 23:53:29 2.8 C 79 % -0.47 C
2040 03-03-2009 00:05:29 2.6 C 79 % -0.67 C
2041 03-03-2009 00:17:30 2.9 C 79 % -0.37 C
2042 03-03-2009 00:29:30 3.1 C 77 % -0.53 C
2043 03-03-2009 00:41:30 3 C 76 % -0.81 C
2044 03-03-2009 00:53:30 2.9 C 77 % -0.72 C
2045 03-03-2009 01:05:30 3 C 76 % -0.81 C
2046 03-03-2009 01:17:30 3 C 75 % -0.99 C
2047 03-03-2009 01:29:30 3.1 C 74 % -1.07 C
2048 03-03-2009 01:41:30 3 C 74 % -1.17 C
2049 03-03-2009 01:53:30 2.8 C 75 % -1.18 C
2050 03-03-2009 02:05:30 2.6 C 75 % -1.37 C
Sensor: Nr:Datum:Temp:Feuchte:Taupunkt:
Aussen-T/F 2051 03-03-2009 02:17:30 2.4 C 75 % -1.57 C
2052 03-03-2009 02:29:30 2.3 C 76 % -1.48 C
2053 03-03-2009 02:41:30 2.2 C 76 % -1.58 C
2054 03-03-2009 02:53:30 2.1 C 78 % -1.33 C
2055 03-03-2009 03:05:30 1.9 C 80 % -1.18 C
2056 03-03-2009 03:17:30 1.6 C 79 % -1.64 C
2057 03-03-2009 03:29:30 1.5 C 80 % -1.57 C
2058 03-03-2009 03:41:30 1.5 C 81 % -1.4 C
2059 03-03-2009 03:53:30 1.2 C 82 % -1.52 C
2060 03-03-2009 04:05:31 1.2 C 82 % -1.52 C
2061 03-03-2009 04:17:31 1.5 C 83 % -1.06 C
2062 03-03-2009 04:29:31 1.4 C 83 % -1.16 C
2063 03-03-2009 04:41:31 1.3 C 83 % -1.26 C
2064 03-03-2009 04:53:31 1 C 82 % -1.72 C
2065 03-03-2009 05:05:31 0.7 C 83 % -1.85 C
2066 03-03-2009 05:17:31 0.5 C 83 % -2.04 C
2067 03-03-2009 05:29:31 0.3 C 83 % -2.24 C
2068 03-03-2009 05:41:31 0.3 C 83 % -2.24 C
2069 03-03-2009 05:53:31 0.1 C 84 % -2.27 C
2070 03-03-2009 06:05:31 0 C 84 % -2.37 C
2071 03-03-2009 06:17:31 -0.1 C 84 % -2.47 C
2072 03-03-2009 06:29:31 0 C 84 % -2.37 C
2073 03-03-2009 06:41:31 -0.1 C 84 % -2.47 C
2074 03-03-2009 06:53:31 -0.2 C 84 % -2.57 C
2075 03-03-2009 07:05:29 -0.3 C 84 % -2.67 C
Sensor: Nr:Datum:Temp:Feuchte:Taupunkt:
Aussen-T/F 2076 03-03-2009 07:17:28 -0.4 C 84 % -2.77 C
2077 03-03-2009 07:29:28 -0.4 C 84 % -2.77 C
2078 03-03-2009 07:41:29 -0.4 C 85 % -2.61 C
2079 03-03-2009 07:53:28 -0.4 C 85 % -2.61 C
2080 03-03-2009 08:05:28 -0.3 C 85 % -2.51 C
2081 03-03-2009 08:17:28 -0.2 C 86 % -2.25 C
2082 03-03-2009 08:29:28 -0.1 C 86 % -2.16 C
2083 03-03-2009 08:41:28 0.1 C 87 % -1.8 C
2084 03-03-2009 08:53:27 0.4 C 87 % -1.5 C
2085 03-03-2009 09:05:28 0.9 C 87 % -1.01 C
2086 03-03-2009 09:17:27 1.2 C 85 % -1.03 C
2087 03-03-2009 09:29:27 1.2 C 84 % -1.2 C
2088 03-03-2009 09:41:28 1.3 C 83 % -1.26 C
2089 03-03-2009 09:53:27 1.7 C 83 % -0.87 C
2090 03-03-2009 10:05:27 2.1 C 82 % -0.64 C
2091 03-03-2009 10:17:27 2.6 C 81 % -0.32 C
2092 03-03-2009 10:29:27 3.1 C 80 % -0.01 C
2093 03-03-2009 10:41:27 3.7 C 77 % 0.05 C
2094 03-03-2009 10:53:27 4.3 C 74 % 0.09 C
2095 03-03-2009 11:05:26 5 C 68 % -0.4 C
2096 03-03-2009 11:17:27 5.3 C 68 % -0.12 C
2097 03-03-2009 11:29:27 6.4 C 59 % -1.01 C
2098 03-03-2009 11:41:26 6.7 C 58 % -0.97 C
2099 03-03-2009 11:53:26 7.2 C 55 % -1.22 C
2100 03-03-2009 12:05:26 7.6 C 53 % -1.35 C
Sensor: Nr:Datum:Temp:Feuchte:Taupunkt:
Aussen-T/F 2101 03-03-2009 12:17:27 8 C 50 % -1.77 C
2102 03-03-2009 12:29:27 8.2 C 46 % -2.71 C
2103 03-03-2009 12:41:26 8.7 C 45 % -2.55 C
2104 03-03-2009 12:53:26 9 C 41 % -3.53 C
2105 03-03-2009 13:05:26 9.3 C 39 % -3.92 C
2106 03-03-2009 13:17:25 9.6 C 35 % -5.09 C
2107 03-03-2009 13:29:25 9.8 C 33 % -5.68 C
2108 03-03-2009 13:41:25 10.5 C 31 % -5.89 C
2109 03-03-2009 13:53:25 10.8 C 30 % -6.06 C
2110 03-03-2009 14:05:25 11.1 C 28 % -6.69 C
2111 03-03-2009 14:17:24 11 C 27 % -7.25 C
2112 03-03-2009 14:29:24 10.7 C 26 % -7.99 C
2113 03-03-2009 14:41:25 11 C 25 % -8.24 C
2114 03-03-2009 14:53:24 11.8 C 24 % -8.08 C
2115 03-03-2009 15:05:24 11.3 C 22 % -9.61 C
2116 03-03-2009 15:17:24 11 C 26 % -7.74 C
2117 03-03-2009 15:29:24 11.5 C 27 % -6.82 C
2118 03-03-2009 15:41:24 11.6 C 25 % -7.73 C
2119 03-03-2009 15:53:24 11.2 C 23 % -9.13 C
2120 03-03-2009 16:05:23 10.6 C 25 % -8.58 C
2121 03-03-2009 16:17:24 10.4 C 26 % -8.25 C
2122 03-03-2009 16:29:24 10.5 C 26 % -8.16 C
2123 03-03-2009 16:41:23 10.6 C 26 % -8.08 C
2124 03-03-2009 16:53:23 10.1 C 25 % -9.01 C
2125 03-03-2009 17:05:24 9.9 C 28 % -7.73 C
Sensor: Nr:Datum:Temp:Feuchte:Taupunkt:
Aussen-T/F 2126 03-03-2009 17:17:23 10.2 C 28 % -7.47 C
2127 03-03-2009 17:29:23 10.5 C 27 % -7.68 C
2128 03-03-2009 17:41:23 10.2 C 26 % -8.42 C
2129 03-03-2009 17:53:23 9.7 C 28 % -7.9 C
2130 03-03-2009 18:05:23 9.1 C 31 % -7.11 C
2131 03-03-2009 18:17:22 8.2 C 35 % -6.33 C
2132 03-03-2009 18:29:22 7.5 C 38 % -5.88 C
2133 03-03-2009 18:41:23 6.9 C 41 % -5.42 C
2134 03-03-2009 18:53:22 6.6 C 43 % -5.07 C
2135 03-03-2009 19:05:22 6.4 C 43 % -5.25 C
2136 03-03-2009 19:17:22 6.5 C 45 % -4.56 C
2137 03-03-2009 19:29:22 6.8 C 42 % -5.19 C
2138 03-03-2009 19:41:22 6.7 C 43 % -4.97 C
2139 03-03-2009 19:53:22 6.5 C 44 % -4.85 C
2140 03-03-2009 20:05:21 6.4 C 44 % -4.94 C
2141 03-03-2009 20:17:22 6.4 C 43 % -5.25 C
2142 03-03-2009 20:29:22 6.3 C 42 % -5.65 C
2143 03-03-2009 20:41:21 6.1 C 43 % -5.52 C
2144 03-03-2009 20:53:21 6.2 C 42 % -5.74 C
2145 03-03-2009 21:05:21 6.4 C 41 % -5.87 C
2146 03-03-2009 21:17:21 6 C 40 % -6.55 C
2147 03-03-2009 21:29:21 5.9 C 41 % -6.32 C
2148 03-03-2009 21:41:20 5.8 C 41 % -6.41 C
2149 03-03-2009 21:53:21 5.8 C 40 % -6.73 C
2150 03-03-2009 22:05:20 5.7 C 44 % -5.58 C
Sensor: Nr:Datum:Temp:Feuchte:Taupunkt:
Aussen-T/F 2151 03-03-2009 22:17:20 5.8 C 42 % -6.1 C
2152 03-03-2009 22:29:20 6 C 41 % -6.23 C
2153 03-03-2009 22:41:20 5.9 C 42 % -6.01 C
2154 03-03-2009 22:54:21 6 C 41 % -6.23 C
2155 03-03-2009 23:06:22 6.2 C 40 % -6.37 C
2156 03-03-2009 23:18:22 6.4 C 41 % -5.87 C
2157 03-03-2009 23:30:22 6.2 C 42 % -5.74 C
2158 03-03-2009 23:42:22 6.4 C 42 % -5.56 C
2159 03-03-2009 23:54:22 5.9 C 45 % -5.1 C
2160 04-03-2009 00:06:22 5.5 C 46 % -5.18 C
2161 04-03-2009 00:18:22 5 C 48 % -5.08 C
2162 04-03-2009 00:30:22 4.5 C 53 % -4.23 C
2163 04-03-2009 00:42:22 4.4 C 54 % -4.08 C
2164 04-03-2009 00:54:22 4.2 C 56 % -3.78 C
2165 04-03-2009 01:06:22 4.3 C 56 % -3.69 C
2166 04-03-2009 01:18:22 4.1 C 58 % -3.41 C
2167 04-03-2009 01:30:22 3.9 C 60 % -3.14 C
2168 04-03-2009 01:42:22 3.7 C 61 % -3.11 C
2169 04-03-2009 01:54:22 3.6 C 61 % -3.2 C
2170 04-03-2009 02:06:22 3.4 C 62 % -3.17 C
2171 04-03-2009 02:18:22 3.3 C 64 % -2.84 C
2172 04-03-2009 02:30:22 3.2 C 64 % -2.94 C
2173 04-03-2009 02:42:22 3.2 C 65 % -2.73 C
2174 04-03-2009 02:54:22 3.1 C 66 % -2.62 C
2175 04-03-2009 03:06:23 2.9 C 66 % -2.81 C
Sensor: Nr:Datum:Temp:Feuchte:Taupunkt:
Aussen-T/F 2176 04-03-2009 03:18:23 2.7 C 67 % -2.8 C
2177 04-03-2009 03:30:23 2.7 C 68 % -2.6 C
2178 04-03-2009 03:42:23 2.8 C 69 % -2.31 C
2179 04-03-2009 03:54:23 2.8 C 69 % -2.31 C
2180 04-03-2009 04:06:23 2.8 C 70 % -2.11 C
2181 04-03-2009 04:18:23 2.6 C 70 % -2.31 C
2182 04-03-2009 04:30:23 2.5 C 70 % -2.4 C
2183 04-03-2009 04:42:23 2.5 C 71 % -2.21 C
2184 04-03-2009 04:54:23 2.4 C 71 % -2.31 C
2185 04-03-2009 05:06:23 2.5 C 72 % -2.02 C
2186 04-03-2009 05:18:23 2.7 C 71 % -2.02 C
2187 04-03-2009 05:30:23 3 C 69 % -2.12 C
2188 04-03-2009 05:42:23 3.1 C 68 % -2.22 C
2189 04-03-2009 05:54:23 3.2 C 67 % -2.32 C
2190 04-03-2009 06:06:23 3.4 C 66 % -2.33 C
2191 04-03-2009 06:18:23 3.5 C 66 % -2.24 C
2192 04-03-2009 06:30:23 3.5 C 65 % -2.44 C
2193 04-03-2009 06:42:23 3.4 C 66 % -2.33 C
2194 04-03-2009 06:54:23 3.5 C 65 % -2.44 C
2195 04-03-2009 07:06:20 3.6 C 65 % -2.35 C
2196 04-03-2009 07:18:21 3.7 C 65 % -2.25 C
2197 04-03-2009 07:30:21 3.8 C 64 % -2.37 C
2198 04-03-2009 07:42:21 3.7 C 65 % -2.25 C
2199 04-03-2009 07:54:20 3.8 C 65 % -2.16 C
2200 04-03-2009 08:06:21 3.9 C 64 % -2.27 C
Sensor: Nr:Datum:Temp:Feuchte:Taupunkt:
Aussen-T/F 2201 04-03-2009 08:18:20 4 C 64 % -2.18 C
2202 04-03-2009 08:30:20 4.1 C 63 % -2.3 C
2203 04-03-2009 08:42:20 4.2 C 63 % -2.2 C
2204 04-03-2009 08:54:19 4.2 C 63 % -2.2 C
2205 04-03-2009 09:06:20 4.2 C 63 % -2.2 C
2206 04-03-2009 09:18:19 4 C 62 % -2.61 C
2207 04-03-2009 09:30:20 4.1 C 62 % -2.51 C
2208 04-03-2009 09:42:21 4.3 C 61 % -2.54 C
2209 04-03-2009 09:54:19 4.9 C 59 % -2.42 C
2210 04-03-2009 10:06:19 5.4 C 56 % -2.66 C
2211 04-03-2009 10:18:18 5.9 C 54 % -2.68 C
2212 04-03-2009 10:30:19 6.1 C 53 % -2.74 C
2213 04-03-2009 10:42:19 6.8 C 50 % -2.88 C
2214 04-03-2009 10:54:18 7.5 C 47 % -3.06 C
2215 04-03-2009 11:06:18 8 C 44 % -3.49 C
2216 04-03-2009 11:18:19 8.3 C 43 % -3.52 C
2217 04-03-2009 11:30:18 8.6 C 42 % -3.57 C
2218 04-03-2009 11:42:18 8.8 C 42 % -3.39 C
2219 04-03-2009 11:54:18 9.1 C 42 % -3.12 C
2220 04-03-2009 12:06:18 9.4 C 41 % -3.17 C
2221 04-03-2009 12:18:18 9.9 C 40 % -3.05 C
2222 04-03-2009 12:30:18 10.3 C 37 % -3.73 C
2223 04-03-2009 12:42:18 10.7 C 37 % -3.38 C
2224 04-03-2009 12:54:18 11.1 C 36 % -3.39 C
2225 04-03-2009 13:06:18 11.8 C 32 % -4.34 C
Sensor: Nr:Datum:Temp:Feuchte:Taupunkt:
Aussen-T/F 2226 04-03-2009 13:18:17 12.2 C 28 % -5.75 C
2227 04-03-2009 13:30:17 12.2 C 30 % -4.84 C
2228 04-03-2009 13:42:17 11.5 C 33 % -4.19 C
2229 04-03-2009 13:54:17 11.7 C 33 % -4.01 C
2230 04-03-2009 14:06:17 12 C 32 % -4.16 C
2231 04-03-2009 14:18:16 12.4 C 31 % -4.23 C
2232 04-03-2009 14:30:17 12.3 C 30 % -4.75 C
2233 04-03-2009 14:42:17 12.7 C 30 % -4.41 C
2234 04-03-2009 14:54:16 12.9 C 30 % -4.23 C
2235 04-03-2009 15:06:16 13 C 28 % -5.06 C
2236 04-03-2009 15:18:17 13.3 C 28 % -4.8 C
2237 04-03-2009 15:30:16 12.9 C 28 % -5.14 C
2238 04-03-2009 15:42:16 12.3 C 30 % -4.75 C
2239 04-03-2009 15:54:16 11.9 C 32 % -4.25 C
2240 04-03-2009 16:06:16 11.9 C 32 % -4.25 C
2241 04-03-2009 16:18:16 12.7 C 29 % -4.85 C
2242 04-03-2009 16:30:15 12.3 C 31 % -4.32 C
2243 04-03-2009 16:42:15 12.2 C 30 % -4.84 C
2244 04-03-2009 16:54:15 11.9 C 32 % -4.25 C
2245 04-03-2009 17:06:15 11.7 C 31 % -4.84 C
2246 04-03-2009 17:18:15 11.6 C 31 % -4.93 C
2247 04-03-2009 17:30:15 11.4 C 31 % -5.1 C
2248 04-03-2009 17:42:15 11.3 C 31 % -5.19 C
2249 04-03-2009 17:54:15 11.1 C 31 % -5.37 C
2250 04-03-2009 18:06:15 11 C 32 % -5.04 C
Sensor: Nr:Datum:Temp:Feuchte:Taupunkt:
Aussen-T/F 2251 04-03-2009 18:18:14 10.8 C 33 % -4.81 C
2252 04-03-2009 18:30:14 10.3 C 35 % -4.47 C
2253 04-03-2009 18:42:15 9.7 C 39 % -3.57 C
2254 04-03-2009 18:54:14 9 C 42 % -3.21 C
2255 04-03-2009 19:06:14 8.9 C 43 % -2.98 C
2256 04-03-2009 19:18:13 8.7 C 45 % -2.55 C
2257 04-03-2009 19:30:14 8.8 C 43 % -3.07 C
2258 04-03-2009 19:42:14 8.6 C 45 % -2.64 C
2259 04-03-2009 19:54:13 8.9 C 44 % -2.67 C
2260 04-03-2009 20:06:13 8.9 C 45 % -2.37 C
2261 04-03-2009 20:18:14 9 C 45 % -2.28 C
2262 04-03-2009 20:30:13 9 C 46 % -1.98 C
2263 04-03-2009 20:42:13 8.9 C 48 % -1.5 C
2264 04-03-2009 20:54:13 8.8 C 49 % -1.31 C
2265 04-03-2009 21:06:13 8.6 C 51 % -0.95 C
2266 04-03-2009 21:18:13 8.5 C 52 % -0.78 C
2267 04-03-2009 21:30:13 8.4 C 52 % -0.87 C
2268 04-03-2009 21:42:13 8.4 C 51 % -1.13 C
2269 04-03-2009 21:54:13 8.5 C 51 % -1.04 C
2270 04-03-2009 22:06:12 8.5 C 50 % -1.31 C
2271 04-03-2009 22:19:15 8.6 C 50 % -1.22 C
2272 04-03-2009 22:31:15 8.4 C 51 % -1.13 C
2273 04-03-2009 22:43:15 8.7 C 48 % -1.68 C
2274 04-03-2009 22:55:15 8.7 C 50 % -1.13 C
2275 04-03-2009 23:07:15 8.6 C 50 % -1.22 C
Sensor: Nr:Datum:Temp:Feuchte:Taupunkt:
Aussen-T/F 2276 04-03-2009 23:19:15 8.4 C 51 % -1.13 C
2277 04-03-2009 23:31:15 8.3 C 52 % -0.96 C
2278 04-03-2009 23:43:15 8.1 C 53 % -0.89 C
2279 04-03-2009 23:55:15 8 C 55 % -0.47 C
2280 05-03-2009 00:07:15 7.9 C 56 % -0.32 C
2281 05-03-2009 00:19:15 7.9 C 57 % -0.08 C
2282 05-03-2009 00:31:15 7.8 C 60 % 0.53 C
2283 05-03-2009 00:43:15 7.6 C 62 % 0.8 C
2284 05-03-2009 00:55:15 7.5 C 64 % 1.14 C
2285 05-03-2009 01:07:15 7.6 C 63 % 1.02 C
2286 05-03-2009 01:19:15 7.6 C 62 % 0.8 C
2287 05-03-2009 01:31:16 7.6 C 61 % 0.57 C
2288 05-03-2009 01:43:16 7.6 C 61 % 0.57 C
2289 05-03-2009 01:55:16 7.6 C 61 % 0.57 C
2290 05-03-2009 02:07:16 7.6 C 61 % 0.57 C
2291 05-03-2009 02:19:16 7.6 C 61 % 0.57 C
2292 05-03-2009 02:31:16 7.6 C 61 % 0.57 C
2293 05-03-2009 02:43:16 7.6 C 61 % 0.57 C
2294 05-03-2009 02:55:16 7.5 C 62 % 0.7 C
2295 05-03-2009 03:07:16 7.5 C 61 % 0.48 C
2296 05-03-2009 03:19:16 7.6 C 61 % 0.57 C
2297 05-03-2009 03:31:16 7.6 C 61 % 0.57 C
2298 05-03-2009 03:43:16 7.5 C 61 % 0.48 C
2299 05-03-2009 03:55:16 7.4 C 62 % 0.61 C
2300 05-03-2009 04:07:16 7.3 C 63 % 0.74 C
Sensor: Nr:Datum:Temp:Feuchte:Taupunkt:
Aussen-T/F 2301 05-03-2009 04:19:16 7.1 C 65 % 0.98 C
2302 05-03-2009 04:31:16 7.1 C 66 % 1.19 C
2303 05-03-2009 04:43:16 7 C 66 % 1.09 C
2304 05-03-2009 04:55:16 6.7 C 69 % 1.43 C
2305 05-03-2009 05:07:16 6.4 C 71 % 1.54 C
2306 05-03-2009 05:19:16 6.1 C 73 % 1.63 C
2307 05-03-2009 05:31:17 6 C 74 % 1.73 C
2308 05-03-2009 05:43:17 5.7 C 77 % 1.99 C
2309 05-03-2009 05:55:17 5.5 C 80 % 2.33 C
2310 05-03-2009 06:07:17 5.4 C 81 % 2.41 C
2311 05-03-2009 06:19:17 5.2 C 81 % 2.21 C
2312 05-03-2009 06:31:17 5.1 C 81 % 2.12 C
2313 05-03-2009 06:43:17 5 C 82 % 2.19 C
2314 05-03-2009 06:55:17 4.9 C 84 % 2.43 C
2315 05-03-2009 07:07:14 4.9 C 85 % 2.6 C
2316 05-03-2009 07:19:14 4.8 C 85 % 2.5 C
2317 05-03-2009 07:31:14 4.7 C 86 % 2.56 C
2318 05-03-2009 07:43:14 4.7 C 86 % 2.56 C
2319 05-03-2009 07:55:14 4.6 C 86 % 2.47 C
2320 05-03-2009 08:07:13 4.6 C 86 % 2.47 C
2321 05-03-2009 08:19:14 4.4 C 86 % 2.27 C
2322 05-03-2009 08:31:14 4.2 C 85 % 1.91 C
2323 05-03-2009 08:43:14 3.9 C 85 % 1.61 C
2324 05-03-2009 08:55:13 3.6 C 85 % 1.32 C
2325 05-03-2009 09:07:14 3.4 C 85 % 1.12 C
Sensor: Nr:Datum:Temp:Feuchte:Taupunkt:
Aussen-T/F 2326 05-03-2009 09:19:13 3.4 C 85 % 1.12 C
2327 05-03-2009 09:31:13 3.5 C 86 % 1.38 C
2328 05-03-2009 09:43:13 3.2 C 86 % 1.09 C
2329 05-03-2009 09:55:13 3.2 C 86 % 1.09 C
2330 05-03-2009 10:07:13 3.1 C 86 % 0.99 C
2331 05-03-2009 10:19:12 3 C 86 % 0.89 C
2332 05-03-2009 10:31:12 3.1 C 86 % 0.99 C
2333 05-03-2009 10:43:12 3.1 C 87 % 1.15 C
2334 05-03-2009 10:55:12 2.7 C 87 % 0.76 C
2335 05-03-2009 11:07:12 2.7 C 87 % 0.76 C
2336 05-03-2009 11:19:12 2.6 C 87 % 0.66 C
2337 05-03-2009 11:31:12 2.6 C 87 % 0.66 C
2338 05-03-2009 11:43:12 2.5 C 87 % 0.56 C
2339 05-03-2009 11:55:12 2.6 C 87 % 0.66 C
2340 05-03-2009 12:07:11 2.6 C 88 % 0.82 C
2341 05-03-2009 12:19:12 2.8 C 88 % 1.02 C
2342 05-03-2009 12:31:11 2.6 C 88 % 0.82 C
2343 05-03-2009 12:43:11 2.8 C 88 % 1.02 C
2344 05-03-2009 12:55:11 3.1 C 88 % 1.31 C
2345 05-03-2009 13:07:11 2.9 C 88 % 1.11 C
2346 05-03-2009 13:19:11 2.9 C 88 % 1.11 C
2347 05-03-2009 13:31:11 2.9 C 88 % 1.11 C
2348 05-03-2009 13:43:11 3 C 87 % 1.05 C
2349 05-03-2009 13:55:10 3 C 87 % 1.05 C
2350 05-03-2009 14:07:11 3 C 87 % 1.05 C
Sensor: Nr:Datum:Temp:Feuchte:Taupunkt:
Aussen-T/F 2351 05-03-2009 14:19:10 2.9 C 88 % 1.11 C
2352 05-03-2009 14:31:10 3 C 88 % 1.21 C
2353 05-03-2009 14:43:10 3 C 88 % 1.21 C
2354 05-03-2009 14:55:10 3.1 C 88 % 1.31 C
2355 05-03-2009 15:07:10 3 C 88 % 1.21 C
2356 05-03-2009 15:19:10 3.1 C 88 % 1.31 C
2357 05-03-2009 15:31:09 3 C 88 % 1.21 C
2358 05-03-2009 15:43:09 3.1 C 88 % 1.31 C
2359 05-03-2009 15:55:09 3.2 C 89 % 1.57 C
2360 05-03-2009 16:07:09 3.3 C 89 % 1.67 C
2361 05-03-2009 16:19:10 3.2 C 89 % 1.57 C
2362 05-03-2009 16:31:09 3.3 C 89 % 1.67 C
2363 05-03-2009 16:43:09 3.4 C 89 % 1.76 C
2364 05-03-2009 16:55:09 3.5 C 89 % 1.86 C
2365 05-03-2009 17:07:08 3.6 C 89 % 1.96 C
2366 05-03-2009 17:19:09 3.6 C 89 % 1.96 C
2367 05-03-2009 17:31:09 3.6 C 89 % 1.96 C
2368 05-03-2009 17:43:09 3.7 C 89 % 2.06 C
2369 05-03-2009 17:55:08 3.7 C 89 % 2.06 C
2370 05-03-2009 18:07:08 4 C 87 % 2.04 C
2371 05-03-2009 18:19:09 4 C 87 % 2.04 C
2372 05-03-2009 18:31:08 4 C 87 % 2.04 C
2373 05-03-2009 18:43:08 3.9 C 88 % 2.1 C
2374 05-03-2009 18:55:08 4 C 88 % 2.2 C
2375 05-03-2009 19:07:08 4 C 88 % 2.2 C
Sensor: Nr:Datum:Temp:Feuchte:Taupunkt:
Aussen-T/F 2376 05-03-2009 19:19:07 4 C 89 % 2.36 C
2377 05-03-2009 19:31:08 4 C 89 % 2.36 C
2378 05-03-2009 19:43:08 3.8 C 90 % 2.31 C
2379 05-03-2009 19:55:07 3.8 C 90 % 2.31 C
2380 05-03-2009 20:07:07 3.7 C 90 % 2.22 C
2381 05-03-2009 20:19:07 3.7 C 89 % 2.06 C
2382 05-03-2009 20:31:07 3.6 C 89 % 1.96 C
2383 05-03-2009 20:43:07 3.6 C 90 % 2.12 C
2384 05-03-2009 20:55:06 3.6 C 90 % 2.12 C
2385 05-03-2009 21:07:07 3.5 C 90 % 2.02 C
2386 05-03-2009 21:19:06 3.5 C 90 % 2.02 C
2387 05-03-2009 21:31:06 3.5 C 90 % 2.02 C
2388 05-03-2009 21:43:07 3.4 C 90 % 1.92 C
2389 05-03-2009 21:55:06 3.4 C 91 % 2.07 C
2390 05-03-2009 22:07:06 3.4 C 91 % 2.07 C
2391 05-03-2009 22:19:05 3.4 C 91 % 2.07 C
2392 05-03-2009 22:32:06 3.3 C 90 % 1.82 C
2393 05-03-2009 22:44:06 3.2 C 90 % 1.72 C
2394 05-03-2009 22:56:07 3.1 C 90 % 1.62 C
2395 05-03-2009 23:08:07 3 C 90 % 1.52 C
2396 05-03-2009 23:20:07 3 C 90 % 1.52 C
2397 05-03-2009 23:32:07 2.8 C 90 % 1.33 C
2398 05-03-2009 23:44:07 2.8 C 90 % 1.33 C
2399 05-03-2009 23:56:07 2.8 C 90 % 1.33 C
2400 06-03-2009 00:08:07 2.9 C 91 % 1.58 C
Sensor: Nr:Datum:Temp:Feuchte:Taupunkt:
Aussen-T/F 2401 06-03-2009 00:20:07 3 C 90 % 1.52 C
2402 06-03-2009 00:32:07 3 C 90 % 1.52 C
2403 06-03-2009 00:44:07 3 C 90 % 1.52 C
2404 06-03-2009 00:56:07 3 C 91 % 1.68 C
2405 06-03-2009 01:08:07 3.1 C 91 % 1.78 C
2406 06-03-2009 01:20:07 3.1 C 91 % 1.78 C
2407 06-03-2009 01:32:07 3.2 C 91 % 1.88 C
2408 06-03-2009 01:44:07 3.2 C 91 % 1.88 C
2409 06-03-2009 01:56:07 3.2 C 91 % 1.88 C
2410 06-03-2009 02:08:07 3.2 C 91 % 1.88 C
2411 06-03-2009 02:20:07 3.3 C 91 % 1.98 C
2412 06-03-2009 02:32:07 3.3 C 91 % 1.98 C
2413 06-03-2009 02:44:07 3.3 C 91 % 1.98 C
2414 06-03-2009 02:56:08 3.4 C 91 % 2.07 C
2415 06-03-2009 03:08:08 3.4 C 91 % 2.07 C
2416 06-03-2009 03:20:08 3.4 C 91 % 2.07 C
2417 06-03-2009 03:32:08 3.4 C 91 % 2.07 C
2418 06-03-2009 03:44:08 3.5 C 91 % 2.17 C
2419 06-03-2009 03:56:08 3.5 C 91 % 2.17 C
2420 06-03-2009 04:08:08 3.5 C 91 % 2.17 C
2421 06-03-2009 04:20:08 3.4 C 91 % 2.07 C
2422 06-03-2009 04:32:08 3.4 C 91 % 2.07 C
2423 06-03-2009 04:44:08 3.3 C 90 % 1.82 C
2424 06-03-2009 04:56:08 3.3 C 90 % 1.82 C
2425 06-03-2009 05:08:08 3.3 C 90 % 1.82 C
Sensor: Nr:Datum:Temp:Feuchte:Taupunkt:
Aussen-T/F 2426 06-03-2009 05:20:08 3.3 C 91 % 1.98 C
2427 06-03-2009 05:32:08 3.3 C 91 % 1.98 C
2428 06-03-2009 05:44:08 3.3 C 91 % 1.98 C
2429 06-03-2009 05:56:08 3.4 C 92 % 2.23 C
2430 06-03-2009 06:08:08 3.5 C 92 % 2.33 C
2431 06-03-2009 06:20:08 3.6 C 92 % 2.42 C
2432 06-03-2009 06:32:08 3.5 C 92 % 2.33 C
2433 06-03-2009 06:44:08 3.6 C 92 % 2.42 C
2434 06-03-2009 06:56:08 3.6 C 92 % 2.42 C
2435 06-03-2009 07:08:06 3.5 C 92 % 2.33 C
2436 06-03-2009 07:20:06 3.5 C 92 % 2.33 C
2437 06-03-2009 07:32:06 3.3 C 91 % 1.98 C
2438 06-03-2009 07:44:06 3.3 C 92 % 2.13 C
2439 06-03-2009 07:56:06 3.3 C 92 % 2.13 C
2440 06-03-2009 08:08:05 3.3 C 91 % 1.98 C
2441 06-03-2009 08:20:05 3.3 C 91 % 1.98 C
2442 06-03-2009 08:32:05 3.3 C 91 % 1.98 C
2443 06-03-2009 08:44:05 3.2 C 90 % 1.72 C
2444 06-03-2009 08:56:05 3.3 C 90 % 1.82 C
2445 06-03-2009 09:08:05 3.3 C 90 % 1.82 C
2446 06-03-2009 09:20:05 3.4 C 90 % 1.92 C
2447 06-03-2009 09:32:05 3.4 C 89 % 1.76 C
2448 06-03-2009 09:44:05 3.5 C 89 % 1.86 C
2449 06-03-2009 09:56:05 3.6 C 89 % 1.96 C
2450 06-03-2009 10:08:05 3.6 C 89 % 1.96 C
Sensor: Nr:Datum:Temp:Feuchte:Taupunkt:
Aussen-T/F 2451 06-03-2009 10:20:04 3.7 C 88 % 1.9 C
2452 06-03-2009 10:32:04 3.9 C 88 % 2.1 C
2453 06-03-2009 10:44:04 3.8 C 88 % 2 C
2454 06-03-2009 10:56:04 3.8 C 88 % 2 C
2455 06-03-2009 11:08:04 3.9 C 89 % 2.26 C
2456 06-03-2009 11:20:03 4 C 88 % 2.2 C
2457 06-03-2009 11:32:04 4.1 C 88 % 2.3 C
2458 06-03-2009 11:44:03 4.1 C 88 % 2.3 C
2459 06-03-2009 11:56:03 4.2 C 88 % 2.39 C
2460 06-03-2009 12:08:03 4.2 C 87 % 2.23 C
2461 06-03-2009 12:20:04 4.3 C 88 % 2.49 C
2462 06-03-2009 12:32:03 4.3 C 88 % 2.49 C
2463 06-03-2009 12:44:03 4.4 C 87 % 2.43 C
2464 06-03-2009 12:56:03 4.4 C 87 % 2.43 C
2465 06-03-2009 13:08:03 4.5 C 86 % 2.37 C
2466 06-03-2009 13:20:03 4.6 C 85 % 2.3 C
2467 06-03-2009 13:32:02 5 C 82 % 2.19 C
2468 06-03-2009 13:44:02 5 C 82 % 2.19 C
2469 06-03-2009 13:56:03 4.8 C 83 % 2.16 C
2470 06-03-2009 14:08:02 4.7 C 84 % 2.23 C
2471 06-03-2009 14:20:02 4.7 C 84 % 2.23 C
2472 06-03-2009 14:32:02 4.8 C 83 % 2.16 C
2473 06-03-2009 14:44:02 4.9 C 82 % 2.09 C
2474 06-03-2009 14:56:02 4.9 C 83 % 2.26 C
2475 06-03-2009 15:08:02 4.8 C 82 % 1.99 C
Sensor: Nr:Datum:Temp:Feuchte:Taupunkt:
Aussen-T/F 2476 06-03-2009 15:20:01 4.8 C 82 % 1.99 C
2477 06-03-2009 15:32:01 4.9 C 82 % 2.09 C
2478 06-03-2009 15:44:01 4.9 C 82 % 2.09 C
2479 06-03-2009 15:56:01 4.7 C 82 % 1.9 C
2480 06-03-2009 16:08:01 4.7 C 82 % 1.9 C
2481 06-03-2009 16:20:00 4.6 C 82 % 1.8 C
2482 06-03-2009 16:32:01 4.6 C 82 % 1.8 C
2483 06-03-2009 16:44:00 4.5 C 83 % 1.87 C
2484 06-03-2009 16:56:00 4.4 C 84 % 1.94 C
2485 06-03-2009 17:08:00 4.4 C 84 % 1.94 C
2486 06-03-2009 17:20:01 4.3 C 84 % 1.84 C
2487 06-03-2009 17:32:00 4.2 C 83 % 1.58 C
2488 06-03-2009 17:44:00 4.2 C 83 % 1.58 C
2489 06-03-2009 17:56:00 4.2 C 84 % 1.74 C
2490 06-03-2009 18:08:00 4.2 C 83 % 1.58 C
2491 06-03-2009 18:20:00 4.1 C 82 % 1.31 C
2492 06-03-2009 18:32:00 4 C 83 % 1.38 C
2493 06-03-2009 18:44:00 4 C 84 % 1.55 C
2494 06-03-2009 18:56:00 3.9 C 85 % 1.61 C
2495 06-03-2009 19:08:00 3.9 C 84 % 1.45 C
2496 06-03-2009 19:20:59 4 C 82 % 1.21 C
2497 06-03-2009 19:32:59 4 C 82 % 1.21 C
2498 06-03-2009 19:44:59 4 C 83 % 1.38 C
2499 06-03-2009 19:56:59 3.9 C 84 % 1.45 C
2500 06-03-2009 20:08:59 3.8 C 84 % 1.35 C
Sensor: Nr:Datum:Temp:Feuchte:Taupunkt:
Aussen-T/F 2501 06-03-2009 20:20:58 3.8 C 84 % 1.35 C
2502 06-03-2009 20:32:59 3.8 C 83 % 1.19 C
2503 06-03-2009 20:44:58 4 C 80 % 0.87 C
2504 06-03-2009 20:56:58 3.9 C 81 % 0.95 C
2505 06-03-2009 21:08:59 3.8 C 80 % 0.68 C
2506 06-03-2009 21:20:58 3.7 C 78 % 0.23 C
2507 06-03-2009 21:32:58 3.7 C 76 % -0.13 C
2508 06-03-2009 21:44:58 3.8 C 72 % -0.77 C
2509 06-03-2009 21:56:58 3.8 C 70 % -1.16 C
2510 06-03-2009 22:08:58 3.8 C 68 % -1.55 C
2511 06-03-2009 22:21:57 3.7 C 68 % -1.64 C
2512 06-03-2009 22:33:57 3.8 C 67 % -1.75 C
2513 06-03-2009 22:45:57 3.8 C 68 % -1.55 C
2514 06-03-2009 22:57:57 3.8 C 67 % -1.75 C
2515 06-03-2009 23:09:57 3.8 C 66 % -1.95 C
2516 06-03-2009 23:21:57 3.7 C 66 % -2.05 C
2517 06-03-2009 23:33:57 3.8 C 65 % -2.16 C
2518 06-03-2009 23:45:57 3.8 C 65 % -2.16 C
2519 06-03-2009 23:57:57 3.8 C 64 % -2.37 C
2520 07-03-2009 00:09:58 3.7 C 64 % -2.46 C
2521 07-03-2009 00:21:58 3.8 C 62 % -2.8 C
2522 07-03-2009 00:33:58 3.8 C 61 % -3.01 C
2523 07-03-2009 00:45:58 3.8 C 60 % -3.23 C
2524 07-03-2009 00:57:58 3.7 C 61 % -3.11 C
2525 07-03-2009 01:09:58 3.6 C 63 % -2.77 C
Sensor: Nr:Datum:Temp:Feuchte:Taupunkt:
Aussen-T/F 2526 07-03-2009 01:21:58 3.6 C 62 % -2.98 C
2527 07-03-2009 01:33:58 3.6 C 62 % -2.98 C
2528 07-03-2009 01:45:58 3.5 C 62 % -3.08 C
2529 07-03-2009 01:57:58 3.4 C 63 % -2.96 C
2530 07-03-2009 02:09:58 3.4 C 63 % -2.96 C
2531 07-03-2009 02:21:58 3.4 C 63 % -2.96 C
2532 07-03-2009 02:33:58 3.3 C 63 % -3.05 C
2533 07-03-2009 02:45:58 3.3 C 64 % -2.84 C
2534 07-03-2009 02:57:58 3.2 C 64 % -2.94 C
2535 07-03-2009 03:09:58 3.1 C 65 % -2.83 C
2536 07-03-2009 03:21:58 3.2 C 64 % -2.94 C
2537 07-03-2009 03:33:58 3.2 C 64 % -2.94 C
2538 07-03-2009 03:45:58 3.2 C 64 % -2.94 C
2539 07-03-2009 03:57:58 3.2 C 64 % -2.94 C
2540 07-03-2009 04:09:59 3.2 C 64 % -2.94 C
2541 07-03-2009 04:21:59 3.2 C 64 % -2.94 C
2542 07-03-2009 04:33:59 3.1 C 64 % -3.03 C
2543 07-03-2009 04:45:59 3.1 C 64 % -3.03 C
2544 07-03-2009 04:57:59 3.2 C 63 % -3.15 C
2545 07-03-2009 05:09:59 3.2 C 63 % -3.15 C
2546 07-03-2009 05:21:59 3.2 C 62 % -3.36 C
2547 07-03-2009 05:33:59 3.1 C 63 % -3.24 C
2548 07-03-2009 05:45:59 3 C 63 % -3.34 C
2549 07-03-2009 05:57:59 3 C 62 % -3.55 C
2550 07-03-2009 06:09:59 3 C 61 % -3.77 C
Sensor: Nr:Datum:Temp:Feuchte:Taupunkt:
Aussen-T/F 2551 07-03-2009 06:21:58 3 C 60 % -3.99 C
2552 07-03-2009 06:33:57 3 C 61 % -3.77 C
2553 07-03-2009 06:45:57 3 C 61 % -3.77 C
2554 07-03-2009 06:57:57 3 C 61 % -3.77 C
2555 07-03-2009 07:09:57 2.9 C 62 % -3.65 C
2556 07-03-2009 07:21:57 2.9 C 63 % -3.43 C
2557 07-03-2009 07:33:57 2.7 C 64 % -3.41 C
2558 07-03-2009 07:45:57 2.6 C 65 % -3.3 C
2559 07-03-2009 07:57:57 2.7 C 65 % -3.21 C
2560 07-03-2009 08:09:57 2.7 C 64 % -3.41 C
2561 07-03-2009 08:21:56 2.7 C 64 % -3.41 C
2562 07-03-2009 08:33:56 2.6 C 63 % -3.72 C
2563 07-03-2009 08:45:56 2.6 C 63 % -3.72 C
2564 07-03-2009 08:57:56 2.7 C 63 % -3.62 C
2565 07-03-2009 09:09:56 2.7 C 63 % -3.62 C
2566 07-03-2009 09:21:56 3 C 62 % -3.55 C
2567 07-03-2009 09:33:56 3.3 C 61 % -3.49 C
2568 07-03-2009 09:45:56 3.2 C 60 % -3.8 C
2569 07-03-2009 09:57:56 3.1 C 62 % -3.46 C
2570 07-03-2009 10:09:56 3.2 C 63 % -3.15 C
2571 07-03-2009 10:21:55 3.5 C 63 % -2.86 C
2572 07-03-2009 10:33:55 3.9 C 61 % -2.92 C
2573 07-03-2009 10:45:55 4.5 C 60 % -2.57 C
2574 07-03-2009 10:57:55 5 C 57 % -2.79 C
2575 07-03-2009 11:09:55 5.1 C 58 % -2.47 C
Sensor: Nr:Datum:Temp:Feuchte:Taupunkt:
Aussen-T/F 2576 07-03-2009 11:21:54 5.9 C 55 % -2.43 C
2577 07-03-2009 11:33:55 6.6 C 51 % -2.8 C
2578 07-03-2009 11:45:54 7.2 C 48 % -3.06 C
2579 07-03-2009 11:57:54 7.4 C 49 % -2.6 C
2580 07-03-2009 12:09:54 7.5 C 47 % -3.06 C
2581 07-03-2009 12:21:55 7.6 C 45 % -3.55 C
2582 07-03-2009 12:33:54 7.8 C 44 % -3.67 C
2583 07-03-2009 12:45:54 8.2 C 41 % -4.25 C
2584 07-03-2009 12:57:54 7.9 C 41 % -4.52 C
2585 07-03-2009 13:09:54 8.5 C 38 % -4.98 C
2586 07-03-2009 13:21:54 8.4 C 38 % -5.07 C
2587 07-03-2009 13:33:54 9 C 37 % -4.89 C
2588 07-03-2009 13:45:53 8.5 C 36 % -5.69 C
2589 07-03-2009 13:57:53 9.4 C 36 % -4.89 C
2590 07-03-2009 14:09:54 10 C 32 % -5.91 C
2591 07-03-2009 14:21:53 10.8 C 31 % -5.63 C
2592 07-03-2009 14:33:53 11.3 C 29 % -6.06 C
2593 07-03-2009 14:45:53 11.4 C 27 % -6.91 C
2594 07-03-2009 14:57:53 11.3 C 28 % -6.52 C
2595 07-03-2009 15:09:53 11.8 C 26 % -7.05 C
2596 07-03-2009 15:21:52 11.9 C 25 % -7.47 C
2597 07-03-2009 15:33:52 11 C 32 % -5.04 C
2598 07-03-2009 15:45:52 10.8 C 34 % -4.41 C
2599 07-03-2009 15:57:52 11 C 30 % -5.88 C
2600 07-03-2009 16:09:52 10.7 C 28 % -7.04 C
Sensor: Nr:Datum:Temp:Feuchte:Taupunkt:
Aussen-T/F 2601 07-03-2009 16:21:52 10.2 C 30 % -6.58 C
2602 07-03-2009 16:33:52 10.4 C 30 % -6.4 C
2603 07-03-2009 16:45:52 10.6 C 28 % -7.12 C
2604 07-03-2009 16:57:52 10.4 C 27 % -7.77 C
2605 07-03-2009 17:09:51 9.6 C 39 % -3.65 C
2606 07-03-2009 17:21:52 9.2 C 42 % -3.02 C
2607 07-03-2009 17:33:51 8.7 C 45 % -2.55 C
2608 07-03-2009 17:45:51 8.4 C 47 % -2.24 C
2609 07-03-2009 17:57:51 8 C 49 % -2.05 C
2610 07-03-2009 18:09:51 7.8 C 50 % -1.96 C
2611 07-03-2009 18:21:51 7.5 C 52 % -1.7 C
2612 07-03-2009 18:33:51 7.2 C 53 % -1.72 C
2613 07-03-2009 18:45:50 6.8 C 55 % -1.59 C
2614 07-03-2009 18:57:50 6.4 C 56 % -1.72 C
2615 07-03-2009 19:09:51 6.2 C 58 % -1.43 C
2616 07-03-2009 19:21:50 5.8 C 60 % -1.35 C
2617 07-03-2009 19:33:50 5.6 C 61 % -1.31 C
2618 07-03-2009 19:45:50 5.3 C 61 % -1.6 C
2619 07-03-2009 19:57:50 5.3 C 62 % -1.38 C
2620 07-03-2009 20:09:50 5.2 C 62 % -1.47 C
2621 07-03-2009 20:21:49 5.6 C 62 % -1.09 C
2622 07-03-2009 20:33:50 6 C 59 % -1.39 C
2623 07-03-2009 20:45:50 6 C 58 % -1.62 C
2624 07-03-2009 20:57:50 5.9 C 59 % -1.48 C
2625 07-03-2009 21:09:50 5.9 C 59 % -1.48 C
Sensor: Nr:Datum:Temp:Feuchte:Taupunkt:
Aussen-T/F 2626 07-03-2009 21:21:49 5.9 C 59 % -1.48 C
2627 07-03-2009 21:33:49 6 C 57 % -1.86 C
2628 07-03-2009 21:45:49 6.1 C 56 % -2 C
2629 07-03-2009 21:57:49 6.2 C 55 % -2.15 C
2630 07-03-2009 22:09:49 6.4 C 55 % -1.97 C
2631 07-03-2009 22:21:48 6.2 C 55 % -2.15 C
2632 07-03-2009 22:33:49 6.4 C 55 % -1.97 C
2633 07-03-2009 22:46:50 6.4 C 56 % -1.72 C
2634 07-03-2009 22:58:50 6.2 C 57 % -1.67 C
2635 07-03-2009 23:10:50 6.3 C 57 % -1.58 C
2636 07-03-2009 23:22:50 6.3 C 58 % -1.34 C
2637 07-03-2009 23:34:50 6.5 C 55 % -1.87 C
2638 07-03-2009 23:46:50 6.5 C 56 % -1.63 C
2639 07-03-2009 23:58:50 6.4 C 57 % -1.48 C
2640 08-03-2009 00:10:50 6.3 C 57 % -1.58 C
2641 08-03-2009 00:22:50 6.4 C 57 % -1.48 C
2642 08-03-2009 00:34:50 6.3 C 57 % -1.58 C
2643 08-03-2009 00:46:50 6.3 C 58 % -1.34 C
2644 08-03-2009 00:58:51 6.1 C 59 % -1.3 C
2645 08-03-2009 01:10:51 5.9 C 61 % -1.03 C
2646 08-03-2009 01:22:51 6.1 C 60 % -1.07 C
2647 08-03-2009 01:34:51 6.3 C 60 % -0.88 C
2648 08-03-2009 01:46:51 6.3 C 60 % -0.88 C
2649 08-03-2009 01:58:51 6.5 C 58 % -1.15 C
2650 08-03-2009 02:10:51 6.4 C 59 % -1.01 C
Sensor: Nr:Datum:Temp:Feuchte:Taupunkt:
Aussen-T/F 2651 08-03-2009 02:22:51 6.4 C 59 % -1.01 C
2652 08-03-2009 02:34:51 6.4 C 59 % -1.01 C
2653 08-03-2009 02:46:51 6.5 C 61 % -0.46 C
2654 08-03-2009 02:58:51 6.7 C 61 % -0.28 C
2655 08-03-2009 03:10:51 6.6 C 61 % -0.37 C
2656 08-03-2009 03:22:51 6.6 C 62 % -0.15 C
2657 08-03-2009 03:34:51 6.7 C 62 % -0.05 C
2658 08-03-2009 03:46:51 6.9 C 62 % 0.14 C
2659 08-03-2009 03:58:51 7 C 60 % -0.22 C
2660 08-03-2009 04:10:51 7.1 C 61 % 0.1 C
2661 08-03-2009 04:22:51 7.1 C 61 % 0.1 C
2662 08-03-2009 04:34:51 7.1 C 61 % 0.1 C
2663 08-03-2009 04:46:52 7.2 C 61 % 0.2 C
2664 08-03-2009 04:58:52 7.2 C 61 % 0.2 C
2665 08-03-2009 05:10:52 7.2 C 60 % -0.03 C
2666 08-03-2009 05:22:52 7.3 C 60 % 0.06 C
2667 08-03-2009 05:34:52 7.2 C 60 % -0.03 C
2668 08-03-2009 05:46:52 7.3 C 60 % 0.06 C
2669 08-03-2009 05:58:52 7.3 C 60 % 0.06 C
2670 08-03-2009 06:10:52 7.2 C 61 % 0.2 C
2671 08-03-2009 06:22:52 7.2 C 60 % -0.03 C
2672 08-03-2009 06:34:52 7.3 C 61 % 0.29 C
2673 08-03-2009 06:46:52 7.3 C 61 % 0.29 C
2674 08-03-2009 06:58:52 7.3 C 62 % 0.51 C
2675 08-03-2009 07:10:52 7.3 C 62 % 0.51 C
Sensor: Nr:Datum:Temp:Feuchte:Taupunkt:
Aussen-T/F 2676 08-03-2009 07:22:52 7.3 C 63 % 0.74 C
2677 08-03-2009 07:34:52 7.3 C 63 % 0.74 C
2678 08-03-2009 07:46:49 7.3 C 64 % 0.95 C
2679 08-03-2009 07:58:49 7.4 C 65 % 1.26 C
2680 08-03-2009 08:10:50 7.5 C 65 % 1.36 C
2681 08-03-2009 08:22:50 7.8 C 65 % 1.64 C
2682 08-03-2009 08:34:49 8 C 63 % 1.4 C
2683 08-03-2009 08:46:49 8.1 C 62 % 1.27 C
2684 08-03-2009 08:58:49 8 C 63 % 1.4 C
2685 08-03-2009 09:10:49 8 C 63 % 1.4 C
2686 08-03-2009 09:22:49 8.2 C 63 % 1.59 C
2687 08-03-2009 09:34:48 8.2 C 63 % 1.59 C
2688 08-03-2009 09:46:49 8.2 C 63 % 1.59 C
2689 08-03-2009 09:58:49 8.2 C 63 % 1.59 C
2690 08-03-2009 10:10:48 8.3 C 63 % 1.68 C
2691 08-03-2009 10:22:48 8.3 C 63 % 1.68 C
2692 08-03-2009 10:34:48 8.3 C 64 % 1.9 C
2693 08-03-2009 10:46:48 8.5 C 64 % 2.09 C
2694 08-03-2009 10:58:48 8.5 C 65 % 2.31 C
2695 08-03-2009 11:10:47 8.5 C 66 % 2.52 C
2696 08-03-2009 11:22:48 8.5 C 66 % 2.52 C
2697 08-03-2009 11:34:48 8.7 C 66 % 2.71 C
2698 08-03-2009 11:46:47 8.6 C 66 % 2.62 C
2699 08-03-2009 11:58:47 8.6 C 67 % 2.83 C
2700 08-03-2009 12:10:48 8.8 C 67 % 3.02 C
Sensor: Nr:Datum:Temp:Feuchte:Taupunkt:
Aussen-T/F 2701 08-03-2009 12:22:47 9.1 C 64 % 2.66 C
2702 08-03-2009 12:34:47 9.3 C 63 % 2.63 C
2703 08-03-2009 12:46:46 9.3 C 62 % 2.4 C
2704 08-03-2009 12:58:46 9.1 C 65 % 2.88 C
2705 08-03-2009 13:10:47 8.9 C 70 % 3.74 C
2706 08-03-2009 13:22:46 8.7 C 73 % 4.14 C
2707 08-03-2009 13:34:46 8.9 C 74 % 4.53 C
2708 08-03-2009 13:46:47 9.6 C 69 % 4.2 C
2709 08-03-2009 13:58:47 10.2 C 64 % 3.7 C
2710 08-03-2009 14:10:46 10.2 C 63 % 3.48 C
2711 08-03-2009 14:22:46 10.1 C 63 % 3.39 C
2712 08-03-2009 14:34:46 10.4 C 62 % 3.44 C
2713 08-03-2009 14:46:46 10.5 C 61 % 3.31 C
2714 08-03-2009 14:58:46 10.3 C 62 % 3.35 C
2715 08-03-2009 15:10:45 10.2 C 62 % 3.25 C
2716 08-03-2009 15:22:46 9.9 C 66 % 3.86 C
2717 08-03-2009 15:34:45 9.7 C 69 % 4.3 C
2718 08-03-2009 15:46:45 10.1 C 66 % 4.05 C
2719 08-03-2009 15:58:45 9.8 C 68 % 4.18 C
2720 08-03-2009 16:10:45 9.3 C 73 % 4.72 C
2721 08-03-2009 16:22:45 9 C 78 % 5.38 C
2722 08-03-2009 16:34:45 8.7 C 82 % 5.8 C
2723 08-03-2009 16:46:44 8.5 C 81 % 5.43 C
2724 08-03-2009 16:58:44 8.5 C 81 % 5.43 C
2725 08-03-2009 17:10:45 8.5 C 80 % 5.25 C
Sensor: Nr:Datum:Temp:Feuchte:Taupunkt:
Aussen-T/F 2726 08-03-2009 17:22:44 8.4 C 81 % 5.33 C
2727 08-03-2009 17:34:45 8.3 C 82 % 5.41 C
2728 08-03-2009 17:46:44 8.4 C 83 % 5.69 C
2729 08-03-2009 17:58:44 8.3 C 84 % 5.76 C
2730 08-03-2009 18:10:44 8.2 C 84 % 5.66 C
2731 08-03-2009 18:22:44 8.1 C 84 % 5.56 C
2732 08-03-2009 18:34:44 8.1 C 85 % 5.73 C
2733 08-03-2009 18:46:43 8.2 C 77 % 4.42 C
2734 08-03-2009 18:58:43 8.1 C 75 % 3.94 C
2735 08-03-2009 19:10:44 8.1 C 76 % 4.13 C
2736 08-03-2009 19:22:43 7.7 C 77 % 3.93 C
2737 08-03-2009 19:34:43 7.1 C 79 % 3.71 C
2738 08-03-2009 19:46:43 6.9 C 82 % 4.05 C
2739 08-03-2009 19:58:43 7 C 83 % 4.32 C
2740 08-03-2009 20:10:43 6.9 C 84 % 4.39 C
2741 08-03-2009 20:22:43 6.9 C 85 % 4.56 C
2742 08-03-2009 20:34:42 6.6 C 84 % 4.1 C
2743 08-03-2009 20:46:43 6.2 C 83 % 3.53 C
2744 08-03-2009 20:58:43 5.8 C 84 % 3.31 C
2745 08-03-2009 21:10:43 5.4 C 84 % 2.92 C
2746 08-03-2009 21:22:42 5.2 C 84 % 2.72 C
2747 08-03-2009 21:34:42 5.1 C 84 % 2.63 C
2748 08-03-2009 21:46:42 5.1 C 84 % 2.63 C
2749 08-03-2009 21:58:42 5 C 84 % 2.53 C
2750 08-03-2009 22:10:42 4.8 C 84 % 2.33 C
Sensor: Nr:Datum:Temp:Feuchte:Taupunkt:
Aussen-T/F 2751 08-03-2009 22:22:41 4.7 C 84 % 2.23 C
2752 08-03-2009 22:34:41 4.6 C 84 % 2.14 C
2753 08-03-2009 22:46:41 4.8 C 82 % 1.99 C
2754 08-03-2009 22:58:41 5.3 C 71 % 0.48 C
2755 08-03-2009 23:10:41 5.3 C 68 % -0.12 C
2756 08-03-2009 23:23:43 4.7 C 72 % 0.09 C
2757 08-03-2009 23:35:43 4.6 C 73 % 0.19 C
2758 08-03-2009 23:47:43 4.5 C 73 % 0.09 C
2759 08-03-2009 23:59:43 4.4 C 73 % 0 C
2760 09-03-2009 00:11:43 4.4 C 74 % 0.18 C
2761 09-03-2009 00:23:43 4.8 C 74 % 0.57 C
2762 09-03-2009 00:35:43 5.1 C 70 % 0.09 C
2763 09-03-2009 00:47:43 5 C 69 % -0.2 C
2764 09-03-2009 00:59:43 5 C 69 % -0.2 C
2765 09-03-2009 01:11:43 4.7 C 71 % -0.1 C
2766 09-03-2009 01:23:43 4.7 C 63 % -1.73 C
2767 09-03-2009 01:35:43 4.7 C 67 % -0.89 C
2768 09-03-2009 01:47:43 4.7 C 67 % -0.89 C
2769 09-03-2009 01:59:44 4.7 C 61 % -2.16 C
2770 09-03-2009 02:11:44 4.7 C 56 % -3.31 C
2771 09-03-2009 02:23:44 4.7 C 55 % -3.55 C
2772 09-03-2009 02:35:44 4.3 C 56 % -3.69 C
2773 09-03-2009 02:47:44 3.9 C 60 % -3.14 C
2774 09-03-2009 02:59:44 3.7 C 60 % -3.33 C
2775 09-03-2009 03:11:44 3.6 C 60 % -3.42 C
Sensor: Nr:Datum:Temp:Feuchte:Taupunkt:
Aussen-T/F 2776 09-03-2009 03:23:44 3.5 C 61 % -3.3 C
2777 09-03-2009 03:35:44 3.3 C 62 % -3.27 C
2778 09-03-2009 03:47:44 3.3 C 65 % -2.64 C
2779 09-03-2009 03:59:44 3.4 C 66 % -2.33 C
2780 09-03-2009 04:11:44 3.4 C 67 % -2.13 C
2781 09-03-2009 04:23:44 3.6 C 67 % -1.94 C
2782 09-03-2009 04:35:44 3.7 C 69 % -1.45 C
2783 09-03-2009 04:47:44 3.3 C 74 % -0.88 C
2784 09-03-2009 04:59:44 3.2 C 77 % -0.43 C
2785 09-03-2009 05:11:44 3.1 C 78 % -0.35 C
2786 09-03-2009 05:23:44 3.1 C 79 % -0.18 C
2787 09-03-2009 05:35:44 3 C 78 % -0.45 C
2788 09-03-2009 05:47:45 3.2 C 77 % -0.43 C
2789 09-03-2009 05:59:45 3.3 C 76 % -0.52 C
2790 09-03-2009 06:11:45 3.1 C 78 % -0.35 C
2791 09-03-2009 06:23:45 2.5 C 81 % -0.42 C
2792 09-03-2009 06:35:45 2.3 C 83 % -0.28 C
2793 09-03-2009 06:47:45 2.1 C 84 % -0.31 C
2794 09-03-2009 06:59:42 2.2 C 85 % -0.05 C
2795 09-03-2009 07:11:42 2.2 C 84 % -0.22 C
2796 09-03-2009 07:23:42 2.1 C 79 % -1.15 C
2797 09-03-2009 07:35:41 2.1 C 75 % -1.86 C
2798 09-03-2009 07:47:42 2 C 71 % -2.69 C
2799 09-03-2009 07:59:41 2.1 C 70 % -2.79 C
2800 09-03-2009 08:11:41 2.2 C 69 % -2.88 C
Sensor: Nr:Datum:Temp:Feuchte:Taupunkt:
Aussen-T/F 2801 09-03-2009 08:23:41 2.6 C 66 % -3.1 C
2802 09-03-2009 08:35:42 2.5 C 68 % -2.79 C
2803 09-03-2009 08:47:41 3 C 66 % -2.72 C
2804 09-03-2009 08:59:41 3.4 C 65 % -2.54 C
2805 09-03-2009 09:11:41 3.5 C 65 % -2.44 C
2806 09-03-2009 09:23:40 3.3 C 66 % -2.43 C
2807 09-03-2009 09:35:41 3.7 C 66 % -2.05 C
2808 09-03-2009 09:47:40 4.2 C 62 % -2.42 C
2809 09-03-2009 09:59:40 4.5 C 61 % -2.35 C
2810 09-03-2009 10:11:41 4.7 C 62 % -1.94 C
2811 09-03-2009 10:23:40 5.1 C 58 % -2.47 C
2812 09-03-2009 10:35:40 5.3 C 58 % -2.28 C
2813 09-03-2009 10:47:39 5.6 C 57 % -2.23 C
2814 09-03-2009 10:59:40 5.6 C 56 % -2.47 C
2815 09-03-2009 11:11:40 6 C 54 % -2.59 C
2816 09-03-2009 11:23:40 5.8 C 55 % -2.53 C
2817 09-03-2009 11:35:39 6.4 C 53 % -2.47 C
2818 09-03-2009 11:47:40 6.1 C 52 % -3 C
2819 09-03-2009 11:59:39 6.5 C 53 % -2.37 C
2820 09-03-2009 12:11:39 7.2 C 50 % -2.51 C
2821 09-03-2009 12:23:39 7 C 46 % -3.81 C
2822 09-03-2009 12:35:38 7 C 47 % -3.52 C
2823 09-03-2009 12:47:39 7.2 C 47 % -3.34 C
2824 09-03-2009 12:59:39 7.7 C 43 % -4.07 C
2825 09-03-2009 13:11:39 7.7 C 43 % -4.07 C
Sensor: Nr:Datum:Temp:Feuchte:Taupunkt:
Aussen-T/F 2826 09-03-2009 13:23:38 7.4 C 43 % -4.34 C
2827 09-03-2009 13:35:39 7.5 C 44 % -3.94 C
2828 09-03-2009 13:47:38 7.7 C 40 % -5.02 C
2829 09-03-2009 13:59:38 8 C 39 % -5.09 C
2830 09-03-2009 14:11:38 7.7 C 40 % -5.02 C
2831 09-03-2009 14:23:38 8.2 C 40 % -4.57 C
2832 09-03-2009 14:35:38 8.4 C 41 % -4.07 C
2833 09-03-2009 14:47:37 8.3 C 41 % -4.16 C
2834 09-03-2009 14:59:38 7.2 C 47 % -3.34 C
2835 09-03-2009 15:11:38 6.3 C 54 % -2.31 C
2836 09-03-2009 15:23:37 6.9 C 54 % -1.75 C
2837 09-03-2009 15:35:37 8.1 C 46 % -2.8 C
2838 09-03-2009 15:47:38 8.7 C 42 % -3.48 C
2839 09-03-2009 15:59:37 8.6 C 41 % -3.89 C
2840 09-03-2009 16:11:37 9.5 C 39 % -3.74 C
2841 09-03-2009 16:23:37 8.7 C 41 % -3.8 C
2842 09-03-2009 16:35:36 8.7 C 43 % -3.16 C
2843 09-03-2009 16:47:37 8.8 C 43 % -3.07 C
2844 09-03-2009 16:59:36 9.1 C 38 % -4.45 C
2845 09-03-2009 17:11:36 8.3 C 40 % -4.48 C
2846 09-03-2009 17:23:36 8 C 42 % -4.11 C
2847 09-03-2009 17:35:37 7.9 C 44 % -3.58 C
2848 09-03-2009 17:47:36 7.5 C 46 % -3.35 C
2849 09-03-2009 17:59:36 7.4 C 46 % -3.44 C
2850 09-03-2009 18:11:36 7.4 C 47 % -3.16 C
Sensor: Nr:Datum:Temp:Feuchte:Taupunkt:
Aussen-T/F 2851 09-03-2009 18:23:36 7.3 C 47 % -3.25 C
2852 09-03-2009 18:35:36 7 C 50 % -2.69 C
2853 09-03-2009 18:47:35 6.7 C 54 % -1.94 C
2854 09-03-2009 18:59:35 6.4 C 56 % -1.72 C
2855 09-03-2009 19:11:35 6.4 C 55 % -1.97 C
2856 09-03-2009 19:23:35 6.2 C 52 % -2.91 C
2857 09-03-2009 19:35:35 6 C 53 % -2.84 C
2858 09-03-2009 19:47:34 5.8 C 56 % -2.28 C
2859 09-03-2009 19:59:35 5.8 C 57 % -2.04 C
2860 09-03-2009 20:11:35 5.8 C 59 % -1.58 C
2861 09-03-2009 20:23:35 5.5 C 61 % -1.41 C
2862 09-03-2009 20:35:34 5.2 C 63 % -1.25 C
2863 09-03-2009 20:47:35 4.9 C 66 % -0.91 C
2864 09-03-2009 20:59:34 4.8 C 68 % -0.59 C
2865 09-03-2009 21:11:34 4.6 C 69 % -0.58 C
2866 09-03-2009 21:23:34 4.4 C 71 % -0.39 C
2867 09-03-2009 21:35:34 4 C 75 % -0.02 C
2868 09-03-2009 21:48:35 3.8 C 78 % 0.33 C
2869 09-03-2009 22:00:35 3.8 C 78 % 0.33 C
2870 09-03-2009 22:12:35 4.1 C 76 % 0.26 C
2871 09-03-2009 22:24:35 3.7 C 77 % 0.05 C
2872 09-03-2009 22:36:35 4 C 72 % -0.58 C
2873 09-03-2009 22:48:35 3.9 C 73 % -0.49 C
2874 09-03-2009 23:00:35 3.7 C 74 % -0.49 C
2875 09-03-2009 23:12:35 3.5 C 75 % -0.5 C
Sensor: Nr:Datum:Temp:Feuchte:Taupunkt:
Aussen-T/F 2876 09-03-2009 23:24:35 3.3 C 77 % -0.34 C
2877 09-03-2009 23:36:35 3.2 C 78 % -0.26 C
2878 09-03-2009 23:48:35 3.4 C 79 % 0.11 C
2879 10-03-2009 00:00:35 3.4 C 79 % 0.11 C
2880 10-03-2009 00:12:35 3.3 C 79 % 0.02 C
2881 10-03-2009 00:24:35 3.4 C 80 % 0.29 C
2882 10-03-2009 00:36:35 3.7 C 79 % 0.4 C
2883 10-03-2009 00:48:35 3.9 C 77 % 0.25 C
2884 10-03-2009 01:00:35 4.1 C 75 % 0.08 C
2885 10-03-2009 01:12:35 4.2 C 74 % -0.01 C
2886 10-03-2009 01:24:36 4.3 C 72 % -0.29 C
2887 10-03-2009 01:36:36 4.3 C 72 % -0.29 C
2888 10-03-2009 01:48:36 4.4 C 71 % -0.39 C
2889 10-03-2009 02:00:36 4.5 C 70 % -0.48 C
2890 10-03-2009 02:12:36 4.4 C 71 % -0.39 C
2891 10-03-2009 02:24:36 4.6 C 69 % -0.58 C
2892 10-03-2009 02:36:36 4.7 C 67 % -0.89 C
2893 10-03-2009 02:48:36 4.7 C 66 % -1.1 C
2894 10-03-2009 03:00:36 4.7 C 66 % -1.1 C
2895 10-03-2009 03:12:36 4.5 C 67 % -1.08 C
2896 10-03-2009 03:24:36 4.5 C 67 % -1.08 C
2897 10-03-2009 03:36:36 4.5 C 67 % -1.08 C
2898 10-03-2009 03:48:36 4.5 C 68 % -0.88 C
2899 10-03-2009 04:00:36 4.6 C 67 % -0.99 C
2900 10-03-2009 04:12:36 4.5 C 67 % -1.08 C
Sensor: Nr:Datum:Temp:Feuchte:Taupunkt:
Aussen-T/F 2901 10-03-2009 04:24:36 4.6 C 67 % -0.99 C
2902 10-03-2009 04:36:36 4.5 C 67 % -1.08 C
2903 10-03-2009 04:48:36 4.4 C 68 % -0.98 C
2904 10-03-2009 05:00:36 4.4 C 67 % -1.18 C
2905 10-03-2009 05:12:37 4.4 C 68 % -0.98 C
2906 10-03-2009 05:24:37 4.4 C 68 % -0.98 C
2907 10-03-2009 05:36:37 4.3 C 69 % -0.87 C
2908 10-03-2009 05:48:37 4.3 C 70 % -0.68 C
2909 10-03-2009 06:00:37 4.3 C 71 % -0.48 C
2910 10-03-2009 06:12:37 4.1 C 72 % -0.48 C
2911 10-03-2009 06:24:37 4.2 C 72 % -0.39 C
2912 10-03-2009 06:36:37 4.2 C 72 % -0.39 C
2913 10-03-2009 06:48:37 4.3 C 72 % -0.29 C
2914 10-03-2009 07:00:35 4.3 C 71 % -0.48 C
2915 10-03-2009 07:12:35 4.3 C 71 % -0.48 C
2916 10-03-2009 07:24:34 4.2 C 72 % -0.39 C
2917 10-03-2009 07:36:35 4.2 C 72 % -0.39 C
2918 10-03-2009 07:48:34 4.3 C 73 % -0.1 C
2919 10-03-2009 08:00:34 4.5 C 72 % -0.1 C
2920 10-03-2009 08:12:34 4.7 C 71 % -0.1 C
2921 10-03-2009 08:24:35 4.8 C 71 % 0 C
2922 10-03-2009 08:36:34 4.9 C 70 % -0.1 C
2923 10-03-2009 08:48:34 5 C 69 % -0.2 C
2924 10-03-2009 09:00:33 5 C 69 % -0.2 C
2925 10-03-2009 09:12:33 5.2 C 69 % -0.01 C
Sensor: Nr:Datum:Temp:Feuchte:Taupunkt:
Aussen-T/F 2926 10-03-2009 09:24:34 5.2 C 68 % -0.21 C
2927 10-03-2009 09:36:34 5.3 C 67 % -0.32 C
2928 10-03-2009 09:48:33 5.3 C 67 % -0.32 C
2929 10-03-2009 10:00:34 5.4 C 66 % -0.43 C
2930 10-03-2009 10:12:34 5.5 C 66 % -0.33 C
2931 10-03-2009 10:24:33 5.6 C 66 % -0.24 C
2932 10-03-2009 10:36:33 5.7 C 65 % -0.35 C
2933 10-03-2009 10:48:33 5.9 C 65 % -0.16 C
2934 10-03-2009 11:00:33 6.1 C 63 % -0.4 C
2935 10-03-2009 11:12:33 6.3 C 62 % -0.43 C
2936 10-03-2009 11:24:32 6.4 C 62 % -0.34 C
2937 10-03-2009 11:36:33 6.3 C 63 % -0.21 C
2938 10-03-2009 11:48:32 6.3 C 63 % -0.21 C
2939 10-03-2009 12:00:32 6.4 C 63 % -0.12 C
2940 10-03-2009 12:12:32 6.5 C 62 % -0.24 C
2941 10-03-2009 12:24:32 6.6 C 61 % -0.37 C
2942 10-03-2009 12:36:32 6.5 C 61 % -0.46 C
2943 10-03-2009 12:48:32 6.5 C 61 % -0.46 C
2944 10-03-2009 13:00:31 6.6 C 61 % -0.37 C
2945 10-03-2009 13:12:31 6.7 C 61 % -0.28 C
2946 10-03-2009 13:24:32 6.8 C 61 % -0.18 C
2947 10-03-2009 13:36:31 6.8 C 61 % -0.18 C
2948 10-03-2009 13:48:31 7 C 60 % -0.22 C
2949 10-03-2009 14:00:31 7.1 C 59 % -0.36 C
2950 10-03-2009 14:12:31 7.1 C 58 % -0.59 C
Sensor: Nr:Datum:Temp:Feuchte:Taupunkt:
Aussen-T/F 2951 10-03-2009 14:24:31 7.1 C 59 % -0.36 C
2952 10-03-2009 14:36:31 6.9 C 61 % -0.09 C
2953 10-03-2009 14:48:31 6.8 C 62 % 0.04 C
2954 10-03-2009 15:00:31 6.8 C 61 % -0.18 C
2955 10-03-2009 15:12:31 6.8 C 61 % -0.18 C
2956 10-03-2009 15:24:30 6.6 C 61 % -0.37 C
2957 10-03-2009 15:36:30 6.4 C 62 % -0.34 C
2958 10-03-2009 15:48:30 6.4 C 61 % -0.56 C
2959 10-03-2009 16:00:30 6.4 C 58 % -1.25 C
2960 10-03-2009 16:12:30 6.4 C 60 % -0.78 C
2961 10-03-2009 16:24:29 5.9 C 62 % -0.81 C
2962 10-03-2009 16:36:30 5.7 C 66 % -0.14 C
2963 10-03-2009 16:48:30 5.4 C 68 % -0.02 C
2964 10-03-2009 17:00:29 5.6 C 69 % 0.37 C
2965 10-03-2009 17:12:29 5.6 C 68 % 0.17 C
2966 10-03-2009 17:24:30 5.8 C 68 % 0.36 C
2967 10-03-2009 17:36:29 5.7 C 69 % 0.47 C
2968 10-03-2009 17:48:29 5.7 C 69 % 0.47 C
2969 10-03-2009 18:00:28 5.8 C 70 % 0.76 C
2970 10-03-2009 18:12:28 5.7 C 71 % 0.86 C
2971 10-03-2009 18:24:29 5.8 C 71 % 0.96 C
2972 10-03-2009 18:36:29 5.8 C 71 % 0.96 C
2973 10-03-2009 18:48:28 5.9 C 72 % 1.25 C
2974 10-03-2009 19:00:29 6 C 71 % 1.15 C
2975 10-03-2009 19:12:29 6 C 72 % 1.35 C
Sensor: Nr:Datum:Temp:Feuchte:Taupunkt:
Aussen-T/F 2976 10-03-2009 19:24:28 6 C 73 % 1.54 C
2977 10-03-2009 19:36:28 6 C 74 % 1.73 C
2978 10-03-2009 19:48:28 5.8 C 80 % 2.62 C
2979 10-03-2009 20:00:28 5.8 C 82 % 2.97 C
2980 10-03-2009 20:12:28 5.8 C 83 % 3.14 C
2981 10-03-2009 20:24:27 5.9 C 83 % 3.24 C
2982 10-03-2009 20:36:27 6.5 C 79 % 3.13 C
2983 10-03-2009 20:48:27 6.9 C 73 % 2.4 C
2984 10-03-2009 21:00:27 7.2 C 68 % 1.7 C
2985 10-03-2009 21:12:27 7.3 C 66 % 1.38 C
2986 10-03-2009 21:24:27 7.3 C 66 % 1.38 C
2987 10-03-2009 21:36:27 6.8 C 72 % 2.12 C
2988 10-03-2009 21:49:28 6.2 C 74 % 1.92 C
2989 10-03-2009 22:01:28 5.7 C 75 % 1.62 C
2990 10-03-2009 22:13:28 5.6 C 75 % 1.53 C
2991 10-03-2009 22:25:28 5.4 C 77 % 1.7 C
2992 10-03-2009 22:37:28 5.3 C 77 % 1.6 C
2993 10-03-2009 22:49:28 5.2 C 80 % 2.04 C
2994 10-03-2009 23:01:28 5.1 C 80 % 1.94 C
2995 10-03-2009 23:13:28 5.1 C 80 % 1.94 C
2996 10-03-2009 23:25:28 5.2 C 78 % 1.69 C
2997 10-03-2009 23:37:28 5.4 C 72 % 0.77 C
2998 10-03-2009 23:49:28 5.4 C 69 % 0.18 C
2999 11-03-2009 00:01:28 5.5 C 66 % -0.33 C
3000 11-03-2009 00:13:28 5.5 C 68 % 0.08 C
Sensor: Nr:Datum:Temp:Feuchte:Taupunkt:
Aussen-T/F 3001 11-03-2009 00:25:28 5.3 C 69 % 0.09 C
3002 11-03-2009 00:37:28 5.1 C 69 % -0.11 C
3003 11-03-2009 00:49:28 5 C 69 % -0.2 C
3004 11-03-2009 01:01:28 4.8 C 70 % -0.2 C
3005 11-03-2009 01:13:29 4.8 C 70 % -0.2 C
3006 11-03-2009 01:25:29 4.9 C 69 % -0.3 C
3007 11-03-2009 01:37:29 4.9 C 69 % -0.3 C
3008 11-03-2009 01:49:29 4.8 C 69 % -0.39 C
3009 11-03-2009 02:01:29 4.9 C 68 % -0.5 C
3010 11-03-2009 02:13:29 5 C 66 % -0.81 C
3011 11-03-2009 02:25:29 4.9 C 67 % -0.7 C
3012 11-03-2009 02:37:29 4.9 C 68 % -0.5 C
3013 11-03-2009 02:49:29 4.8 C 68 % -0.59 C
3014 11-03-2009 03:01:29 4.6 C 68 % -0.78 C
3015 11-03-2009 03:13:29 4.5 C 69 % -0.68 C
3016 11-03-2009 03:25:29 4.5 C 69 % -0.68 C
3017 11-03-2009 03:37:29 4.6 C 69 % -0.58 C
3018 11-03-2009 03:49:29 4.7 C 67 % -0.89 C
3019 11-03-2009 04:01:29 4.7 C 67 % -0.89 C
3020 11-03-2009 04:13:29 4.7 C 66 % -1.1 C
3021 11-03-2009 04:25:29 4.7 C 65 % -1.3 C
3022 11-03-2009 04:37:29 4.7 C 65 % -1.3 C
3023 11-03-2009 04:49:29 4.7 C 65 % -1.3 C
3024 11-03-2009 05:01:30 4.7 C 64 % -1.51 C
3025 11-03-2009 05:13:30 4.6 C 64 % -1.61 C
Sensor: Nr:Datum:Temp:Feuchte:Taupunkt:
Aussen-T/F 3026 11-03-2009 05:25:30 4.6 C 64 % -1.61 C
3027 11-03-2009 05:37:30 4.6 C 63 % -1.82 C
3028 11-03-2009 05:49:30 4.6 C 63 % -1.82 C
3029 11-03-2009 06:01:30 4.6 C 62 % -2.04 C
3030 11-03-2009 06:13:30 4.1 C 66 % -1.67 C
3031 11-03-2009 06:25:30 3.9 C 72 % -0.68 C
3032 11-03-2009 06:37:30 3.6 C 76 % -0.22 C
3033 11-03-2009 06:49:30 3.6 C 78 % 0.13 C
3034 11-03-2009 07:01:27 3.7 C 78 % 0.23 C
3035 11-03-2009 07:13:28 3.9 C 77 % 0.25 C
3036 11-03-2009 07:25:28 3.9 C 77 % 0.25 C
3037 11-03-2009 07:37:27 3.8 C 78 % 0.33 C
3038 11-03-2009 07:49:27 4 C 76 % 0.16 C
3039 11-03-2009 08:01:27 4.3 C 73 % -0.1 C
3040 11-03-2009 08:13:27 4.5 C 70 % -0.48 C
3041 11-03-2009 08:25:27 4.5 C 70 % -0.48 C
3042 11-03-2009 08:37:26 4.7 C 69 % -0.49 C
3043 11-03-2009 08:49:27 4.9 C 68 % -0.5 C
3044 11-03-2009 09:01:26 4.8 C 70 % -0.2 C
3045 11-03-2009 09:13:26 4.6 C 73 % 0.19 C
3046 11-03-2009 09:25:26 4.6 C 73 % 0.19 C
3047 11-03-2009 09:37:26 4.8 C 73 % 0.38 C
3048 11-03-2009 09:49:26 4.9 C 73 % 0.48 C
3049 11-03-2009 10:01:25 4.9 C 71 % 0.09 C
3050 11-03-2009 10:13:26 5 C 69 % -0.2 C
Sensor: Nr:Datum:Temp:Feuchte:Taupunkt:
Aussen-T/F 3051 11-03-2009 10:25:26 4.8 C 70 % -0.2 C
3052 11-03-2009 10:37:25 4.8 C 70 % -0.2 C
3053 11-03-2009 10:49:25 4.8 C 69 % -0.39 C
3054 11-03-2009 11:01:26 5.2 C 66 % -0.62 C
3055 11-03-2009 11:13:25 5.2 C 66 % -0.62 C
3056 11-03-2009 11:25:25 5.2 C 65 % -0.83 C
3057 11-03-2009 11:37:25 5.4 C 64 % -0.85 C
3058 11-03-2009 11:49:25 5.9 C 63 % -0.59 C
3059 11-03-2009 12:01:25 6.7 C 57 % -1.2 C
3060 11-03-2009 12:13:24 7.1 C 54 % -1.56 C
3061 11-03-2009 12:25:24 7.4 C 54 % -1.28 C
3062 11-03-2009 12:37:24 7.3 C 50 % -2.42 C
3063 11-03-2009 12:49:24 7.4 C 51 % -2.06 C
3064 11-03-2009 13:01:24 7.1 C 52 % -2.07 C
3065 11-03-2009 13:13:24 6.2 C 63 % -0.31 C
3066 11-03-2009 13:25:24 6.5 C 65 % 0.41 C
3067 11-03-2009 13:37:24 7.3 C 61 % 0.29 C
3068 11-03-2009 13:49:24 7.9 C 51 % -1.6 C
3069 11-03-2009 14:01:23 8 C 45 % -3.19 C
3070 11-03-2009 14:13:24 8.1 C 47 % -2.52 C
3071 11-03-2009 14:25:24 7.6 C 47 % -2.97 C
3072 11-03-2009 14:37:23 8.5 C 41 % -3.98 C
3073 11-03-2009 14:49:23 8.5 C 40 % -4.31 C
3074 11-03-2009 15:01:23 8.6 C 41 % -3.89 C
3075 11-03-2009 15:13:23 9.3 C 39 % -3.92 C
Sensor: Nr:Datum:Temp:Feuchte:Taupunkt:
Aussen-T/F 3076 11-03-2009 15:25:23 9.4 C 40 % -3.5 C
3077 11-03-2009 15:37:23 9.7 C 40 % -3.23 C
3078 11-03-2009 15:49:22 9.1 C 41 % -3.44 C
3079 11-03-2009 16:01:23 8.5 C 42 % -3.66 C
3080 11-03-2009 16:13:22 8.4 C 44 % -3.13 C
3081 11-03-2009 16:25:22 8.5 C 45 % -2.73 C
3082 11-03-2009 16:37:22 8.6 C 46 % -2.35 C
3083 11-03-2009 16:49:22 8.3 C 46 % -2.62 C
3084 11-03-2009 17:01:22 9.1 C 46 % -1.89 C
3085 11-03-2009 17:13:21 8.5 C 43 % -3.34 C
3086 11-03-2009 17:25:21 8.4 C 45 % -2.83 C
3087 11-03-2009 17:37:22 8.3 C 44 % -3.22 C
3088 11-03-2009 17:49:21 8.3 C 44 % -3.22 C
3089 11-03-2009 18:01:21 8.1 C 44 % -3.4 C
3090 11-03-2009 18:13:22 7.6 C 47 % -2.97 C
3091 11-03-2009 18:25:22 7.1 C 50 % -2.6 C
3092 11-03-2009 18:37:21 6.8 C 54 % -1.84 C
3093 11-03-2009 18:49:21 6.5 C 55 % -1.87 C
3094 11-03-2009 19:01:20 6.4 C 56 % -1.72 C
3095 11-03-2009 19:13:21 6.3 C 57 % -1.58 C
3096 11-03-2009 19:25:21 6.1 C 55 % -2.25 C
3097 11-03-2009 19:37:20 5.8 C 56 % -2.28 C
3098 11-03-2009 19:49:20 5.6 C 57 % -2.23 C
3099 11-03-2009 20:01:20 5.7 C 57 % -2.14 C
3100 11-03-2009 20:13:20 5.8 C 56 % -2.28 C
Sensor: Nr:Datum:Temp:Feuchte:Taupunkt:
Aussen-T/F 3101 11-03-2009 20:25:20 5.5 C 57 % -2.33 C
3102 11-03-2009 20:37:20 5.3 C 58 % -2.28 C
3103 11-03-2009 20:49:20 5.1 C 59 % -2.24 C
3104 11-03-2009 21:01:20 4.8 C 61 % -2.07 C
3105 11-03-2009 21:13:20 4.6 C 62 % -2.04 C
3106 11-03-2009 21:25:20 4.3 C 64 % -1.89 C
3107 11-03-2009 21:37:19 4.2 C 65 % -1.78 C
3108 11-03-2009 21:49:20 4 C 65 % -1.97 C
3109 11-03-2009 22:02:20 4.1 C 65 % -1.87 C
3110 11-03-2009 22:14:20 3.7 C 67 % -1.85 C
3111 11-03-2009 22:26:20 3.5 C 68 % -1.84 C
3112 11-03-2009 22:38:20 3.4 C 68 % -1.93 C
3113 11-03-2009 22:50:21 3.1 C 69 % -2.02 C
3114 11-03-2009 23:02:21 3.3 C 69 % -1.83 C
3115 11-03-2009 23:14:21 3 C 70 % -1.92 C
3116 11-03-2009 23:26:21 2.8 C 72 % -1.73 C
3117 11-03-2009 23:38:21 2.8 C 73 % -1.55 C
3118 11-03-2009 23:50:21 3.1 C 71 % -1.63 C
3119 12-03-2009 00:02:21 3.4 C 70 % -1.54 C
3120 12-03-2009 00:14:21 3.5 C 69 % -1.64 C
3121 12-03-2009 00:26:21 3.5 C 68 % -1.84 C
3122 12-03-2009 00:38:21 3.5 C 68 % -1.84 C
3123 12-03-2009 00:50:21 3.5 C 68 % -1.84 C
3124 12-03-2009 01:02:21 3.5 C 68 % -1.84 C
3125 12-03-2009 01:14:21 3.4 C 68 % -1.93 C
Sensor: Nr:Datum:Temp:Feuchte:Taupunkt:
Aussen-T/F 3126 12-03-2009 01:26:21 3.4 C 68 % -1.93 C
3127 12-03-2009 01:38:21 3.4 C 69 % -1.73 C
3128 12-03-2009 01:50:21 3.4 C 68 % -1.93 C
3129 12-03-2009 02:02:21 3.5 C 68 % -1.84 C
3130 12-03-2009 02:14:21 3.4 C 68 % -1.93 C
3131 12-03-2009 02:26:21 3.5 C 68 % -1.84 C
3132 12-03-2009 02:38:22 3.6 C 67 % -1.94 C
3133 12-03-2009 02:50:22 3.6 C 67 % -1.94 C
3134 12-03-2009 03:02:22 3.8 C 65 % -2.16 C
3135 12-03-2009 03:14:22 3.8 C 64 % -2.37 C
3136 12-03-2009 03:26:22 3.8 C 64 % -2.37 C
3137 12-03-2009 03:38:22 3.9 C 64 % -2.27 C
3138 12-03-2009 03:50:22 4.1 C 61 % -2.73 C
3139 12-03-2009 04:02:22 4 C 62 % -2.61 C
3140 12-03-2009 04:14:22 4 C 62 % -2.61 C
3141 12-03-2009 04:26:22 4.1 C 62 % -2.51 C
3142 12-03-2009 04:38:22 4.2 C 61 % -2.64 C
3143 12-03-2009 04:50:22 4.2 C 61 % -2.64 C
3144 12-03-2009 05:02:22 4.4 C 60 % -2.67 C
3145 12-03-2009 05:14:22 4.3 C 60 % -2.76 C
3146 12-03-2009 05:26:22 4.5 C 58 % -3.03 C
3147 12-03-2009 05:38:22 4.6 C 59 % -2.71 C
3148 12-03-2009 05:50:22 4.4 C 60 % -2.67 C
3149 12-03-2009 06:02:22 4.4 C 61 % -2.45 C
3150 12-03-2009 06:14:22 4.5 C 61 % -2.35 C
Sensor: Nr:Datum:Temp:Feuchte:Taupunkt:
Aussen-T/F 3151 12-03-2009 06:26:23 4.7 C 60 % -2.39 C
3152 12-03-2009 06:38:23 4.8 C 59 % -2.52 C
3153 12-03-2009 06:50:23 4.8 C 59 % -2.52 C
3154 12-03-2009 07:02:20 4.7 C 59 % -2.61 C
3155 12-03-2009 07:14:20 4.7 C 60 % -2.39 C
3156 12-03-2009 07:26:20 4.7 C 60 % -2.39 C
3157 12-03-2009 07:38:20 4.8 C 60 % -2.29 C
3158 12-03-2009 07:50:19 4.9 C 59 % -2.42 C
3159 12-03-2009 08:02:19 5 C 59 % -2.33 C
3160 12-03-2009 08:14:20 5.1 C 58 % -2.47 C
3161 12-03-2009 08:26:20 5.1 C 58 % -2.47 C
3162 12-03-2009 08:38:19 5.2 C 58 % -2.37 C
3163 12-03-2009 08:50:19 5.1 C 62 % -1.57 C
3164 12-03-2009 09:02:19 5 C 65 % -1.02 C
3165 12-03-2009 09:14:19 4.9 C 69 % -0.3 C
3166 12-03-2009 09:26:19 4.8 C 71 % 0 C
3167 12-03-2009 09:38:18 4.7 C 73 % 0.28 C
3168 12-03-2009 09:50:19 4.8 C 72 % 0.19 C
3169 12-03-2009 10:02:18 4.6 C 73 % 0.19 C
3170 12-03-2009 10:14:18 4.6 C 74 % 0.38 C
3171 12-03-2009 10:26:18 4.5 C 75 % 0.46 C
3172 12-03-2009 10:38:18 4.7 C 74 % 0.47 C
3173 12-03-2009 10:50:18 5.1 C 70 % 0.09 C
3174 12-03-2009 11:02:18 5.4 C 68 % -0.02 C
3175 12-03-2009 11:14:17 5.5 C 66 % -0.33 C
Sensor: Nr:Datum:Temp:Feuchte:Taupunkt:
Aussen-T/F 3176 12-03-2009 11:26:17 5.5 C 66 % -0.33 C
3177 12-03-2009 11:38:18 5.5 C 68 % 0.08 C
3178 12-03-2009 11:50:17 5.7 C 66 % -0.14 C
3179 12-03-2009 12:02:17 6.1 C 64 % -0.19 C
3180 12-03-2009 12:14:18 6.5 C 63 % -0.02 C
3181 12-03-2009 12:26:18 6.5 C 63 % -0.02 C
3182 12-03-2009 12:38:17 6.5 C 64 % 0.19 C
3183 12-03-2009 12:50:17 6.6 C 64 % 0.29 C
3184 12-03-2009 13:02:16 6.7 C 64 % 0.38 C
3185 12-03-2009 13:14:17 6.8 C 64 % 0.48 C
3186 12-03-2009 13:26:17 6.8 C 64 % 0.48 C
3187 12-03-2009 13:38:16 6.8 C 64 % 0.48 C
3188 12-03-2009 13:50:17 6.9 C 64 % 0.57 C
3189 12-03-2009 14:02:16 6.9 C 65 % 0.79 C
3190 12-03-2009 14:14:16 6.8 C 66 % 0.9 C
3191 12-03-2009 14:26:16 6.9 C 67 % 1.21 C
3192 12-03-2009 14:38:16 6.9 C 67 % 1.21 C
3193 12-03-2009 14:50:16 7 C 69 % 1.71 C
3194 12-03-2009 15:02:16 6.8 C 72 % 2.12 C
3195 12-03-2009 15:14:15 6.5 C 74 % 2.21 C
3196 12-03-2009 15:26:15 6.4 C 77 % 2.67 C
3197 12-03-2009 15:38:16 6.8 C 79 % 3.42 C
3198 12-03-2009 15:50:15 6.9 C 78 % 3.34 C
3199 12-03-2009 16:02:15 7 C 75 % 2.88 C
3200 12-03-2009 16:14:14 7.1 C 75 % 2.98 C
Sensor: Nr:Datum:Temp:Feuchte:Taupunkt:
Aussen-T/F 3201 12-03-2009 16:26:14 7.1 C 75 % 2.98 C
3202 12-03-2009 16:38:15 7.2 C 75 % 3.07 C
3203 12-03-2009 16:50:14 7.1 C 75 % 2.98 C
3204 12-03-2009 17:02:14 7.1 C 75 % 2.98 C
3205 12-03-2009 17:14:15 6.9 C 78 % 3.34 C
3206 12-03-2009 17:26:15 6.9 C 80 % 3.7 C
3207 12-03-2009 17:38:14 6.9 C 80 % 3.7 C
3208 12-03-2009 17:50:14 6.9 C 80 % 3.7 C
3209 12-03-2009 18:02:14 6.8 C 81 % 3.77 C
3210 12-03-2009 18:14:14 6.7 C 83 % 4.02 C
3211 12-03-2009 18:26:14 6.7 C 84 % 4.19 C
3212 12-03-2009 18:38:14 6.7 C 86 % 4.53 C
3213 12-03-2009 18:50:13 6.7 C 87 % 4.69 C
3214 12-03-2009 19:02:13 6.7 C 88 % 4.86 C
3215 12-03-2009 19:14:13 6.7 C 89 % 5.02 C
3216 12-03-2009 19:26:13 6.9 C 90 % 5.38 C
3217 12-03-2009 19:38:13 6.9 C 91 % 5.54 C
3218 12-03-2009 19:50:13 7.1 C 90 % 5.57 C
3219 12-03-2009 20:02:13 7.2 C 91 % 5.83 C
3220 12-03-2009 20:14:13 7.1 C 91 % 5.73 C
3221 12-03-2009 20:26:13 7.2 C 91 % 5.83 C
3222 12-03-2009 20:38:12 7.1 C 91 % 5.73 C
3223 12-03-2009 20:50:13 7.2 C 91 % 5.83 C
3224 12-03-2009 21:02:13 7.1 C 91 % 5.73 C
3225 12-03-2009 21:14:12 7.1 C 91 % 5.73 C
Sensor: Nr:Datum:Temp:Feuchte:Taupunkt:
Aussen-T/F 3226 12-03-2009 21:26:12 7.1 C 91 % 5.73 C
3227 12-03-2009 21:38:12 7.2 C 91 % 5.83 C
3228 12-03-2009 21:50:12 7.2 C 91 % 5.83 C
3229 12-03-2009 22:03:12 7.2 C 90 % 5.67 C
3230 12-03-2009 22:15:12 7.2 C 90 % 5.67 C
3231 12-03-2009 22:27:12 7.3 C 90 % 5.77 C
3232 12-03-2009 22:39:12 7.4 C 89 % 5.71 C
3233 12-03-2009 22:51:12 7.4 C 88 % 5.55 C
3234 12-03-2009 23:03:12 7.5 C 88 % 5.64 C
3235 12-03-2009 23:15:12 7.6 C 87 % 5.58 C
3236 12-03-2009 23:27:12 7.7 C 86 % 5.51 C
3237 12-03-2009 23:39:12 7.7 C 86 % 5.51 C
3238 12-03-2009 23:51:12 7.8 C 86 % 5.61 C
3239 13-03-2009 00:03:12 7.8 C 85 % 5.44 C
3240 13-03-2009 00:15:12 7.8 C 86 % 5.61 C
3241 13-03-2009 00:27:12 7.8 C 86 % 5.61 C
3242 13-03-2009 00:39:12 7.8 C 86 % 5.61 C
3243 13-03-2009 00:51:12 7.7 C 87 % 5.68 C
3244 13-03-2009 01:03:12 7.7 C 87 % 5.68 C
3245 13-03-2009 01:15:12 7.7 C 88 % 5.84 C
3246 13-03-2009 01:27:12 7.6 C 88 % 5.74 C
3247 13-03-2009 01:39:12 7.6 C 88 % 5.74 C
3248 13-03-2009 01:51:12 7.5 C 89 % 5.81 C
3249 13-03-2009 02:03:13 7.5 C 89 % 5.81 C
3250 13-03-2009 02:15:13 7.5 C 90 % 5.97 C
Sensor: Nr:Datum:Temp:Feuchte:Taupunkt:
Aussen-T/F 3251 13-03-2009 02:27:13 7.5 C 90 % 5.97 C
3252 13-03-2009 02:39:13 7.4 C 90 % 5.87 C
3253 13-03-2009 02:51:13 7.4 C 91 % 6.03 C
3254 13-03-2009 03:03:13 7.3 C 91 % 5.93 C
3255 13-03-2009 03:15:13 7.5 C 91 % 6.13 C
3256 13-03-2009 03:27:13 7.5 C 89 % 5.81 C
3257 13-03-2009 03:39:13 7.4 C 88 % 5.55 C
3258 13-03-2009 03:51:13 7.3 C 87 % 5.28 C
3259 13-03-2009 04:03:13 7.3 C 86 % 5.12 C
3260 13-03-2009 04:15:13 7.3 C 87 % 5.28 C
3261 13-03-2009 04:27:13 7.3 C 87 % 5.28 C
3262 13-03-2009 04:39:13 7.1 C 87 % 5.09 C
3263 13-03-2009 04:51:13 7.2 C 86 % 5.02 C
3264 13-03-2009 05:03:13 7.3 C 85 % 4.95 C
3265 13-03-2009 05:15:13 6.9 C 84 % 4.39 C
3266 13-03-2009 05:27:13 6.6 C 85 % 4.26 C
3267 13-03-2009 05:39:13 6.3 C 85 % 3.97 C
3268 13-03-2009 05:51:14 6.1 C 86 % 3.94 C
3269 13-03-2009 06:03:14 5.9 C 87 % 3.91 C
3270 13-03-2009 06:15:14 5.7 C 87 % 3.71 C
3271 13-03-2009 06:27:14 5.6 C 88 % 3.77 C
3272 13-03-2009 06:39:14 5.5 C 88 % 3.67 C
3273 13-03-2009 06:51:14 5.4 C 88 % 3.58 C
3274 13-03-2009 07:03:12 5.4 C 88 % 3.58 C
3275 13-03-2009 07:15:12 5.4 C 89 % 3.74 C
Sensor: Nr:Datum:Temp:Feuchte:Taupunkt:
Aussen-T/F 3276 13-03-2009 07:27:12 5.4 C 89 % 3.74 C
3277 13-03-2009 07:39:12 5.4 C 89 % 3.74 C
3278 13-03-2009 07:51:12 5.5 C 89 % 3.84 C
3279 13-03-2009 08:03:11 5.7 C 89 % 4.03 C
3280 13-03-2009 08:15:12 5.9 C 90 % 4.39 C
3281 13-03-2009 08:27:12 5.9 C 90 % 4.39 C
3282 13-03-2009 08:39:11 5.9 C 90 % 4.39 C
3283 13-03-2009 08:51:11 5.9 C 89 % 4.23 C
3284 13-03-2009 09:03:11 5.9 C 89 % 4.23 C
3285 13-03-2009 09:15:11 6.4 C 89 % 4.72 C
3286 13-03-2009 09:27:11 7.3 C 90 % 5.77 C
3287 13-03-2009 09:39:11 7.4 C 86 % 5.22 C
3288 13-03-2009 09:51:10 8 C 82 % 5.12 C
3289 13-03-2009 10:03:11 8.6 C 78 % 4.99 C
3290 13-03-2009 10:15:10 8.8 C 73 % 4.24 C
3291 13-03-2009 10:27:10 9.3 C 65 % 3.07 C
3292 13-03-2009 10:39:10 9.5 C 63 % 2.82 C
3293 13-03-2009 10:51:10 9.7 C 60 % 2.32 C
3294 13-03-2009 11:03:10 10 C 59 % 2.37 C
3295 13-03-2009 11:15:10 10.3 C 56 % 1.92 C
3296 13-03-2009 11:27:10 10.2 C 55 % 1.58 C
3297 13-03-2009 11:39:09 10.7 C 56 % 2.29 C
3298 13-03-2009 11:51:10 11.7 C 49 % 1.36 C
3299 13-03-2009 12:03:09 11.6 C 47 % 0.69 C
3300 13-03-2009 12:15:09 11.9 C 45 % 0.36 C
Sensor: Nr:Datum:Temp:Feuchte:Taupunkt:
Aussen-T/F 3301 13-03-2009 12:27:10 11.3 C 44 % -0.49 C
3302 13-03-2009 12:39:09 10.9 C 43 % -1.17 C
3303 13-03-2009 12:51:09 11.7 C 46 % 0.48 C
3304 13-03-2009 13:03:08 11.9 C 40 % -1.25 C
3305 13-03-2009 13:15:09 11.8 C 41 % -1.01 C
3306 13-03-2009 13:27:09 12.1 C 35 % -2.88 C
3307 13-03-2009 13:39:09 12.5 C 35 % -2.52 C
3308 13-03-2009 13:51:08 14.1 C 32 % -2.32 C
3309 13-03-2009 14:03:09 13.9 C 31 % -2.93 C
3310 13-03-2009 14:15:08 13.1 C 32 % -3.2 C
3311 13-03-2009 14:27:08 13.2 C 30 % -3.97 C
3312 13-03-2009 14:39:08 13.4 C 30 % -3.8 C
3313 13-03-2009 14:51:07 13.6 C 31 % -3.19 C
3314 13-03-2009 15:03:08 14 C 29 % -3.73 C
3315 13-03-2009 15:15:08 13.7 C 28 % -4.45 C
3316 13-03-2009 15:27:08 13.9 C 29 % -3.82 C
3317 13-03-2009 15:39:07 14.1 C 29 % -3.64 C
3318 13-03-2009 15:51:08 13.6 C 28 % -4.54 C
3319 13-03-2009 16:03:07 13.8 C 29 % -3.9 C
3320 13-03-2009 16:15:07 13.5 C 28 % -4.63 C
3321 13-03-2009 16:27:07 13.3 C 29 % -4.33 C
3322 13-03-2009 16:39:07 13.1 C 30 % -4.06 C
3323 13-03-2009 16:51:07 13.2 C 31 % -3.54 C
3324 13-03-2009 17:03:06 13 C 30 % -4.15 C
3325 13-03-2009 17:15:07 12.9 C 30 % -4.23 C
Sensor: Nr:Datum:Temp:Feuchte:Taupunkt:
Aussen-T/F 3326 13-03-2009 17:27:07 12.8 C 34 % -2.65 C
3327 13-03-2009 17:39:06 12.6 C 36 % -2.06 C
3328 13-03-2009 17:51:06 12.4 C 41 % -0.47 C
3329 13-03-2009 18:03:06 11.7 C 42 % -0.77 C
3330 13-03-2009 18:15:06 11.1 C 43 % -0.99 C
3331 13-03-2009 18:27:06 10.4 C 44 % -1.31 C
3332 13-03-2009 18:39:05 9.8 C 46 % -1.25 C
3333 13-03-2009 18:51:06 9.2 C 48 % -1.22 C
3334 13-03-2009 19:03:06 9 C 48 % -1.41 C
3335 13-03-2009 19:15:05 8.6 C 52 % -0.68 C
3336 13-03-2009 19:27:05 8.3 C 54 % -0.45 C
3337 13-03-2009 19:39:05 8.1 C 54 % -0.63 C
3338 13-03-2009 19:51:05 8 C 54 % -0.73 C
3339 13-03-2009 20:03:05 7.8 C 57 % -0.17 C
3340 13-03-2009 20:15:04 7.6 C 59 % 0.11 C
3341 13-03-2009 20:27:04 7.4 C 60 % 0.16 C
3342 13-03-2009 20:39:05 7.2 C 61 % 0.2 C
3343 13-03-2009 20:51:04 6.9 C 63 % 0.36 C
3344 13-03-2009 21:03:04 6.6 C 64 % 0.29 C
3345 13-03-2009 21:15:04 6.5 C 64 % 0.19 C
3346 13-03-2009 21:27:04 6.3 C 64 % 0 C
3347 13-03-2009 21:39:04 6.1 C 65 % 0.03 C
3348 13-03-2009 21:51:04 5.9 C 67 % 0.25 C
3349 13-03-2009 22:03:04 5.8 C 67 % 0.16 C
3350 13-03-2009 22:15:03 5.8 C 67 % 0.16 C
Sensor: Nr:Datum:Temp:Feuchte:Taupunkt:
Aussen-T/F 3351 13-03-2009 22:27:03 5.6 C 67 % -0.03 C
3352 13-03-2009 22:39:04 5.6 C 68 % 0.17 C
3353 13-03-2009 22:52:05 5.4 C 69 % 0.18 C
3354 13-03-2009 23:04:05 5.3 C 70 % 0.28 C
3355 13-03-2009 23:16:05 5.2 C 70 % 0.19 C
3356 13-03-2009 23:28:05 5 C 70 % 0 C
3357 13-03-2009 23:40:05 4.9 C 72 % 0.29 C
3358 13-03-2009 23:52:05 4.8 C 72 % 0.19 C
3359 14-03-2009 00:04:05 4.6 C 73 % 0.19 C
3360 14-03-2009 00:16:05 4.5 C 73 % 0.09 C
3361 14-03-2009 00:28:05 4.5 C 74 % 0.28 C
3362 14-03-2009 00:40:06 4.4 C 74 % 0.18 C
3363 14-03-2009 00:52:06 4.2 C 76 % 0.36 C
3364 14-03-2009 01:04:06 4.1 C 76 % 0.26 C
3365 14-03-2009 01:16:06 4 C 76 % 0.16 C
3366 14-03-2009 01:28:06 4 C 76 % 0.16 C
3367 14-03-2009 01:40:06 3.7 C 78 % 0.23 C
3368 14-03-2009 01:52:06 3.9 C 78 % 0.42 C
3369 14-03-2009 02:04:06 3.8 C 78 % 0.33 C
3370 14-03-2009 02:16:06 3.7 C 78 % 0.23 C
3371 14-03-2009 02:28:06 3.5 C 79 % 0.21 C
3372 14-03-2009 02:40:06 3.4 C 79 % 0.11 C
3373 14-03-2009 02:52:06 3.6 C 80 % 0.48 C
3374 14-03-2009 03:04:06 3.6 C 80 % 0.48 C
3375 14-03-2009 03:16:06 3.2 C 80 % 0.09 C
Sensor: Nr:Datum:Temp:Feuchte:Taupunkt:
Aussen-T/F 3376 14-03-2009 03:28:06 3.3 C 80 % 0.19 C
3377 14-03-2009 03:40:06 3.4 C 81 % 0.46 C
3378 14-03-2009 03:52:06 3.4 C 81 % 0.46 C
3379 14-03-2009 04:04:06 3.4 C 81 % 0.46 C
3380 14-03-2009 04:16:06 3.3 C 81 % 0.36 C
3381 14-03-2009 04:28:06 3 C 80 % -0.1 C
3382 14-03-2009 04:40:07 3 C 81 % 0.07 C
3383 14-03-2009 04:52:07 2.7 C 82 % -0.06 C
3384 14-03-2009 05:04:07 2.6 C 82 % -0.16 C
3385 14-03-2009 05:16:07 2.6 C 83 % 0.01 C
3386 14-03-2009 05:28:07 2.6 C 83 % 0.01 C
3387 14-03-2009 05:40:07 2.8 C 84 % 0.37 C
3388 14-03-2009 05:52:07 3 C 84 % 0.57 C
3389 14-03-2009 06:04:07 3.2 C 84 % 0.76 C
3390 14-03-2009 06:16:07 3.3 C 84 % 0.86 C
3391 14-03-2009 06:28:07 3.3 C 84 % 0.86 C
3392 14-03-2009 06:40:07 3.5 C 84 % 1.06 C
3393 14-03-2009 06:52:07 3.7 C 84 % 1.25 C
3394 14-03-2009 07:04:07 3.8 C 83 % 1.19 C
3395 14-03-2009 07:16:07 3.8 C 82 % 1.02 C
3396 14-03-2009 07:28:07 3.8 C 82 % 1.02 C
3397 14-03-2009 07:40:07 4.1 C 81 % 1.14 C
3398 14-03-2009 07:52:07 4.2 C 80 % 1.07 C
3399 14-03-2009 08:04:07 4.4 C 79 % 1.09 C
3400 14-03-2009 08:16:04 4.6 C 79 % 1.28 C
Sensor: Nr:Datum:Temp:Feuchte:Taupunkt:
Aussen-T/F 3401 14-03-2009 08:28:04 4.8 C 79 % 1.47 C
3402 14-03-2009 08:40:05 5.4 C 77 % 1.7 C
3403 14-03-2009 08:52:05 5.6 C 75 % 1.53 C
3404 14-03-2009 09:04:04 5.9 C 74 % 1.63 C
3405 14-03-2009 09:16:04 6.2 C 72 % 1.54 C
3406 14-03-2009 09:28:04 6.3 C 70 % 1.24 C
3407 14-03-2009 09:40:04 6.8 C 70 % 1.72 C
3408 14-03-2009 09:52:04 7.1 C 66 % 1.19 C
3409 14-03-2009 10:04:04 7.4 C 65 % 1.26 C
3410 14-03-2009 10:16:03 7.9 C 64 % 1.52 C
3411 14-03-2009 10:28:03 8.5 C 61 % 1.42 C
3412 14-03-2009 10:40:04 9.4 C 58 % 1.57 C
3413 14-03-2009 10:52:03 9.8 C 57 % 1.7 C
3414 14-03-2009 11:04:03 10.4 C 55 % 1.76 C
3415 14-03-2009 11:16:03 10.9 C 53 % 1.71 C
3416 14-03-2009 11:28:03 11.3 C 52 % 1.81 C
3417 14-03-2009 11:40:03 11.6 C 50 % 1.54 C
3418 14-03-2009 11:52:02 12.1 C 48 % 1.44 C
3419 14-03-2009 12:04:03 12.5 C 45 % 0.91 C
3420 14-03-2009 12:16:03 12.4 C 43 % 0.19 C
3421 14-03-2009 12:28:03 13 C 43 % 0.73 C
3422 14-03-2009 12:40:02 13.4 C 41 % 0.43 C
3423 14-03-2009 12:52:03 13.7 C 40 % 0.36 C
3424 14-03-2009 13:04:02 13.6 C 40 % 0.27 C
3425 14-03-2009 13:16:02 13.8 C 40 % 0.45 C
Sensor: Nr:Datum:Temp:Feuchte:Taupunkt:
Aussen-T/F 3426 14-03-2009 13:28:02 14.1 C 39 % 0.37 C
3427 14-03-2009 13:40:02 14.5 C 38 % 0.37 C
3428 14-03-2009 13:52:02 14.7 C 37 % 0.18 C
3429 14-03-2009 14:04:01 15.4 C 35 % 0.04 C
3430 14-03-2009 14:16:01 15.8 C 34 % -0.01 C
3431 14-03-2009 14:28:01 15.9 C 33 % -0.33 C
3432 14-03-2009 14:40:01 15.9 C 33 % -0.33 C
3433 14-03-2009 14:52:01 16.9 C 30 % -0.76 C
3434 14-03-2009 15:04:01 17.5 C 30 % -0.25 C
3435 14-03-2009 15:16:01 17 C 31 % -0.23 C
3436 14-03-2009 15:28:01 16.1 C 35 % 0.65 C
3437 14-03-2009 15:40:01 15.7 C 37 % 1.07 C
3438 14-03-2009 15:52:00 16.8 C 35 % 1.27 C
3439 14-03-2009 16:04:01 17.2 C 33 % 0.81 C
3440 14-03-2009 16:16:00 16.2 C 35 % 0.74 C
3441 14-03-2009 16:28:00 15.6 C 38 % 1.35 C
3442 14-03-2009 16:40:00 15.7 C 39 % 1.8 C
3443 14-03-2009 16:52:00 15.4 C 39 % 1.53 C
3444 14-03-2009 17:04:00 15.4 C 39 % 1.53 C
3445 14-03-2009 17:16:00 15.4 C 40 % 1.89 C
3446 14-03-2009 17:28:00 15.2 C 41 % 2.05 C
3447 14-03-2009 17:39:59 15 C 41 % 1.87 C
3448 14-03-2009 17:52:00 14.7 C 43 % 2.27 C
3449 14-03-2009 18:04:59 14.5 C 43 % 2.09 C
3450 14-03-2009 18:16:59 14.4 C 44 % 2.32 C
Sensor: Nr:Datum:Temp:Feuchte:Taupunkt:
Aussen-T/F 3451 14-03-2009 18:28:59 14.2 C 45 % 2.45 C
3452 14-03-2009 18:40:59 14.1 C 46 % 2.67 C
3453 14-03-2009 18:52:59 13.8 C 51 % 3.85 C
3454 14-03-2009 19:04:58 12.3 C 67 % 6.36 C
3455 14-03-2009 19:16:59 11.5 C 77 % 7.61 C
3456 14-03-2009 19:28:59 11.1 C 81 % 7.97 C
3457 14-03-2009 19:40:59 11.4 C 83 % 8.62 C
3458 14-03-2009 19:52:58 10.7 C 83 % 7.93 C
3459 14-03-2009 20:04:59 10.4 C 83 % 7.64 C
3460 14-03-2009 20:16:58 10.4 C 84 % 7.82 C
3461 14-03-2009 20:28:58 10.3 C 84 % 7.72 C
3462 14-03-2009 20:40:59 10.2 C 85 % 7.79 C
3463 14-03-2009 20:52:57 10 C 83 % 7.25 C
3464 14-03-2009 21:04:57 9.6 C 74 % 5.2 C
3465 14-03-2009 21:16:58 9.6 C 74 % 5.2 C
3466 14-03-2009 21:28:57 9.4 C 76 % 5.39 C
3467 14-03-2009 21:40:57 9.3 C 77 % 5.48 C
3468 14-03-2009 21:52:57 9.1 C 78 % 5.47 C
3469 14-03-2009 22:04:57 9 C 79 % 5.56 C
3470 14-03-2009 22:17:58 9 C 78 % 5.38 C
3471 14-03-2009 22:29:58 9.1 C 76 % 5.1 C
3472 14-03-2009 22:41:58 9.2 C 75 % 5.01 C
3473 14-03-2009 22:53:58 9.2 C 74 % 4.81 C
3474 14-03-2009 23:05:58 9.2 C 74 % 4.81 C
3475 14-03-2009 23:17:58 9.2 C 73 % 4.62 C
Sensor: Nr:Datum:Temp:Feuchte:Taupunkt:
Aussen-T/F 3476 14-03-2009 23:29:58 9.2 C 67 % 3.4 C
3477 14-03-2009 23:41:58 9.1 C 66 % 3.09 C
3478 14-03-2009 23:53:58 9.1 C 64 % 2.66 C
3479 15-03-2009 00:05:58 9.1 C 63 % 2.44 C
3480 15-03-2009 00:17:58 9.1 C 62 % 2.22 C
3481 15-03-2009 00:29:58 9 C 62 % 2.12 C
3482 15-03-2009 00:41:58 9.1 C 61 % 1.99 C
3483 15-03-2009 00:53:58 9 C 61 % 1.89 C
3484 15-03-2009 01:05:58 9 C 61 % 1.89 C
3485 15-03-2009 01:17:58 9 C 60 % 1.66 C
3486 15-03-2009 01:29:58 8.8 C 63 % 2.16 C
3487 15-03-2009 01:41:58 8.8 C 62 % 1.93 C
3488 15-03-2009 01:53:59 8.9 C 62 % 2.03 C
3489 15-03-2009 02:05:59 8.8 C 62 % 1.93 C
3490 15-03-2009 02:16:59 8.6 C 65 % 2.4 C
3491 15-03-2009 02:28:59 8.9 C 64 % 2.47 C
3492 15-03-2009 02:40:59 8.8 C 63 % 2.16 C
3493 15-03-2009 02:52:59 8.8 C 64 % 2.38 C
3494 15-03-2009 03:04:59 8.6 C 65 % 2.4 C
3495 15-03-2009 03:16:59 8.7 C 64 % 2.28 C
3496 15-03-2009 03:28:59 8.6 C 63 % 1.97 C
3497 15-03-2009 03:40:59 8.6 C 62 % 1.74 C
3498 15-03-2009 03:52:59 8.6 C 61 % 1.52 C
3499 15-03-2009 04:04:59 8.6 C 61 % 1.52 C
3500 15-03-2009 04:16:59 8.6 C 60 % 1.29 C
Sensor: Nr:Datum:Temp:Feuchte:Taupunkt:
Aussen-T/F 3501 15-03-2009 04:28:59 8.6 C 61 % 1.52 C
3502 15-03-2009 04:40:59 8.6 C 61 % 1.52 C
3503 15-03-2009 04:52:59 8.6 C 61 % 1.52 C
3504 15-03-2009 05:04:59 8.6 C 61 % 1.52 C
3505 15-03-2009 05:16:59 8.5 C 61 % 1.42 C
3506 15-03-2009 05:28:59 8.5 C 61 % 1.42 C
3507 15-03-2009 05:40:59 8.5 C 61 % 1.42 C
3508 15-03-2009 05:53:00 8.5 C 60 % 1.19 C
3509 15-03-2009 06:05:00 8.5 C 59 % 0.96 C
3510 15-03-2009 06:17:00 8.5 C 58 % 0.72 C
3511 15-03-2009 06:29:00 8.5 C 58 % 0.72 C
3512 15-03-2009 06:41:00 8.4 C 58 % 0.63 C
3513 15-03-2009 06:53:00 8.4 C 58 % 0.63 C
3514 15-03-2009 07:05:00 8.4 C 57 % 0.39 C
3515 15-03-2009 07:17:00 8.4 C 56 % 0.15 C
3516 15-03-2009 07:29:00 8.4 C 56 % 0.15 C
3517 15-03-2009 07:41:00 8.5 C 56 % 0.24 C
3518 15-03-2009 07:53:00 8.5 C 56 % 0.24 C
3519 15-03-2009 08:05:00 8.5 C 55 % -0.01 C
3520 15-03-2009 08:17:00 8.5 C 55 % -0.01 C
3521 15-03-2009 08:29:00 8.9 C 55 % 0.36 C
3522 15-03-2009 08:41:00 8.7 C 55 % 0.18 C
3523 15-03-2009 08:53:00 8.8 C 55 % 0.27 C
3524 15-03-2009 09:05:58 8.8 C 55 % 0.27 C
3525 15-03-2009 09:17:58 8.8 C 55 % 0.27 C
Sensor: Nr:Datum:Temp:Feuchte:Taupunkt:
Aussen-T/F 3526 15-03-2009 09:29:58 8.9 C 54 % 0.11 C
3527 15-03-2009 09:41:58 9.1 C 54 % 0.3 C
3528 15-03-2009 09:53:57 9.2 C 52 % -0.13 C
3529 15-03-2009 10:05:58 9.3 C 52 % -0.04 C
3530 15-03-2009 10:17:57 9.3 C 51 % -0.3 C
3531 15-03-2009 10:29:57 9.3 C 50 % -0.57 C
3532 15-03-2009 10:41:57 9.6 C 49 % -0.57 C
3533 15-03-2009 10:53:57 9.7 C 48 % -0.76 C
3534 15-03-2009 11:05:57 9.9 C 47 % -0.87 C
3535 15-03-2009 11:17:57 10.1 C 47 % -0.69 C
3536 15-03-2009 11:29:56 10.2 C 45 % -1.19 C
3537 15-03-2009 11:41:56 10.4 C 46 % -0.7 C
3538 15-03-2009 11:53:57 10.5 C 45 % -0.91 C
3539 15-03-2009 12:05:56 10.8 C 43 % -1.26 C
3540 15-03-2009 12:17:56 11.2 C 39 % -2.22 C
3541 15-03-2009 12:29:56 11.4 C 38 % -2.39 C
3542 15-03-2009 12:41:56 11.4 C 38 % -2.39 C
3543 15-03-2009 12:53:56 11.5 C 33 % -4.19 C
3544 15-03-2009 13:05:55 11.3 C 32 % -4.77 C
3545 15-03-2009 13:17:56 11.5 C 32 % -4.6 C
3546 15-03-2009 13:29:56 11.2 C 34 % -4.06 C
3547 15-03-2009 13:41:56 11.1 C 35 % -3.76 C
3548 15-03-2009 13:53:55 11 C 36 % -3.47 C
3549 15-03-2009 14:05:56 10.9 C 40 % -2.15 C
3550 15-03-2009 14:17:55 11.1 C 40 % -1.97 C
Sensor: Nr:Datum:Temp:Feuchte:Taupunkt:
Aussen-T/F 3551 15-03-2009 14:29:55 11 C 40 % -2.06 C
3552 15-03-2009 14:41:56 10.8 C 41 % -1.91 C
3553 15-03-2009 14:53:55 10.7 C 40 % -2.33 C
3554 15-03-2009 15:05:55 10.6 C 43 % -1.44 C
3555 15-03-2009 15:17:54 10.6 C 45 % -0.82 C
3556 15-03-2009 15:29:54 10.9 C 45 % -0.55 C
3557 15-03-2009 15:41:54 10.8 C 44 % -0.95 C
3558 15-03-2009 15:53:54 10.6 C 44 % -1.13 C
3559 15-03-2009 16:05:54 10.7 C 45 % -0.73 C
3560 15-03-2009 16:17:54 10.8 C 45 % -0.64 C
3561 15-03-2009 16:29:54 10.8 C 45 % -0.64 C
3562 15-03-2009 16:41:54 10.7 C 45 % -0.73 C
3563 15-03-2009 16:53:54 10.6 C 45 % -0.82 C
3564 15-03-2009 17:05:53 10.6 C 46 % -0.52 C
3565 15-03-2009 17:17:54 10.4 C 48 % -0.12 C
3566 15-03-2009 17:29:53 10.1 C 52 % 0.7 C
3567 15-03-2009 17:41:53 9.9 C 54 % 1.04 C
3568 15-03-2009 17:53:53 9.9 C 53 % 0.78 C
3569 15-03-2009 18:05:53 9.8 C 53 % 0.69 C
3570 15-03-2009 18:17:53 9.8 C 54 % 0.95 C
3571 15-03-2009 18:29:53 9.7 C 54 % 0.86 C
3572 15-03-2009 18:41:53 9.8 C 52 % 0.43 C
3573 15-03-2009 18:53:52 9.8 C 51 % 0.16 C
3574 15-03-2009 19:05:02 9.8 C 50 % -0.11 C
3575 15-03-2009 19:17:01 9.7 C 51 % 0.07 C
Sensor: Nr:Datum:Temp:Feuchte:Taupunkt:
Aussen-T/F 3576 15-03-2009 19:29:01 9.6 C 52 % 0.24 C
3577 15-03-2009 19:41:02 9.5 C 53 % 0.41 C
3578 15-03-2009 19:53:01 9.5 C 53 % 0.41 C
3579 15-03-2009 20:05:02 9.4 C 55 % 0.83 C
3580 15-03-2009 20:17:01 9.2 C 56 % 0.89 C
3581 15-03-2009 20:29:01 9.2 C 57 % 1.14 C
3582 15-03-2009 20:41:01 9.1 C 59 % 1.52 C
3583 15-03-2009 20:53:01 9 C 60 % 1.66 C
3584 15-03-2009 21:05:01 9 C 60 % 1.66 C
3585 15-03-2009 21:17:00 8.9 C 62 % 2.03 C
3586 15-03-2009 21:29:00 8.9 C 63 % 2.25 C
3587 15-03-2009 21:41:01 8.9 C 64 % 2.47 C
3588 15-03-2009 21:54:08 8.7 C 64 % 2.28 C
3589 15-03-2009 22:06:08 8.7 C 65 % 2.5 C
3590 15-03-2009 22:18:08 8.7 C 65 % 2.5 C
3591 15-03-2009 22:30:08 8.6 C 66 % 2.62 C
3592 15-03-2009 22:42:08 8.5 C 67 % 2.73 C
3593 15-03-2009 22:54:08 8.4 C 67 % 2.64 C
3594 15-03-2009 23:06:08 8.4 C 67 % 2.64 C
3595 15-03-2009 23:18:09 8.4 C 68 % 2.85 C
3596 15-03-2009 23:30:09 8.3 C 68 % 2.75 C
3597 15-03-2009 23:42:09 8.3 C 68 % 2.75 C
3598 15-03-2009 23:54:09 8.1 C 70 % 2.97 C
3599 16-03-2009 00:06:09 8 C 71 % 3.07 C
3600 16-03-2009 00:18:09 8.1 C 71 % 3.17 C
Sensor: Nr:Datum:Temp:Feuchte:Taupunkt:
Aussen-T/F 3601 16-03-2009 00:30:09 8.1 C 71 % 3.17 C
3602 16-03-2009 00:42:09 8.1 C 70 % 2.97 C
3603 16-03-2009 00:54:09 8.1 C 69 % 2.77 C
3604 16-03-2009 01:06:09 8.2 C 68 % 2.66 C
3605 16-03-2009 01:18:09 8 C 69 % 2.67 C
3606 16-03-2009 01:30:09 7.8 C 73 % 3.27 C
3607 16-03-2009 01:42:09 7.7 C 75 % 3.56 C
3608 16-03-2009 01:54:09 7.5 C 77 % 3.74 C
3609 16-03-2009 02:06:09 7.4 C 78 % 3.82 C
3610 16-03-2009 02:18:09 7.4 C 79 % 4 C
3611 16-03-2009 02:30:09 7.4 C 79 % 4 C
3612 16-03-2009 02:42:09 7.3 C 80 % 4.09 C
3613 16-03-2009 02:54:09 7.2 C 81 % 4.16 C
3614 16-03-2009 03:06:09 7.2 C 81 % 4.16 C
3615 16-03-2009 03:18:09 7.1 C 82 % 4.24 C
3616 16-03-2009 03:30:10 7.1 C 82 % 4.24 C
3617 16-03-2009 03:42:10 6.9 C 83 % 4.22 C
3618 16-03-2009 03:54:10 6.8 C 84 % 4.29 C
3619 16-03-2009 04:06:10 6.8 C 84 % 4.29 C
3620 16-03-2009 04:18:10 6.8 C 85 % 4.46 C
3621 16-03-2009 04:30:10 6.7 C 85 % 4.36 C
3622 16-03-2009 04:42:10 6.7 C 85 % 4.36 C
3623 16-03-2009 04:54:10 6.8 C 86 % 4.63 C
3624 16-03-2009 05:06:10 6.7 C 86 % 4.53 C
3625 16-03-2009 05:18:10 6.5 C 85 % 4.17 C
Sensor: Nr:Datum:Temp:Feuchte:Taupunkt:
Aussen-T/F 3626 16-03-2009 05:30:10 6.6 C 86 % 4.43 C
3627 16-03-2009 05:42:10 6.7 C 86 % 4.53 C
3628 16-03-2009 05:54:01 6.6 C 86 % 4.43 C
3629 16-03-2009 06:06:01 6.6 C 86 % 4.43 C
3630 16-03-2009 06:18:01 6.6 C 86 % 4.43 C
3631 16-03-2009 06:30:01 6.6 C 86 % 4.43 C
3632 16-03-2009 06:42:01 6.7 C 86 % 4.53 C
3633 16-03-2009 06:54:00 6.6 C 85 % 4.26 C
3634 16-03-2009 07:06:01 6.5 C 85 % 4.17 C
3635 16-03-2009 07:18:00 6.5 C 85 % 4.17 C
3636 16-03-2009 07:30:00 6.6 C 86 % 4.43 C
3637 16-03-2009 07:42:00 6.7 C 86 % 4.53 C
3638 16-03-2009 07:53:59 6.8 C 86 % 4.63 C
3639 16-03-2009 08:06:00 6.9 C 86 % 4.72 C
3640 16-03-2009 08:18:00 7 C 85 % 4.66 C
3641 16-03-2009 08:30:00 7 C 84 % 4.49 C
3642 16-03-2009 08:42:59 7.1 C 84 % 4.58 C
3643 16-03-2009 08:54:00 7.2 C 84 % 4.68 C
3644 16-03-2009 09:06:59 7.4 C 84 % 4.88 C
3645 16-03-2009 09:18:59 7.3 C 83 % 4.61 C
3646 16-03-2009 09:30:58 7.2 C 81 % 4.16 C
3647 16-03-2009 09:42:58 7.3 C 79 % 3.91 C
3648 16-03-2009 09:54:59 7.6 C 79 % 4.2 C
3649 16-03-2009 10:06:59 7.9 C 78 % 4.31 C
3650 16-03-2009 10:18:58 8.2 C 75 % 4.04 C
Sensor: Nr:Datum:Temp:Feuchte:Taupunkt:
Aussen-T/F 3651 16-03-2009 10:30:59 8.4 C 72 % 3.65 C
3652 16-03-2009 10:42:59 8.7 C 69 % 3.34 C
3653 16-03-2009 10:54:58 8.8 C 68 % 3.23 C
3654 16-03-2009 11:06:58 8.8 C 66 % 2.81 C
3655 16-03-2009 11:18:57 9.1 C 64 % 2.66 C
3656 16-03-2009 11:30:58 9.2 C 62 % 2.31 C
3657 16-03-2009 11:42:58 9.5 C 61 % 2.37 C
3658 16-03-2009 11:54:57 9.7 C 61 % 2.55 C
3659 16-03-2009 12:06:57 10 C 57 % 1.89 C
3660 16-03-2009 12:18:58 9.9 C 55 % 1.3 C
3661 16-03-2009 12:30:57 9.5 C 56 % 1.17 C
3662 16-03-2009 12:42:57 9.5 C 57 % 1.42 C
3663 16-03-2009 12:54:57 9.8 C 57 % 1.7 C
3664 16-03-2009 13:06:57 10 C 55 % 1.39 C
3665 16-03-2009 13:18:57 10.2 C 55 % 1.58 C
3666 16-03-2009 13:30:56 10.1 C 52 % 0.7 C
3667 16-03-2009 13:42:56 9.8 C 55 % 1.2 C
3668 16-03-2009 13:54:56 9.5 C 56 % 1.17 C
3669 16-03-2009 14:06:56 9.4 C 56 % 1.08 C
3670 16-03-2009 14:18:56 9.5 C 56 % 1.17 C
3671 16-03-2009 14:30:56 9.5 C 55 % 0.92 C
3672 16-03-2009 14:42:56 9.7 C 56 % 1.36 C
3673 16-03-2009 14:54:56 9.9 C 55 % 1.3 C
3674 16-03-2009 15:06:56 10 C 54 % 1.13 C
3675 16-03-2009 15:18:55 10.3 C 54 % 1.41 C
Sensor: Nr:Datum:Temp:Feuchte:Taupunkt:
Aussen-T/F 3676 16-03-2009 15:30:55 9.9 C 53 % 0.78 C
3677 16-03-2009 15:42:55 9.8 C 55 % 1.2 C
3678 16-03-2009 15:54:55 9.9 C 55 % 1.3 C
3679 16-03-2009 16:06:55 9.7 C 56 % 1.36 C
3680 16-03-2009 16:18:55 9.8 C 56 % 1.45 C
3681 16-03-2009 16:30:55 9.8 C 56 % 1.45 C
3682 16-03-2009 16:42:55 10 C 55 % 1.39 C
3683 16-03-2009 16:54:55 9.8 C 55 % 1.2 C
3684 16-03-2009 17:06:54 9.7 C 57 % 1.61 C
3685 16-03-2009 17:18:55 9.7 C 57 % 1.61 C
3686 16-03-2009 17:30:54 9.7 C 57 % 1.61 C
3687 16-03-2009 17:42:54 9.6 C 57 % 1.51 C
3688 16-03-2009 17:54:54 9.2 C 58 % 1.38 C
3689 16-03-2009 18:06:53 9.2 C 59 % 1.62 C
3690 16-03-2009 18:18:54 9.2 C 60 % 1.85 C
3691 16-03-2009 18:30:54 9 C 60 % 1.66 C
3692 16-03-2009 18:42:54 8.9 C 62 % 2.03 C
3693 16-03-2009 18:54:53 8.7 C 63 % 2.06 C
3694 16-03-2009 19:06:54 8.7 C 64 % 2.28 C
3695 16-03-2009 19:18:53 8.6 C 65 % 2.4 C
3696 16-03-2009 19:30:53 8.5 C 65 % 2.31 C
3697 16-03-2009 19:42:54 8.5 C 66 % 2.52 C
3698 16-03-2009 19:54:53 8.4 C 66 % 2.43 C
3699 16-03-2009 20:06:53 8.4 C 66 % 2.43 C
3700 16-03-2009 20:18:52 8.4 C 66 % 2.43 C
Sensor: Nr:Datum:Temp:Feuchte:Taupunkt:
Aussen-T/F 3701 16-03-2009 20:30:53 8.4 C 65 % 2.21 C
3702 16-03-2009 20:42:53 8.3 C 65 % 2.12 C
3703 16-03-2009 20:54:52 8.3 C 65 % 2.12 C
3704 16-03-2009 21:06:52 8.2 C 66 % 2.24 C
3705 16-03-2009 21:18:52 8.2 C 66 % 2.24 C
3706 16-03-2009 21:30:51 8.2 C 66 % 2.24 C
3707 16-03-2009 21:42:51 8.1 C 65 % 1.93 C
3708 16-03-2009 21:54:52 8.1 C 65 % 1.93 C
3709 16-03-2009 22:06:51 8.1 C 65 % 1.93 C
3710 16-03-2009 22:19:53 8 C 64 % 1.62 C
3711 16-03-2009 22:31:54 8 C 64 % 1.62 C
3712 16-03-2009 22:43:54 8 C 64 % 1.62 C
3713 16-03-2009 22:55:54 7.9 C 64 % 1.52 C
3714 16-03-2009 23:07:54 8 C 64 % 1.62 C
3715 16-03-2009 23:19:54 8 C 64 % 1.62 C
3716 16-03-2009 23:31:54 8 C 64 % 1.62 C
3717 16-03-2009 23:43:54 7.9 C 66 % 1.95 C
3718 16-03-2009 23:55:54 7.9 C 66 % 1.95 C
3719 17-03-2009 00:07:54 7.8 C 67 % 2.07 C
3720 17-03-2009 00:19:54 7.8 C 65 % 1.64 C
3721 17-03-2009 00:31:54 7.8 C 65 % 1.64 C
3722 17-03-2009 00:43:54 7.7 C 65 % 1.55 C
3723 17-03-2009 00:55:54 7.7 C 63 % 1.11 C
3724 17-03-2009 01:07:54 7.7 C 62 % 0.89 C
3725 17-03-2009 01:19:54 7.4 C 62 % 0.61 C
Sensor: Nr:Datum:Temp:Feuchte:Taupunkt:
Aussen-T/F 3726 17-03-2009 01:31:54 6.7 C 65 % 0.6 C
3727 17-03-2009 01:43:54 6.1 C 66 % 0.24 C
3728 17-03-2009 01:55:54 5.8 C 69 % 0.56 C
3729 17-03-2009 02:07:54 5.6 C 69 % 0.37 C
3730 17-03-2009 02:19:54 5.3 C 70 % 0.28 C
3731 17-03-2009 02:31:55 5.1 C 71 % 0.29 C
3732 17-03-2009 02:43:55 5 C 72 % 0.38 C
3733 17-03-2009 02:55:55 4.9 C 73 % 0.48 C
3734 17-03-2009 03:07:55 4.7 C 74 % 0.47 C
3735 17-03-2009 03:19:55 4.7 C 74 % 0.47 C
3736 17-03-2009 03:31:55 4.5 C 75 % 0.46 C
3737 17-03-2009 03:43:55 4.3 C 76 % 0.45 C
3738 17-03-2009 03:55:55 4.1 C 77 % 0.44 C
3739 17-03-2009 04:07:55 4 C 78 % 0.52 C
3740 17-03-2009 04:19:55 3.9 C 79 % 0.6 C
3741 17-03-2009 04:31:55 4 C 78 % 0.52 C
3742 17-03-2009 04:43:55 4 C 79 % 0.7 C
3743 17-03-2009 04:55:55 3.8 C 80 % 0.68 C
3744 17-03-2009 05:07:55 3.5 C 80 % 0.38 C
3745 17-03-2009 05:19:55 3.3 C 80 % 0.19 C
3746 17-03-2009 05:31:55 3.2 C 81 % 0.26 C
3747 17-03-2009 05:43:55 3.2 C 81 % 0.26 C
3748 17-03-2009 05:55:55 3.2 C 82 % 0.43 C
3749 17-03-2009 06:07:55 3 C 82 % 0.24 C
3750 17-03-2009 06:19:56 3 C 82 % 0.24 C
Sensor: Nr:Datum:Temp:Feuchte:Taupunkt:
Aussen-T/F 3751 17-03-2009 06:31:56 3 C 83 % 0.4 C
3752 17-03-2009 06:43:56 3.1 C 83 % 0.5 C
3753 17-03-2009 06:55:56 3.3 C 83 % 0.7 C
3754 17-03-2009 07:07:52 3.5 C 83 % 0.89 C
3755 17-03-2009 07:19:52 3.5 C 81 % 0.55 C
3756 17-03-2009 07:31:52 3.6 C 80 % 0.48 C
3757 17-03-2009 07:43:52 3.5 C 80 % 0.38 C
3758 17-03-2009 07:55:52 3.5 C 80 % 0.38 C
3759 17-03-2009 08:07:51 3.5 C 80 % 0.38 C
3760 17-03-2009 08:19:51 3.7 C 80 % 0.58 C
3761 17-03-2009 08:31:52 3.8 C 80 % 0.68 C
3762 17-03-2009 08:43:52 3.9 C 79 % 0.6 C
3763 17-03-2009 08:55:51 4.2 C 79 % 0.89 C
3764 17-03-2009 09:07:51 5 C 77 % 1.31 C
3765 17-03-2009 09:19:50 5.8 C 72 % 1.15 C
3766 17-03-2009 09:31:51 6.3 C 68 % 0.84 C
3767 17-03-2009 09:43:51 6.5 C 66 % 0.62 C
3768 17-03-2009 09:55:50 6.5 C 66 % 0.62 C
3769 17-03-2009 10:07:50 6.8 C 65 % 0.69 C
3770 17-03-2009 10:19:51 7.2 C 64 % 0.86 C
3771 17-03-2009 10:31:50 7.9 C 62 % 1.08 C
3772 17-03-2009 10:43:50 8.4 C 60 % 1.1 C
3773 17-03-2009 10:55:50 9 C 57 % 0.95 C
3774 17-03-2009 11:07:50 10.1 C 53 % 0.97 C
3775 17-03-2009 11:19:50 11.4 C 50 % 1.36 C
Sensor: Nr:Datum:Temp:Feuchte:Taupunkt:
Aussen-T/F 3776 17-03-2009 11:31:50 11.7 C 47 % 0.78 C
3777 17-03-2009 11:43:50 11.6 C 47 % 0.69 C
3778 17-03-2009 11:55:50 11.4 C 48 % 0.79 C
3779 17-03-2009 12:07:50 11.5 C 49 % 1.17 C
3780 17-03-2009 12:19:49 11.2 C 50 % 1.18 C
3781 17-03-2009 12:31:49 12 C 48 % 1.34 C
3782 17-03-2009 12:43:49 13.3 C 43 % 1 C
3783 17-03-2009 12:55:49 13.7 C 42 % 1.04 C
3784 17-03-2009 13:07:49 14.1 C 40 % 0.72 C
3785 17-03-2009 13:19:48 14.1 C 39 % 0.37 C
3786 17-03-2009 13:31:48 13.9 C 39 % 0.19 C
3787 17-03-2009 13:43:48 14.2 C 39 % 0.46 C
3788 17-03-2009 13:55:48 14.7 C 38 % 0.55 C
3789 17-03-2009 14:07:48 15.4 C 35 % 0.04 C
3790 17-03-2009 14:19:48 14.2 C 38 % 0.1 C
3791 17-03-2009 14:31:48 13.8 C 41 % 0.79 C
3792 17-03-2009 14:43:48 13.2 C 42 % 0.59 C
3793 17-03-2009 14:55:48 12.5 C 44 % 0.59 C
3794 17-03-2009 15:07:47 12.4 C 45 % 0.81 C
3795 17-03-2009 15:19:48 12.5 C 46 % 1.21 C
3796 17-03-2009 15:31:47 12.7 C 45 % 1.09 C
3797 17-03-2009 15:43:47 12.8 C 45 % 1.18 C
3798 17-03-2009 15:55:47 12.8 C 45 % 1.18 C
3799 17-03-2009 16:07:47 12.5 C 45 % 0.91 C
3800 17-03-2009 16:19:47 12.6 C 46 % 1.3 C
Sensor: Nr:Datum:Temp:Feuchte:Taupunkt:
Aussen-T/F 3801 17-03-2009 16:31:47 12.5 C 45 % 0.91 C
3802 17-03-2009 16:43:47 12.6 C 45 % 1 C
3803 17-03-2009 16:55:46 12.1 C 43 % -0.08 C
3804 17-03-2009 17:07:47 12 C 45 % 0.45 C
3805 17-03-2009 17:19:46 11.9 C 47 % 0.96 C
3806 17-03-2009 17:31:46 12.6 C 44 % 0.69 C
3807 17-03-2009 17:43:46 12.2 C 44 % 0.32 C
3808 17-03-2009 17:55:46 12 C 43 % -0.17 C
3809 17-03-2009 18:07:46 11.7 C 45 % 0.18 C
3810 17-03-2009 18:19:46 11.2 C 46 % 0.02 C
3811 17-03-2009 18:31:45 10.7 C 49 % 0.44 C
3812 17-03-2009 18:43:45 10.2 C 51 % 0.53 C
3813 17-03-2009 18:55:46 9.5 C 55 % 0.92 C
3814 17-03-2009 19:07:45 9.2 C 56 % 0.89 C
3815 17-03-2009 19:19:45 8.7 C 59 % 1.15 C
3816 17-03-2009 19:31:45 8.5 C 59 % 0.96 C
3817 17-03-2009 19:43:45 8.1 C 60 % 0.82 C
3818 17-03-2009 19:55:45 7.8 C 63 % 1.21 C
3819 17-03-2009 20:07:44 7.6 C 64 % 1.24 C
3820 17-03-2009 20:19:44 7.3 C 65 % 1.17 C
3821 17-03-2009 20:31:45 7.1 C 65 % 0.98 C
3822 17-03-2009 20:43:45 6.9 C 68 % 1.41 C
3823 17-03-2009 20:55:44 6.5 C 68 % 1.03 C
3824 17-03-2009 21:07:44 6.3 C 70 % 1.24 C
3825 17-03-2009 21:19:44 6.2 C 71 % 1.34 C
Sensor: Nr:Datum:Temp:Feuchte:Taupunkt:
Aussen-T/F 3826 17-03-2009 21:31:44 5.7 C 71 % 0.86 C
3827 17-03-2009 21:43:44 5.7 C 73 % 1.25 C
3828 17-03-2009 21:56:45 5.5 C 73 % 1.06 C
3829 17-03-2009 22:08:45 5.3 C 74 % 1.05 C
3830 17-03-2009 22:20:46 5.1 C 75 % 1.04 C
3831 17-03-2009 22:32:46 4.9 C 77 % 1.22 C
3832 17-03-2009 22:44:46 4.8 C 77 % 1.12 C
3833 17-03-2009 22:56:46 4.7 C 77 % 1.02 C
3834 17-03-2009 23:08:46 4.6 C 77 % 0.92 C
3835 17-03-2009 23:20:46 4.3 C 77 % 0.63 C
3836 17-03-2009 23:32:46 4.2 C 78 % 0.71 C
3837 17-03-2009 23:44:46 4 C 79 % 0.7 C
3838 17-03-2009 23:56:46 3.8 C 80 % 0.68 C
3839 18-03-2009 00:08:46 3.6 C 81 % 0.65 C
3840 18-03-2009 00:20:46 3.3 C 81 % 0.36 C
3841 18-03-2009 00:32:46 3.2 C 82 % 0.43 C
3842 18-03-2009 00:44:46 2.9 C 83 % 0.31 C
3843 18-03-2009 00:56:46 2.8 C 82 % 0.04 C
3844 18-03-2009 01:08:46 2.7 C 83 % 0.11 C
3845 18-03-2009 01:20:46 2.6 C 83 % 0.01 C
3846 18-03-2009 01:32:46 2.4 C 83 % -0.18 C
3847 18-03-2009 01:44:46 2.2 C 83 % -0.38 C
3848 18-03-2009 01:56:46 2.1 C 83 % -0.48 C
3849 18-03-2009 02:08:47 1.9 C 84 % -0.51 C
3850 18-03-2009 02:20:47 1.8 C 84 % -0.61 C
Sensor: Nr:Datum:Temp:Feuchte:Taupunkt:
Aussen-T/F 3851 18-03-2009 02:32:47 1.5 C 84 % -0.9 C
3852 18-03-2009 02:44:47 1.5 C 85 % -0.74 C
3853 18-03-2009 02:56:47 1.4 C 85 % -0.84 C
3854 18-03-2009 03:08:47 1.2 C 85 % -1.03 C
3855 18-03-2009 03:20:47 0.9 C 85 % -1.33 C
3856 18-03-2009 03:32:47 0.8 C 85 % -1.43 C
3857 18-03-2009 03:44:47 0.6 C 85 % -1.62 C
3858 18-03-2009 03:56:47 0.4 C 85 % -1.82 C
3859 18-03-2009 04:08:47 0.3 C 85 % -1.92 C
3860 18-03-2009 04:20:47 0.2 C 86 % -1.86 C
3861 18-03-2009 04:32:47 0.1 C 86 % -1.96 C
3862 18-03-2009 04:44:47 0.1 C 87 % -1.8 C
3863 18-03-2009 04:56:47 0 C 87 % -1.9 C
3864 18-03-2009 05:08:47 -0.1 C 87 % -2 C
3865 18-03-2009 05:20:47 0 C 88 % -1.74 C
3866 18-03-2009 05:32:47 0 C 88 % -1.74 C
3867 18-03-2009 05:44:47 -0.1 C 88 % -1.84 C
3868 18-03-2009 05:56:47 -0.2 C 88 % -1.94 C
3869 18-03-2009 06:08:48 -0.2 C 88 % -1.94 C
3870 18-03-2009 06:20:48 -0.1 C 89 % -1.69 C
3871 18-03-2009 06:32:44 0 C 89 % -1.59 C
3872 18-03-2009 06:44:45 0 C 89 % -1.59 C
3873 18-03-2009 06:56:45 0.2 C 89 % -1.39 C
3874 18-03-2009 07:08:44 0.2 C 89 % -1.39 C
3875 18-03-2009 07:20:44 0.2 C 89 % -1.39 C
Sensor: Nr:Datum:Temp:Feuchte:Taupunkt:
Aussen-T/F 3876 18-03-2009 07:32:44 0.2 C 89 % -1.39 C
3877 18-03-2009 07:44:44 0.2 C 89 % -1.39 C
3878 18-03-2009 07:56:44 0.1 C 88 % -1.65 C
3879 18-03-2009 08:08:44 0.1 C 88 % -1.65 C
3880 18-03-2009 08:20:43 0.1 C 88 % -1.65 C
3881 18-03-2009 08:32:44 0.5 C 88 % -1.25 C
3882 18-03-2009 08:44:43 1.2 C 88 % -0.56 C
3883 18-03-2009 08:56:43 1.2 C 85 % -1.03 C
3884 18-03-2009 09:08:43 1.7 C 84 % -0.71 C
3885 18-03-2009 09:20:43 1.9 C 82 % -0.84 C
3886 18-03-2009 09:32:43 1.9 C 80 % -1.18 C
3887 18-03-2009 09:44:43 2.5 C 79 % -0.76 C
3888 18-03-2009 09:56:43 2.8 C 77 % -0.82 C
3889 18-03-2009 10:08:43 3.3 C 74 % -0.88 C
3890 18-03-2009 10:20:42 3.6 C 73 % -0.78 C
3891 18-03-2009 10:32:42 3.8 C 74 % -0.4 C
3892 18-03-2009 10:44:42 4.6 C 73 % 0.19 C
3893 18-03-2009 10:56:42 5.2 C 67 % -0.41 C
3894 18-03-2009 11:08:42 5.9 C 62 % -0.81 C
3895 18-03-2009 11:20:41 6.5 C